Provisional Data: Kishacoquillas Creek near Belleville, PA


Please select a monitoring station.
Please select start date.
Please select start date.

Toggle Unit: C/F Toggle Unit: C/F
Sample Time Temperature (C) Temperature (F) Specific Conductivity (mS/cm) pH   Turbidity (NTU+) DO (mg/L)
5/4/2021 12:00:00 AM 14.71 58.478 0.415 7.58 3619 7.36
5/4/2021 12:15:00 AM 14.69 58.442 0.414 7.58 3637 7.35
5/4/2021 12:30:00 AM 14.67 58.406 0.413 7.58 3620 7.37
5/4/2021 12:45:00 AM 14.65 58.37 0.412 7.57 3672 7.33
5/4/2021 1:00:00 AM 14.63 58.334 0.412 7.57 3647 7.33
5/4/2021 1:15:00 AM 14.61 58.298 0.414 7.57 3669 7.35
5/4/2021 1:30:00 AM 14.57 58.226 0.418 7.57 3649 7.34
5/4/2021 1:45:00 AM 14.53 58.154 0.423 7.56 3640 7.33
5/4/2021 2:00:00 AM 14.51 58.118 0.431 7.55 3606 7.42
5/4/2021 2:15:00 AM 14.44 57.992 0.437 7.56 3580 7.43
5/4/2021 2:30:00 AM 14.47 58.046 0.433 7.57 3554 7.58
5/4/2021 2:45:00 AM 14.45 58.01 0.43 7.59 3571 7.63
5/4/2021 3:00:00 AM 14.47 58.046 0.415 7.59 3575 7.74
5/4/2021 3:15:00 AM 14.42 57.956 0.416 7.58 3573 7.75
5/4/2021 3:30:00 AM 14.29 57.722 0.412 7.57 3546 7.75
5/4/2021 3:45:00 AM 14.25 57.65 0.409 7.57 3595 7.78
5/4/2021 4:00:00 AM 14.2 57.56 0.405 7.57 3603 7.86
5/4/2021 4:15:00 AM 14.15 57.47 0.401 7.58 3601 7.9
5/4/2021 4:30:00 AM 14.1 57.38 0.399 7.58 3603 7.86
5/4/2021 4:45:00 AM 14.05 57.29 0.395 7.57 3581 7.83
5/4/2021 5:00:00 AM 14.02 57.236 0.39 7.56 3605 7.76
5/4/2021 5:15:00 AM 14.01 57.218 0.381 7.55 3590 7.7
5/4/2021 5:30:00 AM 14.03 57.254 0.372 7.54 3611 7.65
5/4/2021 5:45:00 AM 14.06 57.308 0.365 7.53 3620 7.61
5/4/2021 6:00:00 AM 14.08 57.344 0.357 7.51 3584 7.6
5/4/2021 6:15:00 AM 14.09 57.362 0.353 7.5 3566 7.57
5/4/2021 6:30:00 AM 14.1 57.38 0.351 7.5 3557 7.54
5/4/2021 6:45:00 AM 14.08 57.344 0.354 7.48 3513 7.55
5/4/2021 7:00:00 AM 14.04 57.272 0.36 7.47 3484 7.6
5/4/2021 7:15:00 AM 13.96 57.128 0.369 7.48 3442 7.7
5/4/2021 7:30:00 AM 13.86 56.948 0.379 7.5 3468 7.83
5/4/2021 7:45:00 AM 13.78 56.804 0.386 7.51 3505 7.93
5/4/2021 8:00:00 AM 13.71 56.678 0.391 7.53 3427 8
5/4/2021 8:15:00 AM 13.67 56.606 0.394 7.54 3432 8.08
5/4/2021 8:30:00 AM 13.64 56.552 0.394 7.54 3452 8.15
5/4/2021 8:45:00 AM 13.65 56.57 0.393 7.55 3504 8.2
5/4/2021 9:00:00 AM 13.69 56.642 0.391 7.56 3449 8.27
5/4/2021 9:15:00 AM 13.72 56.696 0.389 7.56 3416 8.28
5/4/2021 9:30:00 AM 13.76 56.768 0.388 7.56 3386 8.31
5/4/2021 9:45:00 AM 13.81 56.858 0.386 7.56 3331 8.38
5/4/2021 10:00:00 AM 13.94 57.092 0.385 7.56 3317 8.54
5/4/2021 10:15:00 AM 14.04 57.272 0.384 7.56 3314 8.74
5/4/2021 10:30:00 AM 14.17 57.506 0.384 7.58 3348 8.98
5/4/2021 10:45:00 AM 14.35 57.83 0.385 7.58 3313 9.15
5/4/2021 11:00:00 AM 14.51 58.118 0.386 7.6 3237 9.35
5/4/2021 11:15:00 AM 14.67 58.406 0.386 7.61 3292 9.55
5/4/2021 11:30:00 AM 14.88 58.784 0.388 7.63 3289 9.82
5/4/2021 11:45:00 AM 15.08 59.144 0.389 7.65 3328 10.03
5/4/2021 12:00:00 PM 15.35 59.63 0.39 7.66 3322 10.25
5/4/2021 12:15:00 PM 15.51 59.918 0.391 7.68 3295 10.33
5/4/2021 12:30:00 PM 15.65 60.17 0.393 7.7 3298 10.38
5/4/2021 12:45:00 PM 15.7 60.26 0.395 7.71 3369 10.33
5/4/2021 1:00:00 PM 15.88 60.584 0.396 7.73 3361 10.47
5/4/2021 1:15:00 PM 16.17 61.106 0.397 7.74 3353 10.67
5/4/2021 1:30:00 PM 16.41 61.538 0.399 7.76 3354 10.84
5/4/2021 1:45:00 PM 16.55 61.79 0.4 7.78 3368 10.9
5/4/2021 2:00:00 PM 16.65 61.97 0.401 7.79 3365 10.92
5/4/2021 2:15:00 PM 16.76 62.168 0.402 7.8 3366 10.98
5/4/2021 2:30:00 PM 16.88 62.384 0.402 7.82 3374 10.99
5/4/2021 2:45:00 PM 17 62.6 0.403 7.83 3406 10.93
5/4/2021 3:00:00 PM 17.11 62.798 0.403 7.84 3371 10.85
5/4/2021 3:15:00 PM 17.24 63.032 0.404 7.85 3399 10.89
5/4/2021 3:30:00 PM 17.42 63.356 0.405 7.85 3431 10.91
5/4/2021 3:45:00 PM 17.52 63.536 0.405 7.86 3397 10.83
5/4/2021 4:00:00 PM 17.68 63.824 0.407 7.86 3401 10.83
5/4/2021 4:15:00 PM 17.78 64.004 0.407 7.85 3306 10.76
5/4/2021 4:30:00 PM 17.88 64.184 0.408 7.86 3259 10.7
5/4/2021 4:45:00 PM 17.96 64.328 0.409 7.87 3192 10.6
5/4/2021 5:00:00 PM 18.01 64.418 0.411 7.87 3051 10.45
5/4/2021 5:15:00 PM 18.03 64.454 0.412 7.87 3015 10.26
5/4/2021 5:30:00 PM 18.06 64.508 0.413 7.86 3132 10
5/4/2021 5:45:00 PM 18.07 64.526 0.415 7.84 3218 9.66
5/4/2021 6:00:00 PM 18.09 64.562 0.416 7.83 3207 9.33
5/4/2021 6:15:00 PM 18.1 64.58 0.417 7.81 3207 9.05
5/4/2021 6:30:00 PM 18.13 64.634 0.417 7.79 3217 8.87
5/4/2021 6:45:00 PM 18.15 64.67 0.418 7.77 3208 8.69
5/4/2021 7:00:00 PM 18.16 64.688 0.418 7.76 3167 8.55
5/4/2021 7:15:00 PM 18.16 64.688 0.419 7.75 3170 8.37
5/4/2021 7:30:00 PM 18.16 64.688 0.42 7.74 3175 8.18
5/4/2021 7:45:00 PM 18.16 64.688 0.421 7.73 3181 8
5/4/2021 8:00:00 PM 18.15 64.67 0.421 7.72 3183 7.85
5/4/2021 8:15:00 PM 18.14 64.652 0.422 7.7 3160 7.69
5/4/2021 8:30:00 PM 18.14 64.652 0.423 7.69 3164 7.57
5/4/2021 8:45:00 PM 18.14 64.652 0.423 7.68 3193 7.46
5/4/2021 9:00:00 PM 18.12 64.616 0.42 7.67 3279 7.37
5/4/2021 9:15:00 PM 18.1 64.58 0.424 7.66 3276 7.27
5/4/2021 9:30:00 PM 18.08 64.544 0.424 7.65 3279 7.17
5/4/2021 9:45:00 PM 18.05 64.49 0.423 7.64 3250 7.12
5/4/2021 10:00:00 PM 18.04 64.472 0.432 7.6 3287 6.98
5/4/2021 10:15:00 PM 17.97 64.346 0.429 7.6 3296 6.94
5/4/2021 10:30:00 PM 17.92 64.256 0.427 7.59 3301 6.9
5/4/2021 10:45:00 PM 17.87 64.166 0.425 7.57 3341 6.85
5/4/2021 11:00:00 PM 17.83 64.094 0.426 7.56 3328 6.84
5/4/2021 11:15:00 PM 17.78 64.004 0.424 7.57 3389 6.8
5/4/2021 11:30:00 PM 17.73 63.914 0.427 7.58 3370 6.82
5/4/2021 11:45:00 PM 17.69 63.842 0.428 7.58 3378 6.77
5/5/2021 12:00:00 AM 17.63 63.734 0.428 7.58 3358 6.74
5/5/2021 12:15:00 AM 17.57 63.626 0.428 7.58 3376 6.73
5/5/2021 12:30:00 AM 17.5 63.5 0.428 7.58 3319 6.71
5/5/2021 12:45:00 AM 17.42 63.356 0.427 7.58 3273 6.68
5/5/2021 1:00:00 AM 17.34 63.212 0.427 7.57 3289 6.65
5/5/2021 1:15:00 AM 17.25 63.05 0.426 7.57 3308 6.61
5/5/2021 1:30:00 AM 17.16 62.888 0.425 7.56 3323 6.57
5/5/2021 1:45:00 AM 17.08 62.744 0.423 7.56 3316 6.56
5/5/2021 2:00:00 AM 17.01 62.618 0.422 7.55 3310 6.57
5/5/2021 2:15:00 AM 16.93 62.474 0.421 7.54 3222 6.57
5/5/2021 2:30:00 AM 16.87 62.366 0.42 7.54 3274 6.61
5/5/2021 2:45:00 AM 16.79 62.222 0.422 7.54 3288 6.68
5/5/2021 3:00:00 AM 16.7 62.06 0.425 7.54 3328 6.75
5/5/2021 3:15:00 AM 16.6 61.88 0.423 7.54 3273 6.85
5/5/2021 3:30:00 AM 16.5 61.7 0.428 7.55 3334 6.91
5/5/2021 3:45:00 AM 16.39 61.502 0.428 7.55 3295 6.98
5/5/2021 4:00:00 AM 16.29 61.322 0.426 7.56 3299 7.02
5/5/2021 4:15:00 AM 16.19 61.142 0.426 7.56 3320 7.05
5/5/2021 4:30:00 AM 16.1 60.98 0.424 7.56 3292 7.09
5/5/2021 4:45:00 AM 16.02 60.836 0.421 7.55 3278 7.11
5/5/2021 5:00:00 AM 15.94 60.692 0.418 7.55 3300 7.13
5/5/2021 5:15:00 AM 15.87 60.566 0.415 7.55 3347 7.16
5/5/2021 5:30:00 AM 15.81 60.458 0.414 7.55 3333 7.19
5/5/2021 5:45:00 AM 15.74 60.332 0.412 7.55 3320 7.25
5/5/2021 6:00:00 AM 15.66 60.188 0.411 7.55 3325 7.29
5/5/2021 6:15:00 AM 15.57 60.026 0.411 7.55 3343 7.33
5/5/2021 6:30:00 AM 15.49 59.882 0.412 7.55 3354 7.36
5/5/2021 6:45:00 AM 15.39 59.702 0.412 7.55 3906 7.39
5/5/2021 7:00:00 AM 15.3 59.54 0.412 7.52 4115 7.42
5/5/2021 7:15:00 AM 15.24 59.432 0.418 7.51 2179 7.47
5/5/2021 7:30:00 AM 15.16 59.288 0.435 7.53 1987 7.53
5/5/2021 7:45:00 AM 15.37 59.666 0.409 7.55 2057 7.76
5/5/2021 8:00:00 AM 15.12 59.216 0.399 7.56 2103 7.79
5/5/2021 8:15:00 AM 14.97 58.946 0.406 7.54 2002 7.81
5/5/2021 8:30:00 AM 14.88 58.784 0.412 7.54 1961 7.8
5/5/2021 8:45:00 AM 14.72 58.496 0.414 7.54 1868 7.96
5/5/2021 9:00:00 AM 14.68 58.424 0.411 7.55 1823 8.07
5/5/2021 9:15:00 AM 14.54 58.172 0.4 7.57 2092 8.12
5/5/2021 9:30:00 AM 14.46 58.028 0.403 7.56 1966 8.18
5/5/2021 9:45:00 AM 14.39 57.902 0.398 7.56 1950 8.25
5/5/2021 10:00:00 AM 14.38 57.884 0.384 7.56 2124 8.27
5/5/2021 10:15:00 AM 14.44 57.992 0.369 7.54 2161 8.22
5/5/2021 10:30:00 AM 14.54 58.172 0.355 7.53 2244 8.15
5/5/2021 10:45:00 AM 14.65 58.37 0.345 7.52 2068 8.1
5/5/2021 11:00:00 AM 14.71 58.478 0.337 7.5 1959 8.01
5/5/2021 11:15:00 AM 14.75 58.55 0.331 7.48 1994 7.94
5/5/2021 11:30:00 AM 14.75 58.55 0.336 7.47 2050 7.92
5/5/2021 11:45:00 AM 14.72 58.496 0.344 7.48 2308 8.04
5/5/2021 12:00:00 PM 14.66 58.388 0.354 7.49 2359 8.18
5/5/2021 12:15:00 PM 14.6 58.28 0.36 7.5 2238 8.34
5/5/2021 12:30:00 PM 14.64 58.352 0.366 7.53 2347 8.48
5/5/2021 12:45:00 PM 14.69 58.442 0.37 7.55 2157 8.61
5/5/2021 1:00:00 PM 14.7 58.46 0.367 7.57 2214 8.7
5/5/2021 1:15:00 PM 14.64 58.352 0.361 7.58 2266 8.76
5/5/2021 1:30:00 PM 14.68 58.424 0.352 7.59 2217 8.75
5/5/2021 1:45:00 PM 14.78 58.604 0.346 7.59 2388 8.77
5/5/2021 2:00:00 PM 14.85 58.73 0.342 7.6 2372 8.72
5/5/2021 2:15:00 PM 14.86 58.748 0.338 7.6 2276 8.62
5/5/2021 2:30:00 PM 14.89 58.802 0.337 7.59 1860 8.51
5/5/2021 2:45:00 PM 14.92 58.856 0.336 7.57 2001 8.46
5/5/2021 3:00:00 PM 14.99 58.982 0.337 7.57 2155 8.47
5/5/2021 3:15:00 PM 15.11 59.198 0.339 7.55 2237 8.48
5/5/2021 3:30:00 PM 15.11 59.198 0.341 7.55 2014 8.48
5/5/2021 3:45:00 PM 15.04 59.072 0.343 7.55 2015 8.46
5/5/2021 4:00:00 PM 15.04 59.072 0.345 7.54 2426 8.46
5/5/2021 4:15:00 PM 15.05 59.09 0.345 7.54 2069 8.5
5/5/2021 4:30:00 PM 15.1 59.18 0.346 7.56 2960 8.56
5/5/2021 4:45:00 PM 15.17 59.306 0.347 7.55 2881 8.61
5/5/2021 5:00:00 PM 15.19 59.342 0.347 7.56 2623 8.68
5/5/2021 5:15:00 PM 15.13 59.234 0.348 7.57 2588 8.71
5/5/2021 5:30:00 PM 15.12 59.216 0.348 7.57 2605 8.74
5/5/2021 5:45:00 PM 15.24 59.432 0.348 7.58 2668 8.83
5/5/2021 6:00:00 PM 15.32 59.576 0.35 7.58 2580 8.91
5/5/2021 6:15:00 PM 15.32 59.576 0.351 7.59 2595 8.92
5/5/2021 6:30:00 PM 15.25 59.45 0.353 7.59 2593 8.86
5/5/2021 6:45:00 PM 15.16 59.288 0.354 7.59 2573 8.78
5/5/2021 7:00:00 PM 15.09 59.162 0.354 7.59 2591 8.78
5/5/2021 7:15:00 PM 15.02 59.036 0.353 7.61 2561 8.76
5/5/2021 7:30:00 PM 14.95 58.91 0.352 7.61 2466 8.73
5/5/2021 7:45:00 PM 14.87 58.766 0.352 7.61 2534 8.71
5/5/2021 8:00:00 PM 14.79 58.622 0.351 7.61 2463 8.7
5/5/2021 8:15:00 PM 14.71 58.478 0.351 7.61 2547 8.67
5/5/2021 8:30:00 PM 14.62 58.316 0.351 7.61 2475 8.66
5/5/2021 8:45:00 PM 14.54 58.172 0.351 7.61 2436 8.67
5/5/2021 9:00:00 PM 14.46 58.028 0.352 7.61 2588 8.65
5/5/2021 9:15:00 PM 14.37 57.866 0.353 7.62 2541 8.65
5/5/2021 9:30:00 PM 14.28 57.704 0.354 7.62 2441 8.65
5/5/2021 9:45:00 PM 14.18 57.524 0.356 7.62 3014 8.62
5/5/2021 10:00:00 PM 14.09 57.362 0.357 7.62 2845 8.61
5/5/2021 10:15:00 PM 13.98 57.164 0.359 7.63 2965 8.64
5/5/2021 10:30:00 PM 13.88 56.984 0.361 7.63 2972 8.64
5/5/2021 10:45:00 PM 13.77 56.786 0.363 7.63 2918 8.64
5/5/2021 11:00:00 PM 13.68 56.624 0.364 7.63 2970 8.66
5/5/2021 11:15:00 PM 13.57 56.426 0.365 7.64 2918 8.68
5/5/2021 11:30:00 PM 13.46 56.228 0.367 7.64 2913 8.69
5/5/2021 11:45:00 PM 13.36 56.048 0.369 7.64 2926 8.68
5/6/2021 12:00:00 AM 13.25 55.85 0.371 7.65 2703 8.69
5/6/2021 12:15:00 AM 13.15 55.67 0.373 7.65 2798 8.69
5/6/2021 12:30:00 AM 13.04 55.472 0.374 7.65 2781 8.71
5/6/2021 12:45:00 AM 12.95 55.31 0.375 7.65 2897 8.72
5/6/2021 1:00:00 AM 12.86 55.148 0.375 7.65 3116 8.73
5/6/2021 1:15:00 AM 12.77 54.986 0.376 7.66 3123 8.74
5/6/2021 1:30:00 AM 12.68 54.824 0.376 7.65 2989 8.76
5/6/2021 1:45:00 AM 12.59 54.662 0.377 7.66 2957 8.79
5/6/2021 2:00:00 AM 12.49 54.482 0.377 7.65 2962 8.8
5/6/2021 2:15:00 AM 12.37 54.266 0.377 7.66 2783 8.82
5/6/2021 2:30:00 AM 12.26 54.068 0.378 7.66 2847 8.87
5/6/2021 2:45:00 AM 12.14 53.852 0.378 7.66 2740 8.89
5/6/2021 3:00:00 AM 12.03 53.654 0.379 7.66 2445 8.92
5/6/2021 3:15:00 AM 11.91 53.438 0.38 7.66 2647 8.97
5/6/2021 3:30:00 AM 11.82 53.276 0.38 7.67 2609 8.99
5/6/2021 3:45:00 AM 11.72 53.096 0.38 7.66 2536 9.02
5/6/2021 4:00:00 AM 11.61 52.898 0.381 7.66 2503 9.07
5/6/2021 4:15:00 AM 11.51 52.718 0.381 7.67 2602 9.1
5/6/2021 4:30:00 AM 11.4 52.52 0.381 7.67 2356 9.14
5/6/2021 4:45:00 AM 11.3 52.34 0.382 7.67 2289 9.18
5/6/2021 5:00:00 AM 11.19 52.142 0.382 7.68 2259 9.2
5/6/2021 5:15:00 AM 11.09 51.962 0.383 7.68 2310 9.24
5/6/2021 5:30:00 AM 10.98 51.764 0.383 7.68 2197 9.28
5/6/2021 5:45:00 AM 10.89 51.602 0.383 7.69 2296 9.32
5/6/2021 6:00:00 AM 10.8 51.44 0.383 7.68 2310 9.35
5/6/2021 6:15:00 AM 10.7 51.26 0.383 7.68 2333 9.39
5/6/2021 6:30:00 AM 10.63 51.134 0.383 7.69 2442 9.42
5/6/2021 6:45:00 AM 10.56 51.008 0.382 7.69 2329 9.5
5/6/2021 7:00:00 AM 10.49 50.882 0.382 7.69 2304 9.56
5/6/2021 7:15:00 AM 10.43 50.774 0.382 7.7 2361 9.64
5/6/2021 7:30:00 AM 10.38 50.684 0.382 7.7 2298 9.7
5/6/2021 7:45:00 AM 10.35 50.63 0.382 7.7 2292 9.8
5/6/2021 8:00:00 AM 10.33 50.594 0.381 7.71 2436 9.89
5/6/2021 8:15:00 AM 10.35 50.63 0.381 7.72 2350 10.03
5/6/2021 8:30:00 AM 10.37 50.666 0.382 7.74 2307 10.17
5/6/2021 8:45:00 AM 10.38 50.684 0.382 7.74 2389 10.29
5/6/2021 9:00:00 AM 10.47 50.846 0.381 7.75 2301 10.44
5/6/2021 9:15:00 AM 10.51 50.918 0.383 7.76 2268 10.52
5/6/2021 9:30:00 AM 10.6 51.08 0.383 7.76 2279 10.65
5/6/2021 9:45:00 AM 10.67 51.206 0.383 7.78 2254 10.77
5/6/2021 10:00:00 AM 10.79 51.422 0.383 7.79 2350 10.87
5/6/2021 10:15:00 AM 10.96 51.728 0.383 7.8 2410 10.99
5/6/2021 10:30:00 AM 11.13 52.034 0.383 7.81 2286 11.12
5/6/2021 10:45:00 AM 11.31 52.358 0.383 7.82 2380 11.24
5/6/2021 11:00:00 AM 11.52 52.736 0.383 7.83 2492 11.37
5/6/2021 11:15:00 AM 11.68 53.024 0.383 7.84 2400 11.46
5/6/2021 11:30:00 AM 11.87 53.366 0.383 7.75 2630 11.54
5/6/2021 11:45:00 AM 12.06 53.708 0.383 7.87 2429 11.64
5/6/2021 12:00:00 PM 12.2 53.96 0.384 7.88 2522 11.74
5/6/2021 12:15:00 PM 12.32 54.176 0.382 7.89 2443 11.78
5/6/2021 12:30:00 PM 12.54 54.572 0.383 7.91 2351 11.86
5/6/2021 12:45:00 PM 12.8 55.04 0.383 7.92 2427 11.95
5/6/2021 1:00:00 PM 13.11 55.598 0.383 7.93 2515 12.01
5/6/2021 1:15:00 PM 13.41 56.138 0.382 7.95 2432 12.06
5/6/2021 1:30:00 PM 13.65 56.57 0.382 7.96 2473 12.05
5/6/2021 1:45:00 PM 13.88 56.984 0.383 7.97 2389 12.05
5/6/2021 2:00:00 PM 14.09 57.362 0.383 7.97 2392 12.04
5/6/2021 2:15:00 PM 14.32 57.776 0.383 7.99 2358 12.05
5/6/2021 2:30:00 PM 14.55 58.19 0.384 7.99 2429 12.01
5/6/2021 2:45:00 PM 14.79 58.622 0.383 8.01 2393 12.04
5/6/2021 3:00:00 PM 14.95 58.91 0.384 8.01 2397 11.99
5/6/2021 3:15:00 PM 15.08 59.144 0.383 8.02 2381 11.91
5/6/2021 3:30:00 PM 15.23 59.414 0.383 8.02 2474 11.88
5/6/2021 3:45:00 PM 15.35 59.63 0.383 8.03 2487 11.78
5/6/2021 4:00:00 PM 15.51 59.918 0.383 8.03 2276 11.71
5/6/2021 4:15:00 PM 15.64 60.152 0.382 8.02 2196 11.57
5/6/2021 4:30:00 PM 15.79 60.422 0.382 8.03 2125 11.52
5/6/2021 4:45:00 PM 15.9 60.62 0.383 8.04 2031 11.41
5/6/2021 5:00:00 PM 16.03 60.854 0.382 8.03 1915 11.29
5/6/2021 5:15:00 PM 16.14 61.052 0.382 8.03 1877 11.17
5/6/2021 5:30:00 PM 16.2 61.16 0.382 8.03 1839 11.02
5/6/2021 5:45:00 PM 16.28 61.304 0.382 8.03 1809 10.87
5/6/2021 6:00:00 PM 16.34 61.412 0.382 8.01 1859 10.7
5/6/2021 6:15:00 PM 16.38 61.484 0.382 8 1928 10.56
5/6/2021 6:30:00 PM 16.42 61.556 0.383 7.99 2036 10.37
5/6/2021 6:45:00 PM 16.43 61.574 0.383 7.98 2115 10.13
5/6/2021 7:00:00 PM 16.44 61.592 0.384 7.96 2180 9.93
5/6/2021 7:15:00 PM 16.45 61.61 0.384 7.95 2211 9.74
5/6/2021 7:30:00 PM 16.45 61.61 0.385 7.93 2233 9.53
5/6/2021 7:45:00 PM 16.43 61.574 0.385 7.91 2172 9.33
5/6/2021 8:00:00 PM 16.41 61.538 0.385 7.89 2207 9.12
5/6/2021 8:15:00 PM 16.36 61.448 0.386 7.87 2380 8.96
5/6/2021 8:30:00 PM 16.3 61.34 0.386 7.86 2329 8.78
5/6/2021 8:45:00 PM 16.24 61.232 0.387 7.84 2558 8.65
5/6/2021 9:00:00 PM 16.16 61.088 0.387 7.82 2716 8.53
5/6/2021 9:15:00 PM 16.07 60.926 0.387 7.81 2825 8.42
5/6/2021 9:30:00 PM 15.99 60.782 0.387 7.79 2824 8.33
5/6/2021 9:45:00 PM 15.9 60.62 0.387 7.78 2974 8.27
5/6/2021 10:00:00 PM 15.8 60.44 0.388 7.77 2898 8.2
5/6/2021 10:15:00 PM 15.69 60.242 0.388 7.75 2793 8.11
5/6/2021 10:30:00 PM 15.58 60.044 0.388 7.74 2903 8.09
5/6/2021 10:45:00 PM 15.47 59.846 0.388 7.72 2900 8.03
5/6/2021 11:00:00 PM 15.35 59.63 0.389 7.72 2964 8.02
5/6/2021 11:15:00 PM 15.23 59.414 0.389 7.71 3005 7.99
5/6/2021 11:30:00 PM 15.1 59.18 0.389 7.71 2905 7.96
5/6/2021 11:45:00 PM 14.97 58.946 0.389 7.7 2954 7.97
5/7/2021 12:00:00 AM 14.83 58.694 0.39 7.7 2948 7.98
5/7/2021 12:15:00 AM 14.69 58.442 0.39 7.69 3003 7.97
5/7/2021 12:30:00 AM 14.55 58.19 0.39 7.69 2757 7.97
5/7/2021 12:45:00 AM 14.4 57.92 0.39 7.68 2756 7.99
5/7/2021 1:00:00 AM 14.25 57.65 0.391 7.68 2882 8.01
5/7/2021 1:15:00 AM 14.09 57.362 0.391 7.67 2936 8.04
5/7/2021 1:30:00 AM 13.93 57.074 0.391 7.67 2830 8.07
5/7/2021 1:45:00 AM 13.77 56.786 0.391 7.67 2923 8.1
5/7/2021 2:00:00 AM 13.61 56.498 0.391 7.67 2887 8.14
5/7/2021 2:15:00 AM 13.46 56.228 0.392 7.67 2832 8.17
5/7/2021 2:30:00 AM 13.29 55.922 0.392 7.66 2854 8.23
5/7/2021 2:45:00 AM 13.13 55.634 0.393 7.66 3079 8.27
5/7/2021 3:00:00 AM 12.96 55.328 0.393 7.66 2865 8.32
5/7/2021 3:15:00 AM 12.79 55.022 0.393 7.66 2801 8.38
5/7/2021 3:30:00 AM 12.63 54.734 0.392 7.66 2693 8.42
5/7/2021 3:45:00 AM 12.47 54.446 0.394 7.66 2649 8.48
5/7/2021 4:00:00 AM 12.3 54.14 0.394 7.66 2772 8.54
5/7/2021 4:15:00 AM 12.14 53.852 0.394 7.66 2687 8.6
5/7/2021 4:30:00 AM 11.98 53.564 0.394 7.66 2691 8.65
5/7/2021 4:45:00 AM 11.82 53.276 0.395 7.66 2717 8.73
5/7/2021 5:00:00 AM 11.66 52.988 0.397 7.67 2726 8.79
5/7/2021 5:15:00 AM 11.51 52.718 0.397 7.66 2685 8.84
5/7/2021 5:30:00 AM 11.37 52.466 0.396 7.67 2677 8.88
5/7/2021 5:45:00 AM 11.24 52.232 0.395 7.66 2742 8.93
5/7/2021 6:00:00 AM 11.11 51.998 0.395 7.67 2861 9
5/7/2021 6:15:00 AM 10.98 51.764 0.395 7.67 2850 9.05
5/7/2021 6:30:00 AM 10.85 51.53 0.394 7.67 2828 9.13
5/7/2021 6:45:00 AM 10.74 51.332 0.393 7.67 2858 9.2
5/7/2021 7:00:00 AM 10.64 51.152 0.393 7.67 2912 9.3
5/7/2021 7:15:00 AM 10.55 50.99 0.393 7.69 2898 9.41
5/7/2021 7:30:00 AM 10.48 50.864 0.392 7.69 2953 9.52
5/7/2021 7:45:00 AM 10.42 50.756 0.393 7.7 2909 9.63
5/7/2021 8:00:00 AM 10.37 50.666 0.392 7.7 3023 9.78
5/7/2021 8:15:00 AM 10.34 50.612 0.393 7.71 3062 9.93
5/7/2021 8:30:00 AM 10.31 50.558 0.391 7.71 3079 10.06
5/7/2021 8:45:00 AM 10.27 50.486 0.392 7.73 3017 10.15
5/7/2021 9:00:00 AM 10.25 50.45 0.391 7.73 3020 10.28
5/7/2021 9:15:00 AM 10.23 50.414 0.391 7.74 2995 10.32
5/7/2021 9:30:00 AM 10.23 50.414 0.391 7.75 3009 10.46
5/7/2021 9:45:00 AM 10.25 50.45 0.39 7.76 2990 10.6
5/7/2021 10:00:00 AM 10.3 50.54 0.39 7.77 2875 10.76
5/7/2021 10:15:00 AM 10.42 50.756 0.39 7.78 2899 10.97
5/7/2021 10:30:00 AM 10.58 51.044 0.39 7.79 2942 11.16
5/7/2021 10:45:00 AM 10.69 51.242 0.389 7.81 2913 11.32
5/7/2021 11:00:00 AM 10.77 51.386 0.389 7.83 2826 11.44
5/7/2021 11:15:00 AM 10.84 51.512 0.389 7.84 2860 11.53
5/7/2021 11:30:00 AM 10.97 51.746 0.388 7.85 2862 11.61
5/7/2021 11:45:00 AM 11.11 51.998 0.388 7.86 2828 11.71
5/7/2021 12:00:00 PM 11.25 52.25 0.388 7.87 2824 11.81
5/7/2021 12:15:00 PM 11.36 52.448 0.387 7.88 2783 11.86
5/7/2021 12:30:00 PM 11.51 52.718 0.387 7.9 2822 11.94
5/7/2021 12:45:00 PM 11.62 52.916 0.386 7.9 2755 11.96
5/7/2021 1:00:00 PM 11.69 53.042 0.386 7.9 2815 11.91
5/7/2021 1:15:00 PM 11.78 53.204 0.385 7.91 2797 11.96
5/7/2021 1:30:00 PM 11.94 53.492 0.386 7.93 2838 12.02
5/7/2021 1:45:00 PM 12.14 53.852 0.386 7.93 2855 12.06
5/7/2021 2:00:00 PM 12.31 54.158 0.384 7.95 2842 12.1
5/7/2021 2:15:00 PM 12.45 54.41 0.384 7.96 2831 12.13
5/7/2021 2:30:00 PM 12.56 54.608 0.383 7.97 2869 12.1
5/7/2021 2:45:00 PM 12.65 54.77 0.383 7.98 2831 12.05
5/7/2021 3:00:00 PM 12.7 54.86 0.383 7.98 2870 11.88
5/7/2021 3:15:00 PM 12.68 54.824 0.384 7.98 2807 11.69
5/7/2021 3:30:00 PM 12.66 54.788 0.383 7.97 2555 11.41
5/7/2021 3:45:00 PM 12.65 54.77 0.383 7.95 2622 11.06
5/7/2021 4:00:00 PM 12.7 54.86 0.406 7.91 2657 10.81
5/7/2021 4:15:00 PM 12.76 54.968 0.402 7.88 2710 10.63
5/7/2021 4:30:00 PM 12.8 55.04 0.392 7.87 2706 10.51
5/7/2021 4:45:00 PM 12.82 55.076 0.402 7.85 2884 10.42
5/7/2021 5:00:00 PM 12.84 55.112 0.4 7.83 2837 10.34
5/7/2021 5:15:00 PM 12.86 55.148 0.395 7.83 2757 10.24
5/7/2021 5:30:00 PM 12.87 55.166 0.393 7.8 2800 10.16
5/7/2021 5:45:00 PM 12.89 55.202 0.389 7.8 2720 10.09
5/7/2021 6:00:00 PM 12.92 55.256 0.385 7.8 2652 10
5/7/2021 6:15:00 PM 12.95 55.31 0.382 7.79 3328 9.9
5/7/2021 6:30:00 PM 12.99 55.382 0.381 7.78 4278 9.78
5/7/2021 6:45:00 PM 13.01 55.418 0.379 7.77 4278 9.68
5/7/2021 7:00:00 PM 13.02 55.436 0.376 7.75 4277 9.55
5/7/2021 7:15:00 PM 13 55.4 0.373 7.74 4274 9.41
5/7/2021 7:30:00 PM 12.99 55.382 0.37 7.73 4277 9.27
5/7/2021 7:45:00 PM 12.98 55.364 0.367 7.73 4278 9.14
5/7/2021 8:00:00 PM 12.97 55.346 0.365 7.72 4278 9.05
5/7/2021 8:15:00 PM 12.95 55.31 0.364 7.71 4278 8.99
5/7/2021 8:30:00 PM 12.92 55.256 0.363 7.71 4277 8.92
5/7/2021 8:45:00 PM 12.89 55.202 0.364 7.7 4275 8.89
5/7/2021 9:00:00 PM 12.84 55.112 0.365 7.7 4248 8.87
5/7/2021 9:15:00 PM 12.78 55.004 0.367 7.67 4251 8.85
5/7/2021 9:30:00 PM 12.72 54.896 0.368 7.68 4266 8.84
5/7/2021 9:45:00 PM 12.66 54.788 0.366 7.68 4268 8.83
5/7/2021 10:00:00 PM 12.61 54.698 0.365 7.69 4274 8.84
5/7/2021 10:15:00 PM 12.55 54.59 0.361 7.69 4209 8.85
5/7/2021 10:30:00 PM 12.49 54.482 0.357 7.69 4278 8.86
5/7/2021 10:45:00 PM 12.42 54.356 0.354 7.69 4223 8.87
5/7/2021 11:00:00 PM 12.34 54.212 0.35 7.69 3915 8.88
5/7/2021 11:15:00 PM 12.26 54.068 0.346 7.68 3663 8.9
5/7/2021 11:30:00 PM 12.15 53.87 0.342 7.68 2578 8.92
5/7/2021 11:45:00 PM 12.03 53.654 0.341 7.67 3083 8.94
5/8/2021 12:00:00 AM 11.9 53.42 0.341 7.66 3721 8.95
5/8/2021 12:15:00 AM 11.78 53.204 0.343 7.65 3016 8.98
5/8/2021 12:30:00 AM 11.66 52.988 0.344 7.65 2132 8.98
5/8/2021 12:45:00 AM 11.54 52.772 0.346 7.65 2986 9.01
5/8/2021 1:00:00 AM 11.42 52.556 0.348 7.62 2664 9.02
5/8/2021 1:15:00 AM 11.3 52.34 0.349 7.63 3011 9.04
5/8/2021 1:30:00 AM 11.18 52.124 0.351 7.63 2989 9.06
5/8/2021 1:45:00 AM 11.06 51.908 0.352 7.64 3045 9.07
5/8/2021 2:00:00 AM 10.95 51.71 0.354 7.64 3636 9.09
5/8/2021 2:15:00 AM 10.84 51.512 0.356 7.64 3756 9.12
5/8/2021 2:30:00 AM 10.73 51.314 0.357 7.64 3426 9.15
5/8/2021 2:45:00 AM 10.62 51.116 0.359 7.64 3501 9.17
5/8/2021 3:00:00 AM 10.51 50.918 0.36 7.65 2801 9.22
5/8/2021 3:15:00 AM 10.4 50.72 0.361 7.65 3276 9.26
5/8/2021 3:30:00 AM 10.29 50.522 0.362 7.65 2819 9.3
5/8/2021 3:45:00 AM 10.19 50.342 0.363 7.66 2953 9.33
5/8/2021 4:00:00 AM 10.09 50.162 0.364 7.66 3100 9.38
5/8/2021 4:15:00 AM 9.99 49.982 0.365 7.66 2953 9.4
5/8/2021 4:30:00 AM 9.9 49.82 0.365 7.66 2895 9.46
5/8/2021 4:45:00 AM 9.81 49.658 0.366 7.67 2957 9.49
5/8/2021 5:00:00 AM 9.72 49.496 0.366 7.67 897.4 9.52
5/8/2021 5:15:00 AM 9.64 49.352 0.366 7.67 884.3 9.57
5/8/2021 5:30:00 AM 9.58 49.244 0.367 7.67 487.4 9.59
5/8/2021 5:45:00 AM 9.52 49.136 0.367 7.67 760.2 9.63
5/8/2021 6:00:00 AM 9.46 49.028 0.367 7.68 891 9.66
5/8/2021 6:15:00 AM 9.41 48.938 0.367 7.68 559.6 9.68
5/8/2021 6:30:00 AM 9.35 48.83 0.368 7.67 620.3 9.74
5/8/2021 6:45:00 AM 9.3 48.74 0.368 7.68 466 9.77
5/8/2021 7:00:00 AM 9.27 48.686 0.385 7.64 745.1 9.83
5/8/2021 7:15:00 AM 9.24 48.632 0.37 7.64 694.6 9.91
5/8/2021 7:30:00 AM 9.21 48.578 0.368 7.64 509 10.01
5/8/2021 7:45:00 AM 9.18 48.524 0.368 7.66 681.1 10.09
5/8/2021 8:00:00 AM 9.16 48.488 0.367 7.67 781.9 10.16
5/8/2021 8:15:00 AM 9.14 48.452 0.367 7.69 845 10.25
5/8/2021 8:30:00 AM 9.14 48.452 0.366 7.7 618.5 10.32
5/8/2021 8:45:00 AM 9.13 48.434 0.367 7.71 762.4 10.4
5/8/2021 9:00:00 AM 9.13 48.434 0.367 7.72 472.1 10.49
5/8/2021 9:15:00 AM 9.13 48.434 0.366 7.73 567.8 10.55
5/8/2021 9:30:00 AM 9.16 48.488 0.367 7.71 452.1 10.7
5/8/2021 9:45:00 AM 9.22 48.596 0.367 7.72 630 10.86
5/8/2021 10:00:00 AM 9.29 48.722 0.367 7.74 515.9 11.04
5/8/2021 10:15:00 AM 9.4 48.92 0.367 7.76 740.9 11.23
5/8/2021 10:30:00 AM 9.48 49.064 0.367 7.78 627.2 11.35
5/8/2021 10:45:00 AM 9.64 49.352 0.367 7.79 861.2 11.52
5/8/2021 11:00:00 AM 9.86 49.748 0.367 7.81 580.7 11.69
5/8/2021 11:15:00 AM 9.92 49.856 0.367 7.83 771.1 11.74
5/8/2021 11:30:00 AM 9.93 49.874 0.367 7.84 681.9 11.65
5/8/2021 11:45:00 AM 9.98 49.964 0.367 7.84 822.7 11.73
5/8/2021 12:00:00 PM 10.04 50.072 0.366 7.85 592.2 11.8
5/8/2021 12:15:00 PM 10.11 50.198 0.366 7.86 885.5 11.85
5/8/2021 12:30:00 PM 10.17 50.306 0.367 7.87 498.8 11.87
5/8/2021 12:45:00 PM 10.19 50.342 0.367 7.88 487 11.81
5/8/2021 1:00:00 PM 10.23 50.414 0.367 7.88 657.6 11.84
5/8/2021 1:15:00 PM 10.29 50.522 0.367 7.89 503.3 11.86
5/8/2021 1:30:00 PM 10.4 50.72 0.366 7.9 442.6 11.96
5/8/2021 1:45:00 PM 10.56 51.008 0.366 7.89 541.7 12.11
5/8/2021 2:00:00 PM 10.71 51.278 0.366 7.92 818.7 12.2
5/8/2021 2:15:00 PM 10.89 51.602 0.366 7.93 612 12.26
5/8/2021 2:30:00 PM 11.08 51.944 0.366 7.95 674 12.33
5/8/2021 2:45:00 PM 11.2 52.16 0.365 7.95 526.8 12.32
5/8/2021 3:00:00 PM 11.28 52.304 0.365 7.97 580 12.23
5/8/2021 3:15:00 PM 11.35 52.43 0.365 7.98 591.4 12.23
5/8/2021 3:30:00 PM 11.44 52.592 0.365 7.99 629.4 12.1
5/8/2021 3:45:00 PM 11.58 52.844 0.365 7.99 784.8 12.08
5/8/2021 4:00:00 PM 11.67 53.006 0.365 7.99 412.6 11.88
5/8/2021 4:15:00 PM 11.73 53.114 0.365 7.99 426.6 11.82
5/8/2021 4:30:00 PM 11.79 53.222 0.365 7.99 599 11.58
5/8/2021 4:45:00 PM 11.82 53.276 0.365 7.98 691.5 11.37
5/8/2021 5:00:00 PM 11.87 53.366 0.366 7.97 458.3 11.19
5/8/2021 5:15:00 PM 12.01 53.618 0.365 7.96 636.2 11.2
5/8/2021 5:30:00 PM 12.09 53.762 0.366 7.94 562.3 11.2
5/8/2021 5:45:00 PM 12.18 53.924 0.365 7.95 521.2 11.14
5/8/2021 6:00:00 PM 12.27 54.086 0.365 7.95 431.3 11.15
5/8/2021 6:15:00 PM 12.31 54.158 0.365 7.95 611 10.96
5/8/2021 6:30:00 PM 12.36 54.248 0.364 7.96 656.8 10.89
5/8/2021 6:45:00 PM 12.39 54.302 0.366 7.95 797.5 10.83
5/8/2021 7:00:00 PM 12.38 54.284 0.366 7.95 486.3 10.67
5/8/2021 7:15:00 PM 12.39 54.302 0.367 7.94 749.3 10.58
5/8/2021 7:30:00 PM 12.38 54.284 0.367 7.92 721.3 10.43
5/8/2021 7:45:00 PM 12.36 54.248 0.367 7.9 952 10.26
5/8/2021 8:00:00 PM 12.33 54.194 0.367 7.89 900.9 10.12
5/8/2021 8:15:00 PM 12.31 54.158 0.367 7.88 792.3 9.99
5/8/2021 8:30:00 PM 12.28 54.104 0.355 7.87 744.1 9.88
5/8/2021 8:45:00 PM 12.27 54.086 0.366 7.86 661.2 9.78
5/8/2021 9:00:00 PM 12.25 54.05 0.369 7.85 772.2 9.67
5/8/2021 9:15:00 PM 12.22 53.996 0.369 7.84 655.3 9.62
5/8/2021 9:30:00 PM 12.18 53.924 0.37 7.83 584.6 9.55
5/8/2021 9:45:00 PM 12.13 53.834 0.371 7.82 928.2 9.46
5/8/2021 10:00:00 PM 12.07 53.726 0.371 7.81 836.6 9.42
5/8/2021 10:15:00 PM 12 53.6 0.371 7.8 1002 9.37
5/8/2021 10:30:00 PM 11.93 53.474 0.372 7.79 476.6 9.34
5/8/2021 10:45:00 PM 11.86 53.348 0.373 7.79 763.5 9.32
5/8/2021 11:00:00 PM 11.78 53.204 0.374 7.77 805.8 9.3
5/8/2021 11:15:00 PM 11.71 53.078 0.376 7.75 772.6 9.3
5/8/2021 11:30:00 PM 11.64 52.952 0.376 7.75 783.2 9.31
5/8/2021 11:45:00 PM 11.55 52.79 0.376 7.76 778.6 9.29
5/9/2021 12:00:00 AM 11.48 52.664 0.375 7.75 1163 9.28
5/9/2021 12:15:00 AM 11.38 52.484 0.375 7.74 763 9.29
5/9/2021 12:30:00 AM 11.28 52.304 0.374 7.73 974.5 9.29
5/9/2021 12:45:00 AM 11.19 52.142 0.374 7.73 918.3 9.3
5/9/2021 1:00:00 AM 11.09 51.962 0.375 7.7 1007 9.32
5/9/2021 1:15:00 AM 10.99 51.782 0.375 7.71 719.2 9.34
5/9/2021 1:30:00 AM 10.9 51.62 0.375 7.72 745.6 9.35
5/9/2021 1:45:00 AM 10.81 51.458 0.375 7.72 983.9 9.35
5/9/2021 2:00:00 AM 10.73 51.314 0.375 7.72 915.6 9.38
5/9/2021 2:15:00 AM 10.65 51.17 0.375 7.72 877.6 9.4
5/9/2021 2:30:00 AM 10.58 51.044 0.375 7.72 1244 9.4
5/9/2021 2:45:00 AM 10.5 50.9 0.375 7.72 958.7 9.43
5/9/2021 3:00:00 AM 10.42 50.756 0.376 7.71 1017 9.45
5/9/2021 3:15:00 AM 10.34 50.612 0.376 7.71 1345 9.47
5/9/2021 3:30:00 AM 10.26 50.468 0.376 7.71 1023 9.5
5/9/2021 3:45:00 AM 10.18 50.324 0.376 7.71 991.9 9.53
5/9/2021 4:00:00 AM 10.09 50.162 0.377 7.71 1051 9.56
5/9/2021 4:15:00 AM 10.01 50.018 0.377 7.71 953 9.61
5/9/2021 4:30:00 AM 9.92 49.856 0.377 7.71 994.5 9.64
5/9/2021 4:45:00 AM 9.84 49.712 0.377 7.69 1040 9.66
5/9/2021 5:00:00 AM 9.76 49.568 0.377 7.69 950.5 9.71
5/9/2021 5:15:00 AM 9.68 49.424 0.377 7.7 1068 9.73
5/9/2021 5:30:00 AM 9.6 49.28 0.377 7.7 1218 9.77
5/9/2021 5:45:00 AM 9.53 49.154 0.378 7.7 1160 9.78
5/9/2021 6:00:00 AM 9.46 49.028 0.377 7.71 1303 9.84
5/9/2021 6:15:00 AM 9.38 48.884 0.377 7.69 1360 9.88
5/9/2021 6:30:00 AM 9.32 48.776 0.377 7.69 1396 9.94
5/9/2021 6:45:00 AM 9.26 48.668 0.377 7.71 1110 9.99
5/9/2021 7:00:00 AM 9.22 48.596 0.377 7.71 1192 10.1
5/9/2021 7:15:00 AM 9.18 48.524 0.377 7.72 1233 10.18
5/9/2021 7:30:00 AM 9.15 48.47 0.377 7.72 1135 10.27
5/9/2021 7:45:00 AM 9.13 48.434 0.377 7.73 1181 10.42
5/9/2021 8:00:00 AM 9.13 48.434 0.376 7.74 1132 10.54
5/9/2021 8:15:00 AM 9.14 48.452 0.376 7.75 1180 10.69
5/9/2021 8:30:00 AM 9.14 48.452 0.373 7.75 1101 10.81
5/9/2021 8:45:00 AM 9.15 48.47 0.373 7.77 1154 10.95
5/9/2021 9:00:00 AM 9.16 48.488 0.373 7.77 1160 11.04
5/9/2021 9:15:00 AM 9.17 48.506 0.375 7.76 1213 11.07
5/9/2021 9:30:00 AM 9.18 48.524 0.375 7.78 1204 11.14
5/9/2021 9:45:00 AM 9.2 48.56 0.374 7.79 1252 11.21
5/9/2021 10:00:00 AM 9.22 48.596 0.374 7.8 1137 11.26
5/9/2021 10:15:00 AM 9.25 48.65 0.374 7.79 1190 11.34
5/9/2021 10:30:00 AM 9.27 48.686 0.374 7.8 1123 11.37
5/9/2021 10:45:00 AM 9.27 48.686 0.374 7.81 1124 11.36
5/9/2021 11:00:00 AM 9.29 48.722 0.375 7.82 1091 11.37
5/9/2021 11:15:00 AM 9.31 48.758 0.375 7.84 1094 11.38
5/9/2021 11:30:00 AM 9.33 48.794 0.374 7.84 1190 11.38
5/9/2021 11:45:00 AM 9.35 48.83 0.377 7.82 1128 11.34
5/9/2021 12:00:00 PM 9.36 48.848 0.374 7.81 1253 11.33
5/9/2021 12:15:00 PM 9.38 48.884 0.382 7.8 1122 11.32
5/9/2021 12:30:00 PM 9.4 48.92 0.382 7.81 1154 11.32
5/9/2021 12:45:00 PM 9.41 48.938 0.379 7.82 1103 11.34
5/9/2021 1:00:00 PM 9.42 48.956 0.376 7.78 1161 11.33
5/9/2021 1:15:00 PM 9.45 49.01 0.365 7.79 1166 11.35
5/9/2021 1:30:00 PM 9.48 49.064 0.378 7.8 1102 11.3
5/9/2021 1:45:00 PM 9.49 49.082 0.377 7.81 985.4 11.28
5/9/2021 2:00:00 PM 9.51 49.118 0.377 7.82 1131 11.27
5/9/2021 2:15:00 PM 9.53 49.154 0.374 7.81 925.1 11.28
5/9/2021 2:30:00 PM 9.56 49.208 0.373 7.77 981 11.25
5/9/2021 2:45:00 PM 9.6 49.28 0.371 7.78 909.6 11.29
5/9/2021 3:00:00 PM 9.66 49.388 0.368 7.79 965.8 11.36
5/9/2021 3:15:00 PM 9.73 49.514 0.365 7.79 938.7 11.41
5/9/2021 3:30:00 PM 9.78 49.604 0.364 7.79 906.8 11.47
5/9/2021 3:45:00 PM 9.8 49.64 0.362 7.81 1067 11.43
5/9/2021 4:00:00 PM 9.8 49.64 0.365 7.81 947.4 11.32
5/9/2021 4:15:00 PM 9.81 49.658 0.369 7.81 927.1 11.24
5/9/2021 4:30:00 PM 9.81 49.658 0.366 7.82 940.5 11.17
5/9/2021 4:45:00 PM 9.83 49.694 0.362 7.81 987 11.11
5/9/2021 5:00:00 PM 9.84 49.712 0.359 7.81 1052 11.05
5/9/2021 5:15:00 PM 9.85 49.73 0.358 7.8 910.6 10.99
5/9/2021 5:30:00 PM 9.85 49.73 0.355 7.79 1024 10.9
5/9/2021 5:45:00 PM 9.85 49.73 0.357 7.78 1031 10.83
5/9/2021 6:00:00 PM 9.85 49.73 0.355 7.78 1017 10.79
5/9/2021 6:15:00 PM 9.86 49.748 0.355 7.73 1003 10.76
5/9/2021 6:30:00 PM 9.85 49.73 0.355 7.73 1065 10.71
5/9/2021 6:45:00 PM 9.84 49.712 0.352 7.74 997.2 10.64
5/9/2021 7:00:00 PM 9.84 49.712 0.35 7.73 1065 10.58
5/9/2021 7:15:00 PM 9.83 49.694 0.347 7.72 1079 10.51
5/9/2021 7:30:00 PM 9.8 49.64 0.344 7.72 1153 10.43
5/9/2021 7:45:00 PM 9.78 49.604 0.343 7.72 1165 10.36
5/9/2021 8:00:00 PM 9.77 49.586 0.339 7.67 1133 10.28
5/9/2021 8:15:00 PM 9.76 49.568 0.337 7.66 1155 10.24
5/9/2021 8:30:00 PM 9.75 49.55 0.337 7.66 1200 10.2
5/9/2021 8:45:00 PM 9.73 49.514 0.337 7.66 1205 10.15
5/9/2021 9:00:00 PM 9.72 49.496 0.334 7.66 1131 10.11
5/9/2021 9:15:00 PM 9.7 49.46 0.335 7.67 1138 10.07
5/9/2021 9:30:00 PM 9.68 49.424 0.337 7.67 1120 10.04
5/9/2021 9:45:00 PM 9.67 49.406 0.335 7.67 1058 10.01
5/9/2021 10:00:00 PM 9.65 49.37 0.334 7.66 1145 9.98
5/9/2021 10:15:00 PM 9.63 49.334 0.333 7.66 1107 9.95
5/9/2021 10:30:00 PM 9.61 49.298 0.331 7.66 1190 9.93
5/9/2021 10:45:00 PM 9.6 49.28 0.33 7.65 1174 9.92
5/9/2021 11:00:00 PM 9.58 49.244 0.33 7.64 1203 9.9
5/9/2021 11:15:00 PM 9.56 49.208 0.33 7.64 1115 9.89
5/9/2021 11:30:00 PM 9.54 49.172 0.33 7.64 1158 9.87
5/9/2021 11:45:00 PM 9.52 49.136 0.329 7.64 1006 9.89
5/10/2021 12:00:00 AM 9.51 49.118 0.329 7.6 1042 9.87
5/10/2021 12:15:00 AM 9.5 49.1 0.327 7.6 1109 9.85
5/10/2021 12:30:00 AM 9.49 49.082 0.326 7.6 1055 9.83
5/10/2021 12:45:00 AM 9.47 49.046 0.325 7.61 1221 9.83
5/10/2021 1:00:00 AM 9.47 49.046 0.325 7.61 1010 9.81
5/10/2021 1:15:00 AM 9.46 49.028 0.324 7.56 971.4 9.8
5/10/2021 1:30:00 AM 9.45 49.01 0.322 7.58 1030 9.81
5/10/2021 1:45:00 AM 9.44 48.992 0.321 7.59 939.2 9.81
5/10/2021 2:00:00 AM 9.43 48.974 0.32 7.59 983.7 9.81
5/10/2021 2:15:00 AM 9.42 48.956 0.32 7.6 950.4 9.8
5/10/2021 2:30:00 AM 9.41 48.938 0.319 7.6 927.5 9.82
5/10/2021 2:45:00 AM 9.4 48.92 0.32 7.61 1027 9.81
5/10/2021 3:00:00 AM 9.39 48.902 0.32 7.61 901.6 9.8
5/10/2021 3:15:00 AM 9.37 48.866 0.319 7.62 876 9.82
5/10/2021 3:30:00 AM 9.36 48.848 0.32 7.62 913 9.82
5/10/2021 3:45:00 AM 9.36 48.848 0.32 7.62 825.7 9.84
5/10/2021 4:00:00 AM 9.35 48.83 0.32 7.62 808.2 9.83
5/10/2021 4:15:00 AM 9.34 48.812 0.32 7.62 827.8 9.83
5/10/2021 4:30:00 AM 9.33 48.794 0.32 7.61 865.5 9.83
5/10/2021 4:45:00 AM 9.31 48.758 0.319 7.61 840.5 9.86
5/10/2021 5:00:00 AM 9.3 48.74 0.319 7.6 861.9 9.85
5/10/2021 5:15:00 AM 9.29 48.722 0.319 7.6 822.8 9.87
5/10/2021 5:30:00 AM 9.28 48.704 0.319 7.59 813.2 9.87
5/10/2021 5:45:00 AM 9.27 48.686 0.318 7.57 825.4 9.88
5/10/2021 6:00:00 AM 9.26 48.668 0.319 7.56 814.5 9.89
5/10/2021 6:15:00 AM 9.25 48.65 0.319 7.58 846.4 9.88
5/10/2021 6:30:00 AM 9.24 48.632 0.32 7.59 835.2 9.92
5/10/2021 6:45:00 AM 9.23 48.614 0.32 7.6 869.7 9.94
5/10/2021 7:00:00 AM 9.23 48.614 0.321 7.57 800.2 9.95
5/10/2021 7:15:00 AM 9.23 48.614 0.321 7.57 821.3 9.98
5/10/2021 7:30:00 AM 9.22 48.596 0.321 7.59 781.6 10
5/10/2021 7:45:00 AM 9.21 48.578 0.323 7.6 727.4 10.05
5/10/2021 8:00:00 AM 9.21 48.578 0.323 7.6 719.6 10.1
5/10/2021 8:15:00 AM 9.22 48.596 0.324 7.61 727.7 10.14
5/10/2021 8:30:00 AM 9.23 48.614 0.324 7.59 741.1 10.21
5/10/2021 8:45:00 AM 9.25 48.65 0.325 7.6 750.9 10.25
5/10/2021 9:00:00 AM 9.28 48.704 0.324 7.61 810.4 10.31
5/10/2021 9:15:00 AM 9.3 48.74 0.325 7.61 770.9 10.36
5/10/2021 9:30:00 AM 9.31 48.758 0.326 7.63 752.6 10.4
5/10/2021 9:45:00 AM 9.34 48.812 0.326 7.62 757.2 10.45
5/10/2021 10:00:00 AM 9.4 48.92 0.326 7.62 779.3 10.55
5/10/2021 10:15:00 AM 9.48 49.064 0.326 7.64 776.8 10.69
5/10/2021 10:30:00 AM 9.6 49.28 0.327 7.68 830.1 10.86
5/10/2021 10:45:00 AM 9.76 49.568 0.328 7.69 862.9 11.05
5/10/2021 11:00:00 AM 9.91 49.838 0.328 7.71 801.5 11.2
5/10/2021 11:15:00 AM 10.11 50.198 0.328 7.71 796.5 11.35
5/10/2021 11:30:00 AM 10.35 50.63 0.328 7.71 841.5 11.48
5/10/2021 11:45:00 AM 10.6 51.08 0.328 7.74 862 11.6
5/10/2021 12:00:00 PM 10.87 51.566 0.328 7.75 809.2 11.73
5/10/2021 12:15:00 PM 11.12 52.016 0.328 7.77 833.1 11.85
5/10/2021 12:30:00 PM 11.37 52.466 0.328 7.78 879.8 11.9
5/10/2021 12:45:00 PM 11.6 52.88 0.328 7.79 915.2 11.94
5/10/2021 1:00:00 PM 11.82 53.276 0.328 7.81 922.3 11.97
5/10/2021 1:15:00 PM 12.09 53.762 0.328 7.83 886.2 12.04
5/10/2021 1:30:00 PM 12.29 54.122 0.328 7.84 939.9 12.06
5/10/2021 1:45:00 PM 12.53 54.554 0.445 7.85 922 12.07
5/10/2021 2:00:00 PM 12.73 54.914 0.357 7.8 910.4 12.07
5/10/2021 2:15:00 PM 13.01 55.418 0.333 7.81 899.8 12.16
5/10/2021 2:30:00 PM 13.29 55.922 0.329 7.8 1008 12.17
5/10/2021 2:45:00 PM 13.44 56.192 0.328 7.82 959.8 12.04
5/10/2021 3:00:00 PM 13.68 56.624 0.327 7.8 972.3 12
5/10/2021 3:15:00 PM 13.95 57.11 0.327 7.78 1034 12.01
5/10/2021 3:30:00 PM 14.14 57.452 0.327 7.86 1078 11.89
5/10/2021 3:45:00 PM 14.24 57.632 0.328 7.91 1102 11.73
5/10/2021 4:00:00 PM 14.38 57.884 0.328 7.82 1124 11.64
5/10/2021 4:15:00 PM 14.5 58.1 0.328 7.92 1128 11.53
5/10/2021 4:30:00 PM 14.55 58.19 0.328 7.85 1236 11.38
5/10/2021 4:45:00 PM 14.65 58.37 0.328 7.91 1178 11.26
5/10/2021 5:00:00 PM 14.78 58.604 0.328 7.91 1169 11.2
5/10/2021 5:15:00 PM 14.94 58.892 0.328 7.89 1244 11.17
5/10/2021 5:30:00 PM 15.06 59.108 0.328 7.9 1207 11.13
5/10/2021 5:45:00 PM 15.11 59.198 0.328 7.9 1248 11.02
5/10/2021 6:00:00 PM 15.15 59.27 0.328 7.91 1341 10.85
5/10/2021 6:15:00 PM 15.22 59.396 0.329 7.93 1360 10.75
5/10/2021 6:30:00 PM 15.26 59.468 0.33 7.92 1296 10.58
5/10/2021 6:45:00 PM 15.28 59.504 0.331 7.89 1311 10.4
5/10/2021 7:00:00 PM 15.26 59.468 0.332 7.86 1388 10.22
5/10/2021 7:15:00 PM 15.23 59.414 0.332 7.89 1445 10.05
5/10/2021 7:30:00 PM 15.19 59.342 0.332 7.86 1411 9.89
5/10/2021 7:45:00 PM 15.13 59.234 0.332 7.87 1346 9.74
5/10/2021 8:00:00 PM 15.07 59.126 0.332 7.86 1431 9.61
5/10/2021 8:15:00 PM 14.99 58.982 0.333 7.83 1469 9.5
5/10/2021 8:30:00 PM 14.9 58.82 0.332 7.82 1470 9.37
5/10/2021 8:45:00 PM 14.81 58.658 0.333 7.81 1524 9.28
5/10/2021 9:00:00 PM 14.71 58.478 0.333 7.8 1543 9.19
5/10/2021 9:15:00 PM 14.62 58.316 0.334 7.78 1592 9.11
5/10/2021 9:30:00 PM 14.52 58.136 0.333 7.77 1582 9.06
5/10/2021 9:45:00 PM 14.42 57.956 0.332 7.74 1568 9
5/10/2021 10:00:00 PM 14.31 57.758 0.335 7.73 1557 8.95
5/10/2021 10:15:00 PM 14.19 57.542 0.336 7.73 1617 8.91
5/10/2021 10:30:00 PM 14.07 57.326 0.336 7.72 1598 8.88
5/10/2021 10:45:00 PM 13.94 57.092 0.337 7.71 1667 8.86
5/10/2021 11:00:00 PM 13.82 56.876 0.337 7.7 1706 8.85
5/10/2021 11:15:00 PM 13.7 56.66 0.337 7.69 1796 8.84
5/10/2021 11:30:00 PM 13.56 56.408 0.338 7.69 1828 8.83
5/10/2021 11:45:00 PM 13.42 56.156 0.338 7.68 1881 8.83
5/11/2021 12:00:00 AM 13.27 55.886 0.338 7.68 2013 8.84
5/11/2021 12:15:00 AM 13.12 55.616 0.339 7.68 1923 8.86
5/11/2021 12:30:00 AM 12.96 55.328 0.339 7.68 1919 8.88
5/11/2021 12:45:00 AM 12.81 55.058 0.338 7.67 1989 8.92
5/11/2021 1:00:00 AM 12.65 54.77 0.339 7.67 2026 8.94
5/11/2021 1:15:00 AM 12.48 54.464 0.339 7.66 2106 8.99
5/11/2021 1:30:00 AM 12.32 54.176 0.339 7.67 2172 9.03
5/11/2021 1:45:00 AM 12.16 53.888 0.339 7.65 2218 9.06
5/11/2021 2:00:00 AM 12.02 53.636 0.339 7.65 2028 9.1
5/11/2021 2:15:00 AM 11.88 53.384 0.339 7.65 2018 9.13
5/11/2021 2:30:00 AM 11.74 53.132 0.338 7.65 2123 9.19
5/11/2021 2:45:00 AM 11.6 52.88 0.339 7.65 2136 9.23
5/11/2021 3:00:00 AM 11.46 52.628 0.339 7.65 2177 9.26
5/11/2021 3:15:00 AM 11.33 52.394 0.34 7.65 2224 9.33
5/11/2021 3:30:00 AM 11.2 52.16 0.34 7.65 2202 9.35
5/11/2021 3:45:00 AM 11.07 51.926 0.34 7.64 2292 9.37
5/11/2021 4:00:00 AM 10.96 51.728 0.34 7.65 2249 9.43
5/11/2021 4:15:00 AM 10.84 51.512 0.34 7.64 2389 9.47
5/11/2021 4:30:00 AM 10.72 51.296 0.34 7.65 2355 9.5
5/11/2021 4:45:00 AM 10.61 51.098 0.34 7.64 2384 9.53
5/11/2021 5:00:00 AM 10.5 50.9 0.34 7.64 2432 9.57
5/11/2021 5:15:00 AM 10.39 50.702 0.339 7.64 2566 9.61
5/11/2021 5:30:00 AM 10.29 50.522 0.339 7.64 2638 9.65
5/11/2021 5:45:00 AM 10.19 50.342 0.34 7.64 2591 9.68
5/11/2021 6:00:00 AM 10.09 50.162 0.34 7.65 2377 9.73
5/11/2021 6:15:00 AM 10 50 0.34 7.65 2375 9.76
5/11/2021 6:30:00 AM 9.92 49.856 0.34 7.65 2257 9.8
5/11/2021 6:45:00 AM 9.85 49.73 0.34 7.66 2336 9.85
5/11/2021 7:00:00 AM 9.79 49.622 0.339 7.66 2348 9.9
5/11/2021 7:15:00 AM 9.75 49.55 0.339 7.66 2468 9.99
5/11/2021 7:30:00 AM 9.72 49.496 0.339 7.67 2469 10.07
5/11/2021 7:45:00 AM 9.71 49.478 0.339 7.67 2374 10.15
5/11/2021 8:00:00 AM 9.71 49.478 0.339 7.68 2271 10.26
5/11/2021 8:15:00 AM 9.73 49.514 0.339 7.68 2256 10.36
5/11/2021 8:30:00 AM 9.76 49.568 0.339 7.69 2049 10.47
5/11/2021 8:45:00 AM 9.81 49.658 0.338 7.69 2085 10.65
5/11/2021 9:00:00 AM 9.89 49.802 0.338 7.7 2069 10.78
5/11/2021 9:15:00 AM 9.97 49.946 0.338 7.71 2010 10.93
5/11/2021 9:30:00 AM 10 50 0.338 7.73 2042 11.04
5/11/2021 9:45:00 AM 10.02 50.036 0.338 7.74 2006 11.12
5/11/2021 10:00:00 AM 10.05 50.09 0.338 7.75 1992 11.22
5/11/2021 10:15:00 AM 10.11 50.198 0.339 7.72 2102 11.32
5/11/2021 10:30:00 AM 10.21 50.378 0.339 7.74 2183 11.45
5/11/2021 10:45:00 AM 10.3 50.54 0.338 7.77 2171 11.56
5/11/2021 11:00:00 AM 10.32 50.576 0.338 7.78 2320 11.57
5/11/2021 11:15:00 AM 10.43 50.774 0.338 7.79 2274 11.68
5/11/2021 11:30:00 AM 10.7 51.26 0.338 7.81 2203 11.85
5/11/2021 11:45:00 AM 11.02 51.836 0.337 7.82 2199 12.06
5/11/2021 12:00:00 PM 11.24 52.232 0.337 7.84 2297 12.18
5/11/2021 12:15:00 PM 11.39 52.502 0.337 7.86 2303 12.24
5/11/2021 12:30:00 PM 11.58 52.844 0.337 7.87 2330 12.29
5/11/2021 12:45:00 PM 11.7 53.06 0.336 7.88 2337 12.28
5/11/2021 1:00:00 PM 11.77 53.186 0.337 7.89 2336 12.17
5/11/2021 1:15:00 PM 11.87 53.366 0.337 7.9 2332 12.17
5/11/2021 1:30:00 PM 12.07 53.726 0.337 7.91 1911 12.2
5/11/2021 1:45:00 PM 12.28 54.104 0.336 7.92 1952 12.25
5/11/2021 2:00:00 PM 12.58 54.644 0.336 7.92 1956 12.36
5/11/2021 2:15:00 PM 12.55 54.59 0.336 7.94 1895 12.13
5/11/2021 2:30:00 PM 12.59 54.662 0.336 7.95 1911 11.95
5/11/2021 2:45:00 PM 12.74 54.932 0.336 7.95 1948 11.96
5/11/2021 3:00:00 PM 13.03 55.454 0.335 7.96 1997 12.09
5/11/2021 3:15:00 PM 13.13 55.634 0.335 7.97 1989 11.98
5/11/2021 3:30:00 PM 13.15 55.67 0.335 7.97 1991 11.87
5/11/2021 3:45:00 PM 13.24 55.832 0.336 7.97 1948 11.78
5/11/2021 4:00:00 PM 13.3 55.94 0.336 7.97 1916 11.67
5/11/2021 4:15:00 PM 13.45 56.21 0.336 7.98 1995 11.71
5/11/2021 4:30:00 PM 13.48 56.264 0.337 7.98 1959 11.61
5/11/2021 4:45:00 PM 13.7 56.66 0.337 7.97 2118 11.72
5/11/2021 5:00:00 PM 13.76 56.768 0.337 7.98 2114 11.62
5/11/2021 5:15:00 PM 13.77 56.786 0.338 7.99 2165 11.42
5/11/2021 5:30:00 PM 13.76 56.768 0.339 7.98 2314 11.22
5/11/2021 5:45:00 PM 13.77 56.786 0.339 7.98 2330 11.12
5/11/2021 6:00:00 PM 13.73 56.714 0.34 7.97 2384 10.9
5/11/2021 6:15:00 PM 13.76 56.768 0.34 7.96 2441 10.84
5/11/2021 6:30:00 PM 13.71 56.678 0.34 7.95 2365 10.63
5/11/2021 6:45:00 PM 13.68 56.624 0.341 7.94 2160 10.54
5/11/2021 7:00:00 PM 13.62 56.516 0.341 7.94 2268 10.43
5/11/2021 7:15:00 PM 13.56 56.408 0.341 7.93 2140 10.38
5/11/2021 7:30:00 PM 13.49 56.282 0.341 7.92 1958 10.29
5/11/2021 7:45:00 PM 13.42 56.156 0.342 7.91 1905 10.2
5/11/2021 8:00:00 PM 13.32 55.976 0.342 7.9 1870 10.1
5/11/2021 8:15:00 PM 13.2 55.76 0.342 7.89 1871 9.99
5/11/2021 8:30:00 PM 13.09 55.562 0.342 7.88 1897 9.87
5/11/2021 8:45:00 PM 12.97 55.346 0.343 7.87 1881 9.77
5/11/2021 9:00:00 PM 12.84 55.112 0.343 7.85 1938 9.67
5/11/2021 9:15:00 PM 12.71 54.878 0.343 7.84 1870 9.63
5/11/2021 9:30:00 PM 12.59 54.662 0.344 7.82 1923 9.59
5/11/2021 9:45:00 PM 12.46 54.428 0.344 7.81 1972 9.57
5/11/2021 10:00:00 PM 12.33 54.194 0.344 7.8 2004 9.56
5/11/2021 10:15:00 PM 12.2 53.96 0.345 7.79 1955 9.54
5/11/2021 10:30:00 PM 12.07 53.726 0.345 7.75 1979 9.53
5/11/2021 10:45:00 PM 11.94 53.492 0.345 7.76 1998 9.53
5/11/2021 11:00:00 PM 11.81 53.258 0.346 7.76 2099 9.52
5/11/2021 11:15:00 PM 11.66 52.988 0.346 7.76 2122 9.53
5/11/2021 11:30:00 PM 11.52 52.736 0.346 7.74 1938 9.52
5/11/2021 11:45:00 PM 11.39 52.502 0.346 7.74 2062 9.55
5/12/2021 12:00:00 AM 11.26 52.268 0.346 7.74 2377 9.55
5/12/2021 12:15:00 AM 11.13 52.034 0.346 7.74 2496 9.56
5/12/2021 12:30:00 AM 11 51.8 0.347 7.73 2421 9.59
5/12/2021 12:45:00 AM 10.88 51.584 0.347 7.73 2460 9.6
5/12/2021 1:00:00 AM 10.75 51.35 0.347 7.73 2465 9.6
5/12/2021 1:15:00 AM 10.63 51.134 0.348 7.73 2441 9.62
5/12/2021 1:30:00 AM 10.51 50.918 0.348 7.73 2515 9.65
5/12/2021 1:45:00 AM 10.4 50.72 0.348 7.72 2514 9.66
5/12/2021 2:00:00 AM 10.28 50.504 0.349 7.72 2583 9.7
5/12/2021 2:15:00 AM 10.17 50.306 0.348 7.71 2649 9.72
5/12/2021 2:30:00 AM 10.05 50.09 0.348 7.71 2669 9.75
5/12/2021 2:45:00 AM 9.94 49.892 0.348 7.71 2622 9.8
5/12/2021 3:00:00 AM 9.84 49.712 0.348 7.71 2601 9.81
5/12/2021 3:15:00 AM 9.73 49.514 0.349 7.7 2597 9.87
5/12/2021 3:30:00 AM 9.62 49.316 0.349 7.71 2654 9.87
5/12/2021 3:45:00 AM 9.51 49.118 0.349 7.71 2633 9.94
5/12/2021 4:00:00 AM 9.41 48.938 0.349 7.71 2609 9.98
5/12/2021 4:15:00 AM 9.31 48.758 0.349 7.71 2617 10.02
5/12/2021 4:30:00 AM 9.21 48.578 0.35 7.71 2615 10.04
5/12/2021 4:45:00 AM 9.12 48.416 0.35 7.71 2617 10.08
5/12/2021 5:00:00 AM 9.03 48.254 0.35 7.71 2562 10.11
5/12/2021 5:15:00 AM 8.94 48.092 0.35 7.71 2593 10.16
5/12/2021 5:30:00 AM 8.86 47.948 0.35 7.71 2620 10.18
5/12/2021 5:45:00 AM 8.77 47.786 0.35 7.71 2706 10.21
5/12/2021 6:00:00 AM 8.7 47.66 0.35 7.72 2808 10.24
5/12/2021 6:15:00 AM 8.63 47.534 0.35 7.71 2699 10.29
5/12/2021 6:30:00 AM 8.56 47.408 0.35 7.72 2669 10.35
5/12/2021 6:45:00 AM 8.5 47.3 0.349 7.72 2770 10.4
5/12/2021 7:00:00 AM 8.46 47.228 0.349 7.73 2866 10.48
5/12/2021 7:15:00 AM 8.43 47.174 0.349 7.73 2859 10.55
5/12/2021 7:30:00 AM 8.4 47.12 0.349 7.73 2727 10.63
5/12/2021 7:45:00 AM 8.39 47.102 0.349 7.74 2762 10.72
5/12/2021 8:00:00 AM 8.4 47.12 0.349 7.74 2805 10.83
5/12/2021 8:15:00 AM 8.42 47.156 0.349 7.74 2842 10.93
5/12/2021 8:30:00 AM 8.46 47.228 0.349 7.75 2871 11.07
5/12/2021 8:45:00 AM 8.51 47.318 0.349 7.76 2844 11.19
5/12/2021 9:00:00 AM 8.59 47.462 0.349 7.77 2796 11.32
5/12/2021 9:15:00 AM 8.68 47.624 0.349 7.78 2804 11.43
5/12/2021 9:30:00 AM 8.8 47.84 0.35 7.79 2777 11.56
5/12/2021 9:45:00 AM 8.93 48.074 0.35 7.79 2759 11.68
5/12/2021 10:00:00 AM 9.08 48.344 0.35 7.81 2844 11.81
5/12/2021 10:15:00 AM 9.26 48.668 0.349 7.82 2887 11.92
5/12/2021 10:30:00 AM 9.45 49.01 0.349 7.83 2895 12.04
5/12/2021 10:45:00 AM 9.66 49.388 0.349 7.84 2917 12.14
5/12/2021 11:00:00 AM 9.87 49.766 0.349 7.85 2895 12.26
5/12/2021 11:15:00 AM 10.1 50.18 0.349 7.86 2763 12.34
5/12/2021 11:30:00 AM 10.34 50.612 0.349 7.87 2755 12.44
5/12/2021 11:45:00 AM 10.59 51.062 0.349 7.88 2811 12.5
5/12/2021 12:00:00 PM 10.83 51.494 0.349 7.9 2804 12.58
5/12/2021 12:15:00 PM 11.1 51.98 0.349 7.92 2796 12.65
5/12/2021 12:30:00 PM 11.39 52.502 0.348 7.93 2758 12.72
5/12/2021 12:45:00 PM 11.69 53.042 0.347 7.94 2750 12.79
5/12/2021 1:00:00 PM 11.91 53.438 0.348 7.96 2763 12.74
5/12/2021 1:15:00 PM 12.19 53.942 0.347 7.97 2709 12.73
5/12/2021 1:30:00 PM 12.46 54.428 0.347 7.97 2703 12.76
5/12/2021 1:45:00 PM 12.78 55.004 0.347 7.98 2676 12.77
5/12/2021 2:00:00 PM 12.92 55.256 0.348 7.99 2566 12.64
5/12/2021 2:15:00 PM 13.22 55.796 0.35 8.01 2599 12.69
5/12/2021 2:30:00 PM 13.49 56.282 0.352 8.02 2564 12.68
5/12/2021 2:45:00 PM 13.83 56.894 0.351 8.03 2501 12.67
5/12/2021 3:00:00 PM 13.94 57.092 0.351 8.03 2524 12.5
5/12/2021 3:15:00 PM 14.15 57.47 0.352 8.05 2629 12.37
5/12/2021 3:30:00 PM 14.28 57.704 0.35 8.02 2532 12.23
5/12/2021 3:45:00 PM 14.49 58.082 0.35 8 2606 12.13
5/12/2021 4:00:00 PM 14.58 58.244 0.349 8.02 2653 11.87
5/12/2021 4:15:00 PM 14.84 58.712 0.348 8.02 2658 11.91
5/12/2021 4:30:00 PM 15 59 0.348 8.03 2585 11.92
5/12/2021 4:45:00 PM 15.22 59.396 0.347 8.03 2582 11.95
5/12/2021 5:00:00 PM 15.31 59.558 0.347 8.05 2577 11.86
5/12/2021 5:15:00 PM 15.29 59.522 0.347 8.06 2555 11.67
5/12/2021 5:30:00 PM 15.27 59.486 0.348 8.06 2550 11.48
5/12/2021 5:45:00 PM 15.22 59.396 0.348 8.06 2586 11.24
5/12/2021 6:00:00 PM 15.18 59.324 0.35 8.04 2622 11.02
5/12/2021 6:15:00 PM 15.19 59.342 0.35 8.04 2655 10.91
5/12/2021 6:30:00 PM 15.19 59.342 0.351 8.03 2664 10.75
5/12/2021 6:45:00 PM 15.17 59.306 0.35 8.02 2640 10.57
5/12/2021 7:00:00 PM 15.15 59.27 0.352 8.02 2603 10.42
5/12/2021 7:15:00 PM 15.12 59.216 0.354 8 2581 10.2
5/12/2021 7:30:00 PM 15.1 59.18 0.351 7.99 2560 10.06
5/12/2021 7:45:00 PM 15.06 59.108 0.359 7.97 2582 9.88
5/12/2021 8:00:00 PM 15.03 59.054 0.357 7.96 2685 9.72
5/12/2021 8:15:00 PM 14.99 58.982 0.354 7.94 2692 9.57
5/12/2021 8:30:00 PM 14.93 58.874 0.343 7.92 2671 9.39
5/12/2021 8:45:00 PM 14.87 58.766 0.356 7.9 2736 9.25
5/12/2021 9:00:00 PM 14.81 58.658 0.356 7.88 2808 9.14
5/12/2021 9:15:00 PM 14.74 58.532 0.357 7.86 2852 9.05
5/12/2021 9:30:00 PM 14.66 58.388 0.357 7.84 2814 8.99
5/12/2021 9:45:00 PM 14.56 58.208 0.358 7.82 2786 8.94
5/12/2021 10:00:00 PM 14.44 57.992 0.358 7.8 2918 8.88
5/12/2021 10:15:00 PM 14.32 57.776 0.358 7.8 2949 8.85
5/12/2021 10:30:00 PM 14.2 57.56 0.359 7.79 3038 8.82
5/12/2021 10:45:00 PM 14.06 57.308 0.359 7.77 3022 8.79
5/12/2021 11:00:00 PM 13.91 57.038 0.36 7.76 2984 8.78
5/12/2021 11:15:00 PM 13.76 56.768 0.36 7.75 2911 8.76
5/12/2021 11:30:00 PM 13.6 56.48 0.361 7.75 2903 8.75
5/12/2021 11:45:00 PM 13.43 56.174 0.361 7.74 3021 8.77
5/13/2021 12:00:00 AM 13.27 55.886 0.362 7.73 3043 8.77
5/13/2021 12:15:00 AM 13.09 55.562 0.363 7.72 2615 8.81
5/13/2021 12:30:00 AM 12.91 55.238 0.364 7.71 2607 8.86
5/13/2021 12:45:00 AM 12.72 54.896 0.364 7.71 2633 8.88
5/13/2021 1:00:00 AM 12.54 54.572 0.364 7.7 2607 8.92
5/13/2021 1:15:00 AM 12.35 54.23 0.362 7.71 2638 8.96
5/13/2021 1:30:00 AM 12.17 53.906 0.363 7.7 2617 9.01
5/13/2021 1:45:00 AM 11.98 53.564 0.364 7.69 2670 9.05
5/13/2021 2:00:00 AM 11.79 53.222 0.363 7.7 2713 9.11
5/13/2021 2:15:00 AM 11.6 52.88 0.363 7.7 2757 9.17
5/13/2021 2:30:00 AM 11.42 52.556 0.363 7.69 2791 9.22
5/13/2021 2:45:00 AM 11.24 52.232 0.362 7.69 2792 9.28
5/13/2021 3:00:00 AM 11.06 51.908 0.363 7.69 2749 9.34
5/13/2021 3:15:00 AM 10.89 51.602 0.362 7.69 2811 9.4
5/13/2021 3:30:00 AM 10.72 51.296 0.362 7.69 2774 9.45
5/13/2021 3:45:00 AM 10.55 50.99 0.362 7.69 2881 9.51
5/13/2021 4:00:00 AM 10.39 50.702 0.362 7.69 2925 9.56
5/13/2021 4:15:00 AM 10.23 50.414 0.363 7.69 2948 9.63
5/13/2021 4:30:00 AM 10.08 50.144 0.362 7.69 2991 9.67
5/13/2021 4:45:00 AM 9.94 49.892 0.362 7.69 2949 9.72
5/13/2021 5:00:00 AM 9.8 49.64 0.362 7.7 3079 9.77
5/13/2021 5:15:00 AM 9.67 49.406 0.363 7.7 3067 9.82
5/13/2021 5:30:00 AM 9.54 49.172 0.363 7.7 2983 9.86
5/13/2021 5:45:00 AM 9.41 48.938 0.362 7.7 3005 9.91
5/13/2021 6:00:00 AM 9.3 48.74 0.363 7.71 3011 9.97
5/13/2021 6:15:00 AM 9.19 48.542 0.363 7.7 2932 10.02
5/13/2021 6:30:00 AM 9.09 48.362 0.362 7.7 2955 10.08
5/13/2021 6:45:00 AM 9 48.2 0.362 7.71 2985 10.17
5/13/2021 7:00:00 AM 8.93 48.074 0.362 7.71 3031 10.25
5/13/2021 7:15:00 AM 8.87 47.966 0.363 7.72 2929 10.35
5/13/2021 7:30:00 AM 8.83 47.894 0.363 7.71 2893 10.44
5/13/2021 7:45:00 AM 8.81 47.858 0.362 7.72 2906 10.56
5/13/2021 8:00:00 AM 8.8 47.84 0.362 7.73 2890 10.68
5/13/2021 8:15:00 AM 8.82 47.876 0.362 7.73 2951 10.8
5/13/2021 8:30:00 AM 8.86 47.948 0.361 7.74 2884 10.96
5/13/2021 8:45:00 AM 8.92 48.056 0.361 7.75 2905 11.08
5/13/2021 9:00:00 AM 8.99 48.182 0.361 7.76 2882 11.24
5/13/2021 9:15:00 AM 9.08 48.344 0.361 7.77 2893 11.37
5/13/2021 9:30:00 AM 9.18 48.524 0.361 7.78 2887 11.54
5/13/2021 9:45:00 AM 9.3 48.74 0.357 7.79 2878 11.68
5/13/2021 10:00:00 AM 9.45 49.01 0.36 7.8 2804 11.83
5/13/2021 10:15:00 AM 9.61 49.298 0.36 7.81 2854 11.96
5/13/2021 10:30:00 AM 9.79 49.622 0.36 7.83 2849 12.08
5/13/2021 10:45:00 AM 9.98 49.964 0.36 7.83 2844 12.23
5/13/2021 11:00:00 AM 10.2 50.36 0.361 7.85 2824 12.34
5/13/2021 11:15:00 AM 10.44 50.792 0.36 7.86 2839 12.48
5/13/2021 11:30:00 AM 10.68 51.224 0.359 7.88 2838 12.6
5/13/2021 11:45:00 AM 10.9 51.62 0.359 7.9 2819 12.65
5/13/2021 12:00:00 PM 11.23 52.214 0.359 7.91 2836 12.77
5/13/2021 12:15:00 PM 11.52 52.736 0.358 7.92 2905 12.88
5/13/2021 12:30:00 PM 11.63 52.934 0.359 7.94 2925 12.76
5/13/2021 12:45:00 PM 11.68 53.024 0.357 7.96 2851 12.65
5/13/2021 1:00:00 PM 11.97 53.546 0.357 7.96 2837 12.72
5/13/2021 1:15:00 PM 12.06 53.708 0.357 7.97 2791 12.55
5/13/2021 1:30:00 PM 12.27 54.086 0.357 7.99 2862 12.62
5/13/2021 1:45:00 PM 12.55 54.59 0.357 7.99 2834 12.68
5/13/2021 2:00:00 PM 12.82 55.076 0.357 8 2830 12.69
5/13/2021 2:15:00 PM 13.13 55.634 0.356 8.01 2850 12.78
5/13/2021 2:30:00 PM 13.21 55.778 0.357 8.03 2830 12.65
5/13/2021 2:45:00 PM 13.35 56.03 0.356 8.04 2729 12.55
5/13/2021 3:00:00 PM 13.53 56.354 0.356 8.04 2671 12.51
5/13/2021 3:15:00 PM 13.64 56.552 0.357 8.04 2663 12.4
5/13/2021 3:30:00 PM 13.85 56.93 0.356 8.05 2642 12.39
5/13/2021 3:45:00 PM 14.11 57.398 0.355 8.04 2622 12.43
5/13/2021 4:00:00 PM 14.38 57.884 0.354 8.05 2478 12.49
5/13/2021 4:15:00 PM 14.47 58.046 0.354 8.06 2462 12.2
5/13/2021 4:30:00 PM 14.46 58.028 0.354 8.07 2382 11.96
5/13/2021 4:45:00 PM 14.49 58.082 0.355 8.06 2386 11.81
5/13/2021 5:00:00 PM 14.57 58.226 0.354 8.06 2425 11.71
5/13/2021 5:15:00 PM 14.69 58.442 0.356 8.06 2464 11.73
5/13/2021 5:30:00 PM 14.76 58.568 0.355 8.05 2465 11.53
5/13/2021 5:45:00 PM 14.83 58.694 0.355 8.06 2524 11.34
5/13/2021 6:00:00 PM 14.87 58.766 0.357 8.06 2501 11.11
5/13/2021 6:15:00 PM 14.88 58.784 0.357 8.05 2495 10.91
5/13/2021 6:30:00 PM 14.91 58.838 0.357 8.04 2478 10.78
5/13/2021 6:45:00 PM 14.93 58.874 0.358 8.03 2617 10.62
5/13/2021 7:00:00 PM 14.95 58.91 0.359 8.02 2593 10.44
5/13/2021 7:15:00 PM 14.98 58.964 0.359 8 2571 10.26
5/13/2021 7:30:00 PM 14.99 58.982 0.359 7.99 2585 10.09
5/13/2021 7:45:00 PM 14.98 58.964 0.339 7.97 2324 9.91
5/13/2021 8:00:00 PM 14.96 58.928 0.361 7.96 2185 9.7
5/13/2021 8:15:00 PM 14.96 58.928 0.362 7.94 2222 9.52
5/13/2021 8:30:00 PM 14.95 58.91 0.363 7.91 2297 9.36
5/13/2021 8:45:00 PM 14.93 58.874 0.364 7.89 2357 9.23
5/13/2021 9:00:00 PM 14.91 58.838 0.364 7.88 2268 9.12
5/13/2021 9:15:00 PM 14.87 58.766 0.365 7.86 2343 9.03
5/13/2021 9:30:00 PM 14.84 58.712 0.365 7.85 2352 8.93
5/13/2021 9:45:00 PM 14.8 58.64 0.365 7.83 2419 8.86
5/13/2021 10:00:00 PM 14.75 58.55 0.366 7.82 2374 8.8
5/13/2021 10:15:00 PM 14.67 58.406 0.367 7.8 2361 8.72
5/13/2021 10:30:00 PM 14.58 58.244 0.367 7.79 2462 8.69
5/13/2021 10:45:00 PM 14.48 58.064 0.368 7.78 2409 8.64
5/13/2021 11:00:00 PM 14.37 57.866 0.368 7.77 2439 8.62
5/13/2021 11:15:00 PM 14.25 57.65 0.368 7.76 2481 8.61
5/13/2021 11:30:00 PM 14.13 57.434 0.369 7.75 2502 8.6
5/13/2021 11:45:00 PM 14.01 57.218 0.369 7.74 2631 8.59
5/14/2021 12:00:00 AM 13.88 56.984 0.369 7.73 2675 8.59
5/14/2021 12:15:00 AM 13.73 56.714 0.37 7.72 2631 8.61
5/14/2021 12:30:00 AM 13.57 56.426 0.37 7.72 2571 8.62
5/14/2021 12:45:00 AM 13.41 56.138 0.371 7.71 2581 8.65
5/14/2021 1:00:00 AM 13.23 55.814 0.371 7.71 2609 8.68
5/14/2021 1:15:00 AM 13.05 55.49 0.371 7.7 2633 8.72
5/14/2021 1:30:00 AM 12.87 55.166 0.371 7.7 2535 8.76
5/14/2021 1:45:00 AM 12.7 54.86 0.371 7.69 2594 8.8
5/14/2021 2:00:00 AM 12.52 54.536 0.371 7.69 2551 8.84
5/14/2021 2:15:00 AM 12.35 54.23 0.371 7.68 2586 8.88
5/14/2021 2:30:00 AM 12.17 53.906 0.372 7.69 2600 8.93
5/14/2021 2:45:00 AM 12 53.6 0.373 7.68 2565 8.98
5/14/2021 3:00:00 AM 11.83 53.294 0.373 7.68 2636 9.03
5/14/2021 3:15:00 AM 11.66 52.988 0.374 7.68 2670 9.09
5/14/2021 3:30:00 AM 11.5 52.7 0.373 7.68 2603 9.14
5/14/2021 3:45:00 AM 11.34 52.412 0.373 7.68 2703 9.2
5/14/2021 4:00:00 AM 11.18 52.124 0.372 7.68 2663 9.25
5/14/2021 4:15:00 AM 11.03 51.854 0.372 7.68 2679 9.3
5/14/2021 4:30:00 AM 10.88 51.584 0.371 7.68 2751 9.36
5/14/2021 4:45:00 AM 10.73 51.314 0.371 7.68 2725 9.41
5/14/2021 5:00:00 AM 10.59 51.062 0.371 7.68 2730 9.46
5/14/2021 5:15:00 AM 10.46 50.828 0.371 7.68 2695 9.51
5/14/2021 5:30:00 AM 10.32 50.576 0.371 7.68 2700 9.55
5/14/2021 5:45:00 AM 10.2 50.36 0.371 7.68 2721 9.59
5/14/2021 6:00:00 AM 10.07 50.126 0.371 7.69 2753 9.67
5/14/2021 6:15:00 AM 9.96 49.928 0.371 7.69 2732 9.73
5/14/2021 6:30:00 AM 9.85 49.73 0.37 7.69 2680 9.78
5/14/2021 6:45:00 AM 9.75 49.55 0.37 7.69 2717 9.88
5/14/2021 7:00:00 AM 9.67 49.406 0.37 7.7 2707 9.96
5/14/2021 7:15:00 AM 9.6 49.28 0.37 7.7 2779 10.07
5/14/2021 7:30:00 AM 9.55 49.19 0.37 7.7 2797 10.18
5/14/2021 7:45:00 AM 9.51 49.118 0.37 7.71 2753 10.31
5/14/2021 8:00:00 AM 9.49 49.082 0.37 7.71 2782 10.44
5/14/2021 8:15:00 AM 9.49 49.082 0.369 7.72 2817 10.6
5/14/2021 8:30:00 AM 9.51 49.118 0.369 7.73 2822 10.76
5/14/2021 8:45:00 AM 9.55 49.19 0.369 7.74 2822 10.92
5/14/2021 9:00:00 AM 9.61 49.298 0.369 7.75 2785 11.08
5/14/2021 9:15:00 AM 9.69 49.442 0.369 7.76 2875 11.25
5/14/2021 9:30:00 AM 9.78 49.604 0.369 7.77 2878 11.42
5/14/2021 9:45:00 AM 9.89 49.802 0.369 7.79 2961 11.57
5/14/2021 10:00:00 AM 10.02 50.036 0.369 7.8 2974 11.74
5/14/2021 10:15:00 AM 10.18 50.324 0.369 7.81 2948 11.88
5/14/2021 10:30:00 AM 10.36 50.648 0.369 7.82 2902 12.04
5/14/2021 10:45:00 AM 10.55 50.99 0.368 7.83 2914 12.2
5/14/2021 11:00:00 AM 10.76 51.368 0.368 7.85 2895 12.33
5/14/2021 11:15:00 AM 10.99 51.782 0.368 7.87 2910 12.45
5/14/2021 11:30:00 AM 11.24 52.232 0.368 7.88 2852 12.59
5/14/2021 11:45:00 AM 11.49 52.682 0.367 7.9 2880 12.7
5/14/2021 12:00:00 PM 11.77 53.186 0.367 7.91 2819 12.83
5/14/2021 12:15:00 PM 12.04 53.672 0.366 7.93 2862 12.94
5/14/2021 12:30:00 PM 12.22 53.996 0.366 7.95 2861 12.84
5/14/2021 12:45:00 PM 12.28 54.104 0.366 7.97 2908 12.69
5/14/2021 1:00:00 PM 12.39 54.302 0.366 7.97 2834 12.67
5/14/2021 1:15:00 PM 12.53 54.554 0.366 7.98 2864 12.61
5/14/2021 1:30:00 PM 12.66 54.788 0.366 7.99 2811 12.54
5/14/2021 1:45:00 PM 12.86 55.148 0.366 8 2759 12.55
5/14/2021 2:00:00 PM 13.12 55.616 0.365 8.01 2746 12.59
5/14/2021 2:15:00 PM 13.5 56.3 0.364 8.01 2820 12.74
5/14/2021 2:30:00 PM 13.98 57.164 0.363 8.02 2820 12.92
5/14/2021 2:45:00 PM 14.45 58.01 0.363 8.04 2739 13.02
5/14/2021 3:00:00 PM 14.78 58.604 0.361 8.06 2671 13.03
5/14/2021 3:15:00 PM 15.08 59.144 0.362 8.08 2548 13.02
5/14/2021 3:30:00 PM 15.3 59.54 0.362 8.1 2539 12.88
5/14/2021 3:45:00 PM 15.38 59.684 0.361 8.12 2417 12.57
5/14/2021 4:00:00 PM 15.65 60.17 0.359 8.12 2224 12.54
5/14/2021 4:15:00 PM 15.84 60.512 0.36 8.12 2086 12.41
5/14/2021 4:30:00 PM 16.1 60.98 0.359 8.13 2017 12.39
5/14/2021 4:45:00 PM 16.36 61.448 0.359 8.14 1828 12.34
5/14/2021 5:00:00 PM 16.53 61.754 0.359 8.14 1792 12.23
5/14/2021 5:15:00 PM 16.67 62.006 0.358 8.15 1770 12.06
5/14/2021 5:30:00 PM 16.8 62.24 0.359 8.15 1775 11.9
5/14/2021 5:45:00 PM 16.92 62.456 0.358 8.15 1806 11.81
5/14/2021 6:00:00 PM 17.07 62.726 0.358 8.16 1784 11.7
5/14/2021 6:15:00 PM 17.23 63.014 0.36 8.15 1729 11.56
5/14/2021 6:30:00 PM 17.33 63.194 0.361 8.15 1687 11.29
5/14/2021 6:45:00 PM 17.39 63.302 0.362 8.13 1624 10.93
5/14/2021 7:00:00 PM 17.41 63.338 0.364 8.13 1610 10.58
5/14/2021 7:15:00 PM 17.43 63.374 0.365 8.12 1617 10.23
5/14/2021 7:30:00 PM 17.44 63.392 0.366 8.1 1609 9.95
5/14/2021 7:45:00 PM 17.47 63.446 0.365 8.08 1620 9.73
5/14/2021 8:00:00 PM 17.47 63.446 0.366 8.05 1629 9.51
5/14/2021 8:15:00 PM 17.45 63.41 0.367 8.03 1660 9.26
5/14/2021 8:30:00 PM 17.42 63.356 0.368 8.01 1672 9.03
5/14/2021 8:45:00 PM 17.37 63.266 0.369 7.99 1665 8.86
5/14/2021 9:00:00 PM 17.31 63.158 0.37 7.96 4224 8.71
5/14/2021 9:15:00 PM 17.24 63.032 0.371 7.94 3168 8.59
5/14/2021 9:30:00 PM 17.16 62.888 0.371 7.92 2894 8.47
5/14/2021 9:45:00 PM 17.07 62.726 0.372 7.9 2836 8.38
5/14/2021 10:00:00 PM 16.96 62.528 0.373 7.88 2978 8.31
5/14/2021 10:15:00 PM 16.84 62.312 0.374 7.86 2973 8.2
5/14/2021 10:30:00 PM 16.71 62.078 0.374 7.84 3096 8.12
5/14/2021 10:45:00 PM 16.59 61.862 0.375 7.82 3014 8.05
5/14/2021 11:00:00 PM 16.47 61.646 0.376 7.8 3005 8.02
5/14/2021 11:15:00 PM 16.33 61.394 0.377 7.79 3056 7.99
5/14/2021 11:30:00 PM 16.19 61.142 0.377 7.77 3013 7.95
5/14/2021 11:45:00 PM 16.04 60.872 0.378 7.76 3217 7.96
5/15/2021 12:00:00 AM 15.89 60.602 0.379 7.75 3237 7.94
5/15/2021 12:15:00 AM 15.72 60.296 0.379 7.74 3214 7.95
5/15/2021 12:30:00 AM 15.54 59.972 0.379 7.73 3291 7.94
5/15/2021 12:45:00 AM 15.36 59.648 0.379 7.72 3291 7.96
5/15/2021 1:00:00 AM 15.17 59.306 0.38 7.72 3193 7.97
5/15/2021 1:15:00 AM 14.98 58.964 0.38 7.7 3165 8
5/15/2021 1:30:00 AM 14.78 58.604 0.381 7.7 3331 8.04
5/15/2021 1:45:00 AM 14.58 58.244 0.381 7.69 3212 8.08
5/15/2021 2:00:00 AM 14.39 57.902 0.381 7.69 3231 8.13
5/15/2021 2:15:00 AM 14.19 57.542 0.382 7.68 3393 8.18
5/15/2021 2:30:00 AM 14 57.2 0.382 7.68 3287 8.24
5/15/2021 2:45:00 AM 13.8 56.84 0.382 7.68 3337 8.3
5/15/2021 3:00:00 AM 13.6 56.48 0.383 7.68 3424 8.36
5/15/2021 3:15:00 AM 13.41 56.138 0.383 7.68 3330 8.42
5/15/2021 3:30:00 AM 13.21 55.778 0.383 7.67 3338 8.48
5/15/2021 3:45:00 AM 13 55.4 0.383 7.68 3376 8.55
5/15/2021 4:00:00 AM 12.81 55.058 0.383 7.68 3975 8.62
5/15/2021 4:15:00 AM 12.61 54.698 0.383 7.68 3958 8.69
5/15/2021 4:30:00 AM 12.41 54.338 0.383 7.68 4097 8.77
5/15/2021 4:45:00 AM 12.23 54.014 0.383 7.68 4003 8.82
5/15/2021 5:00:00 AM 12.04 53.672 0.383 7.68 4217 8.9
5/15/2021 5:15:00 AM 11.86 53.348 0.383 7.68 4162 8.95
5/15/2021 5:30:00 AM 11.68 53.024 0.381 7.68 4177 9.02
5/15/2021 5:45:00 AM 11.51 52.718 0.381 7.69 4070 9.1
5/15/2021 6:00:00 AM 11.33 52.394 0.381 7.68 4207 9.16
5/15/2021 6:15:00 AM 11.18 52.124 0.381 7.69 3926 9.24
5/15/2021 6:30:00 AM 11.02 51.836 0.38 7.69 4245 9.34
5/15/2021 6:45:00 AM 10.88 51.584 0.38 7.7 4204 9.44
5/15/2021 7:00:00 AM 10.76 51.368 0.38 7.7 4232 9.56
5/15/2021 7:15:00 AM 10.66 51.188 0.38 7.7 3989 9.68
5/15/2021 7:30:00 AM 10.57 51.026 0.381 7.71 4023 9.82
5/15/2021 7:45:00 AM 10.5 50.9 0.38 7.72 4145 9.98
5/15/2021 8:00:00 AM 10.45 50.81 0.38 7.72 3986 10.13
5/15/2021 8:15:00 AM 10.42 50.756 0.38 7.73 4094 10.3
5/15/2021 8:30:00 AM 10.41 50.738 0.38 7.74 3969 10.48
5/15/2021 8:45:00 AM 10.42 50.756 0.379 7.75 4140 10.67
5/15/2021 9:00:00 AM 10.45 50.81 0.379 7.76 4109 10.85
5/15/2021 9:15:00 AM 10.51 50.918 0.379 7.77 4046 11.05
5/15/2021 9:30:00 AM 10.58 51.044 0.379 7.79 4048 11.23
5/15/2021 9:45:00 AM 10.68 51.224 0.378 7.8 3984 11.41
5/15/2021 10:00:00 AM 10.8 51.44 0.378 7.81 3820 11.6
5/15/2021 10:15:00 AM 10.94 51.692 0.378 7.82 3792 11.79
5/15/2021 10:30:00 AM 11.1 51.98 0.377 7.84 3785 11.96
5/15/2021 10:45:00 AM 11.29 52.322 0.377 7.85 3806 12.13
5/15/2021 11:00:00 AM 11.47 52.646 0.376 7.87 3661 12.29
5/15/2021 11:15:00 AM 11.69 53.042 0.376 7.88 3833 12.42
5/15/2021 11:30:00 AM 11.91 53.438 0.376 7.9 3434 12.56
5/15/2021 11:45:00 AM 12.17 53.906 0.375 7.92 3277 12.72
5/15/2021 12:00:00 PM 12.44 54.392 0.375 7.94 3262 12.84
5/15/2021 12:15:00 PM 12.73 54.914 0.375 7.96 3150 12.97
5/15/2021 12:30:00 PM 12.99 55.382 0.375 7.98 2819 13.07
5/15/2021 12:45:00 PM 13.25 55.85 0.373 8 2899 13.15
5/15/2021 1:00:00 PM 13.44 56.192 0.374 8.01 2770 13.12
5/15/2021 1:15:00 PM 13.52 56.336 0.373 8.03 2755 13.02
5/15/2021 1:30:00 PM 13.55 56.39 0.373 8.04 2733 12.9
5/15/2021 1:45:00 PM 13.63 56.534 0.373 8.05 2758 12.82
5/15/2021 2:00:00 PM 13.8 56.84 0.373 8.07 2614 12.89
5/15/2021 2:15:00 PM 14.18 57.524 0.375 8.08 2968 13.06
5/15/2021 2:30:00 PM 14.56 58.208 0.375 8.09 2830 13.21
5/15/2021 2:45:00 PM 14.85 58.73 0.375 8.11 2956 13.16
5/15/2021 3:00:00 PM 15.07 59.126 0.374 8.12 2918 13.17
5/15/2021 3:15:00 PM 15.22 59.396 0.374 8.13 2533 13.05
5/15/2021 3:30:00 PM 15.37 59.666 0.374 8.14 2401 12.81
5/15/2021 3:45:00 PM 15.5 59.9 0.373 8.14 2409 12.71
5/15/2021 4:00:00 PM 15.64 60.152 0.372 8.15 2359 12.51
5/15/2021 4:15:00 PM 15.78 60.404 0.372 8.15 2250 12.36
5/15/2021 4:30:00 PM 15.96 60.728 0.371 8.14 2215 12.33
5/15/2021 4:45:00 PM 16.07 60.926 0.372 8.14 2239 12.16
5/15/2021 5:00:00 PM 16.25 61.25 0.367 8.14 2168 12.19
5/15/2021 5:15:00 PM 16.43 61.574 0.371 8.15 2245 12.19
5/15/2021 5:30:00 PM 16.5 61.7 0.371 8.13 2318 12.04
5/15/2021 5:45:00 PM 16.55 61.79 0.371 8.14 2068 11.92
5/15/2021 6:00:00 PM 16.57 61.826 0.371 8.15 2009 11.73
5/15/2021 6:15:00 PM 16.57 61.826 0.373 8.15 2146 11.38
5/15/2021 6:30:00 PM 16.58 61.844 0.371 8.14 2156 11.08
5/15/2021 6:45:00 PM 16.56 61.808 0.373 8.13 2085 10.69
5/15/2021 7:00:00 PM 16.57 61.826 0.375 8.12 2020 10.51
5/15/2021 7:15:00 PM 16.54 61.772 0.375 8.1 1928 10.24
5/15/2021 7:30:00 PM 16.51 61.718 0.374 8.09 1891 10.04
5/15/2021 7:45:00 PM 16.48 61.664 0.375 8.07 1975 9.83
5/15/2021 8:00:00 PM 16.43 61.574 0.377 8.04 1958 9.6
5/15/2021 8:15:00 PM 16.38 61.484 0.378 8.02 1956 9.4
5/15/2021 8:30:00 PM 16.34 61.412 0.378 8 1959 9.22
5/15/2021 8:45:00 PM 16.27 61.286 0.379 7.98 1919 9.07
5/15/2021 9:00:00 PM 16.18 61.124 0.378 7.96 1953 8.96
5/15/2021 9:15:00 PM 16.08 60.944 0.381 7.94 1984 8.81
5/15/2021 9:30:00 PM 15.98 60.764 0.382 7.93 1971 8.73
5/15/2021 9:45:00 PM 15.87 60.566 0.383 7.91 1988 8.62
5/15/2021 10:00:00 PM 15.76 60.368 0.383 7.88 1991 8.54
5/15/2021 10:15:00 PM 15.66 60.188 0.383 7.87 1810 8.45
5/15/2021 10:30:00 PM 15.56 60.008 0.384 7.85 2034 8.4
5/15/2021 10:45:00 PM 15.45 59.81 0.385 7.83 2070 8.34
5/15/2021 11:00:00 PM 15.34 59.612 0.385 7.81 2074 8.31
5/15/2021 11:15:00 PM 15.23 59.414 0.386 7.79 2111 8.25
5/15/2021 11:30:00 PM 15.1 59.18 0.387 7.78 2162 8.22
5/15/2021 11:45:00 PM 14.96 58.928 0.387 7.77 2224 8.22
5/16/2021 12:00:00 AM 14.82 58.676 0.388 7.74 2171 8.2
5/16/2021 12:15:00 AM 14.67 58.406 0.389 7.73 2235 8.21
5/16/2021 12:30:00 AM 14.53 58.154 0.389 7.73 2267 8.21
5/16/2021 12:45:00 AM 14.38 57.884 0.39 7.72 2298 8.22
5/16/2021 1:00:00 AM 14.23 57.614 0.39 7.71 2286 8.23
5/16/2021 1:15:00 AM 14.08 57.344 0.391 7.7 2328 8.25
5/16/2021 1:30:00 AM 13.93 57.074 0.391 7.7 2260 8.29
5/16/2021 1:45:00 AM 13.77 56.786 0.391 7.69 2292 8.31
5/16/2021 2:00:00 AM 13.6 56.48 0.391 7.69 2342 8.37
5/16/2021 2:15:00 AM 13.44 56.192 0.391 7.68 2309 8.39
5/16/2021 2:30:00 AM 13.28 55.904 0.391 7.68 2259 8.44
5/16/2021 2:45:00 AM 13.12 55.616 0.391 7.68 2402 8.5
5/16/2021 3:00:00 AM 12.97 55.346 0.391 7.68 2345 8.53
5/16/2021 3:15:00 AM 12.82 55.076 0.392 7.68 2370 8.57
5/16/2021 3:30:00 AM 12.68 54.824 0.392 7.68 2349 8.62
5/16/2021 3:45:00 AM 12.54 54.572 0.392 7.67 2290 8.66
5/16/2021 4:00:00 AM 12.4 54.32 0.392 7.65 2405 8.69
5/16/2021 4:15:00 AM 12.27 54.086 0.393 7.66 2324 8.74
5/16/2021 4:30:00 AM 12.14 53.852 0.392 7.66 2341 8.79
5/16/2021 4:45:00 AM 12.01 53.618 0.392 7.67 2329 8.85
5/16/2021 5:00:00 AM 11.89 53.402 0.392 7.67 2399 8.88
5/16/2021 5:15:00 AM 11.77 53.186 0.376 7.67 2404 8.94
5/16/2021 5:30:00 AM 11.66 52.988 0.385 7.67 2387 8.98
5/16/2021 5:45:00 AM 11.55 52.79 0.386 7.67 2356 9.01
5/16/2021 6:00:00 AM 11.44 52.592 0.392 7.67 2451 9.09
5/16/2021 6:15:00 AM 11.34 52.412 0.393 7.67 2407 9.13
5/16/2021 6:30:00 AM 11.26 52.268 0.393 7.67 2506 9.2
5/16/2021 6:45:00 AM 11.17 52.106 0.392 7.67 2531 9.26
5/16/2021 7:00:00 AM 11.1 51.98 0.392 7.67 2476 9.34
5/16/2021 7:15:00 AM 11.03 51.854 0.392 7.68 2476 9.46
5/16/2021 7:30:00 AM 10.98 51.764 0.392 7.68 2456 9.57
5/16/2021 7:45:00 AM 10.93 51.674 0.392 7.69 2515 9.69
5/16/2021 8:00:00 AM 10.88 51.584 0.392 7.7 2493 9.8
5/16/2021 8:15:00 AM 10.84 51.512 0.392 7.7 2472 9.94
5/16/2021 8:30:00 AM 10.81 51.458 0.391 7.71 2474 10.05
5/16/2021 8:45:00 AM 10.79 51.422 0.392 7.71 2498 10.2
5/16/2021 9:00:00 AM 10.76 51.368 0.392 7.72 2563 10.32
5/16/2021 9:15:00 AM 10.75 51.35 0.391 7.74 2501 10.46
5/16/2021 9:30:00 AM 10.75 51.35 0.391 7.74 2549 10.62
5/16/2021 9:45:00 AM 10.75 51.35 0.391 7.76 2548 10.75
5/16/2021 10:00:00 AM 10.75 51.35 0.391 7.76 2461 10.85
5/16/2021 10:15:00 AM 10.74 51.332 0.39 7.77 2452 10.88
5/16/2021 10:30:00 AM 10.76 51.368 0.391 7.78 2474 11.01
5/16/2021 10:45:00 AM 10.79 51.422 0.39 7.79 2446 11.15
5/16/2021 11:00:00 AM 10.84 51.512 0.39 7.81 2425 11.31
5/16/2021 11:15:00 AM 10.88 51.584 0.39 7.81 2436 11.49
5/16/2021 11:30:00 AM 10.94 51.692 0.39 7.83 2449 11.64
5/16/2021 11:45:00 AM 10.99 51.782 0.39 7.84 2438 11.74
5/16/2021 12:00:00 PM 11.05 51.89 0.39 7.86 2462 11.83
5/16/2021 12:15:00 PM 11.1 51.98 0.39 7.86 2448 11.95
5/16/2021 12:30:00 PM 11.18 52.124 0.389 7.88 2475 12.14
5/16/2021 12:45:00 PM 11.27 52.286 0.389 7.9 2444 12.29
5/16/2021 1:00:00 PM 11.34 52.412 0.388 7.92 2472 12.37
5/16/2021 1:15:00 PM 11.4 52.52 0.388 7.93 2513 12.41
5/16/2021 1:30:00 PM 11.46 52.628 0.388 7.94 2480 12.43
5/16/2021 1:45:00 PM 11.52 52.736 0.389 7.95 2488 12.43
5/16/2021 2:00:00 PM 11.6 52.88 0.387 7.96 2452 12.55
5/16/2021 2:15:00 PM 11.7 53.06 0.388 7.98 2479 12.67
5/16/2021 2:30:00 PM 11.85 53.33 0.387 7.99 2468 12.85
5/16/2021 2:45:00 PM 11.98 53.564 0.387 8.01 2447 13
5/16/2021 3:00:00 PM 12.12 53.816 0.386 8.02 2449 13.13
5/16/2021 3:15:00 PM 12.29 54.122 0.385 8.04 2455 13.28
5/16/2021 3:30:00 PM 12.45 54.41 0.385 8.06 2443 13.36
5/16/2021 3:45:00 PM 12.54 54.572 0.385 8.08 2490 13.32
5/16/2021 4:00:00 PM 12.59 54.662 0.385 8.09 2421 13.17
5/16/2021 4:15:00 PM 12.6 54.68 0.384 8.1 2422 12.94
5/16/2021 4:30:00 PM 12.61 54.698 0.384 8.1 2414 12.68
5/16/2021 4:45:00 PM 12.64 54.752 0.384 8.1 2415 12.4
5/16/2021 5:00:00 PM 12.67 54.806 0.384 8.09 2409 12.17
5/16/2021 5:15:00 PM 12.71 54.878 0.384 8.09 2416 12
5/16/2021 5:30:00 PM 12.75 54.95 0.385 8.08 2401 11.82
5/16/2021 5:45:00 PM 12.79 55.022 0.385 8.08 2412 11.78
5/16/2021 6:00:00 PM 12.84 55.112 0.384 8.07 2452 11.81
5/16/2021 6:15:00 PM 12.95 55.31 0.385 8.08 2449 11.95
5/16/2021 6:30:00 PM 12.97 55.346 0.384 8.07 2418 11.78
5/16/2021 6:45:00 PM 13.01 55.418 0.385 8.08 2452 11.71
5/16/2021 7:00:00 PM 13.02 55.436 0.385 8.07 2405 11.45
5/16/2021 7:15:00 PM 13.04 55.472 0.385 8.06 2436 11.22
5/16/2021 7:30:00 PM 13.07 55.526 0.386 8.06 2432 11
5/16/2021 7:45:00 PM 13.11 55.598 0.386 8.05 2465 10.79
5/16/2021 8:00:00 PM 13.13 55.634 0.386 8.03 2449 10.59
5/16/2021 8:15:00 PM 13.13 55.634 0.387 8.01 2487 10.4
5/16/2021 8:30:00 PM 13.14 55.652 0.387 8 2378 10.23
5/16/2021 8:45:00 PM 13.13 55.634 0.387 7.99 2339 10.06
5/16/2021 9:00:00 PM 13.12 55.616 0.388 7.97 2423 9.91
5/16/2021 9:15:00 PM 13.11 55.598 0.388 7.96 2432 9.79
5/16/2021 9:30:00 PM 13.08 55.544 0.388 7.94 2423 9.68
5/16/2021 9:45:00 PM 13.06 55.508 0.389 7.92 2422 9.59
5/16/2021 10:00:00 PM 13.02 55.436 0.389 7.92 2395 9.54
5/16/2021 10:15:00 PM 12.97 55.346 0.389 7.9 2419 9.47
5/16/2021 10:30:00 PM 12.92 55.256 0.39 7.88 2434 9.4
5/16/2021 10:45:00 PM 12.87 55.166 0.39 7.88 2505 9.33
5/16/2021 11:00:00 PM 12.82 55.076 0.391 7.86 2506 9.25
5/16/2021 11:15:00 PM 12.78 55.004 0.391 7.85 2568 9.21
5/16/2021 11:30:00 PM 12.74 54.932 0.392 7.84 2530 9.15
5/16/2021 11:45:00 PM 12.69 54.842 0.392 7.82 2496 9.11
5/17/2021 12:00:00 AM 12.63 54.734 0.393 7.81 2509 9.07
5/17/2021 12:15:00 AM 12.58 54.644 0.393 7.8 2571 9.05
5/17/2021 12:30:00 AM 12.51 54.518 0.393 7.79 2630 9.03
5/17/2021 12:45:00 AM 12.44 54.392 0.394 7.78 2667 8.99
5/17/2021 1:00:00 AM 12.37 54.266 0.394 7.77 2740 8.98
5/17/2021 1:15:00 AM 12.29 54.122 0.395 7.77 2752 8.99
5/17/2021 1:30:00 AM 12.22 53.996 0.395 7.76 2741 8.97
5/17/2021 1:45:00 AM 12.14 53.852 0.395 7.75 2712 8.97
5/17/2021 2:00:00 AM 12.06 53.708 0.396 7.75 2687 8.97
5/17/2021 2:15:00 AM 11.98 53.564 0.396 7.74 2697 8.99
5/17/2021 2:30:00 AM 11.9 53.42 0.396 7.74 2722 8.98
5/17/2021 2:45:00 AM 11.83 53.294 0.397 7.73 2743 8.98
5/17/2021 3:00:00 AM 11.74 53.132 0.397 7.72 2739 9.01
5/17/2021 3:15:00 AM 11.65 52.97 0.397 7.72 2701 9.02
5/17/2021 3:30:00 AM 11.56 52.808 0.398 7.72 2723 9.04
5/17/2021 3:45:00 AM 11.46 52.628 0.4 7.72 2698 9.07
5/17/2021 4:00:00 AM 11.36 52.448 0.401 7.71 2731 9.09
5/17/2021 4:15:00 AM 11.26 52.268 0.401 7.71 2741 9.13
5/17/2021 4:30:00 AM 11.16 52.088 0.401 7.71 2718 9.15
5/17/2021 4:45:00 AM 11.06 51.908 0.4 7.71 2778 9.19
5/17/2021 5:00:00 AM 10.96 51.728 0.4 7.71 2772 9.23
5/17/2021 5:15:00 AM 10.86 51.548 0.4 7.71 2774 9.27
5/17/2021 5:30:00 AM 10.76 51.368 0.399 7.71 2753 9.32
5/17/2021 5:45:00 AM 10.67 51.206 0.399 7.7 2738 9.33
5/17/2021 6:00:00 AM 10.58 51.044 0.4 7.71 2749 9.38
5/17/2021 6:15:00 AM 10.5 50.9 0.399 7.71 2741 9.45
5/17/2021 6:30:00 AM 10.43 50.774 0.399 7.71 2722 9.54
5/17/2021 6:45:00 AM 10.36 50.648 0.399 7.71 2759 9.67
5/17/2021 7:00:00 AM 10.31 50.558 0.399 7.72 2712 9.82
5/17/2021 7:15:00 AM 10.27 50.486 0.399 7.72 2742 9.96
5/17/2021 7:30:00 AM 10.24 50.432 0.399 7.73 2739 10.15
5/17/2021 7:45:00 AM 10.22 50.396 0.399 7.73 2738 10.32
5/17/2021 8:00:00 AM 10.21 50.378 0.399 7.74 2765 10.49
5/17/2021 8:15:00 AM 10.22 50.396 0.399 7.76 2741 10.7
5/17/2021 8:30:00 AM 10.25 50.45 0.398 7.77 2741 10.91
5/17/2021 8:45:00 AM 10.29 50.522 0.398 7.77 2728 11.14
5/17/2021 9:00:00 AM 10.35 50.63 0.398 7.79 2707 11.36
5/17/2021 9:15:00 AM 10.42 50.756 0.397 7.81 2713 11.6
5/17/2021 9:30:00 AM 10.51 50.918 0.397 7.82 2673 11.84
5/17/2021 9:45:00 AM 10.61 51.098 0.397 7.84 2638 12.05
5/17/2021 10:00:00 AM 10.72 51.296 0.396 7.85 2672 12.27
5/17/2021 10:15:00 AM 10.82 51.476 0.396 7.87 2706 12.43
5/17/2021 10:30:00 AM 10.97 51.746 0.396 7.88 2666 12.65
5/17/2021 10:45:00 AM 11.1 51.98 0.395 7.91 2670 12.83
5/17/2021 11:00:00 AM 11.26 52.268 0.395 7.92 2675 12.97
5/17/2021 11:15:00 AM 11.4 52.52 0.394 7.93 2652 13.11
5/17/2021 11:30:00 AM 11.6 52.88 0.393 7.96 2653 13.25
5/17/2021 11:45:00 AM 11.78 53.204 0.394 7.98 2667 13.38
5/17/2021 12:00:00 PM 11.98 53.564 0.393 8 2635 13.5
5/17/2021 12:15:00 PM 12.19 53.942 0.392 8.01 2646 13.58
5/17/2021 12:30:00 PM 12.34 54.212 0.392 8.03 2649 13.65
5/17/2021 12:45:00 PM 12.61 54.698 0.391 8.04 2640 13.75
5/17/2021 1:00:00 PM 12.87 55.166 0.39 8.05 2659 13.87
5/17/2021 1:15:00 PM 13.12 55.616 0.388 8.06 2634 13.93
5/17/2021 1:30:00 PM 13.36 56.048 0.386 8.08 2614 13.93
5/17/2021 1:45:00 PM 13.45 56.21 0.383 8.1 2594 13.72
5/17/2021 2:00:00 PM 13.63 56.534 0.383 8.11 2636 13.72
5/17/2021 2:15:00 PM 13.93 57.074 0.387 8.12 2596 13.75
5/17/2021 2:30:00 PM 14.21 57.578 0.387 8.13 2596 13.71
5/17/2021 2:45:00 PM 14.41 57.938 0.386 8.14 2628 13.68
5/17/2021 3:00:00 PM 14.74 58.532 0.387 8.15 2591 13.74
5/17/2021 3:15:00 PM 15.16 59.288 0.387 8.16 2560 13.9
5/17/2021 3:30:00 PM 15.47 59.846 0.386 8.17 2563 13.93
5/17/2021 3:45:00 PM 15.7 60.26 0.378 8.17 2566 13.83
5/17/2021 4:00:00 PM 15.84 60.512 0.385 8.19 2531 13.67
5/17/2021 4:15:00 PM 15.95 60.71 0.384 8.2 2558 13.46
5/17/2021 4:30:00 PM 16.05 60.89 0.382 8.21 2508 13.31
5/17/2021 4:45:00 PM 16.11 60.998 0.383 8.21 2495 13.18
5/17/2021 5:00:00 PM 16.15 61.07 0.383 8.21 2495 13.01
5/17/2021 5:15:00 PM 16.18 61.124 0.381 8.22 2425 12.84
5/17/2021 5:30:00 PM 16.21 61.178 0.379 8.22 2382 12.63
5/17/2021 5:45:00 PM 16.24 61.232 0.374 8.23 2359 12.53
5/17/2021 6:00:00 PM 16.29 61.322 0.373 8.22 2397 12.34
5/17/2021 6:15:00 PM 16.32 61.376 0.374 8.22 2435 12.12
5/17/2021 6:30:00 PM 16.37 61.466 0.381 8.21 2455 11.79
5/17/2021 6:45:00 PM 16.42 61.556 0.385 8.21 2396 11.52
5/17/2021 7:00:00 PM 16.46 61.628 0.385 8.21 2345 11.2
5/17/2021 7:15:00 PM 16.51 61.718 0.383 8.2 2335 10.85
5/17/2021 7:30:00 PM 16.56 61.808 0.386 8.19 2308 10.59
5/17/2021 7:45:00 PM 16.6 61.88 0.387 8.18 2339 10.31
5/17/2021 8:00:00 PM 16.64 61.952 0.387 8.16 2327 10
5/17/2021 8:15:00 PM 16.66 61.988 0.388 8.14 2277 9.73
5/17/2021 8:30:00 PM 16.66 61.988 0.388 8.12 2278 9.46
5/17/2021 8:45:00 PM 16.66 61.988 0.389 8.11 2310 9.23
5/17/2021 9:00:00 PM 16.64 61.952 0.39 8.08 2334 9.01
5/17/2021 9:15:00 PM 16.62 61.916 0.391 8.06 2344 8.88
5/17/2021 9:30:00 PM 16.58 61.844 0.392 8.04 2364 8.72
5/17/2021 9:45:00 PM 16.52 61.736 0.392 8.02 2360 8.6
5/17/2021 10:00:00 PM 16.43 61.574 0.394 8 2297 8.48
5/17/2021 10:15:00 PM 16.35 61.43 0.395 7.98 2310 8.39
5/17/2021 10:30:00 PM 16.25 61.25 0.396 7.96 2282 8.27
5/17/2021 10:45:00 PM 16.14 61.052 0.397 7.94 2283 8.22
5/17/2021 11:00:00 PM 16.04 60.872 0.398 7.92 2272 8.14
5/17/2021 11:15:00 PM 15.93 60.674 0.398 7.9 2282 8.1
5/17/2021 11:30:00 PM 15.82 60.476 0.399 7.88 2302 8.02
5/17/2021 11:45:00 PM 15.7 60.26 0.4 7.86 2271 8
5/18/2021 12:00:00 AM 15.59 60.062 0.401 7.84 2272 7.95
5/18/2021 12:15:00 AM 15.47 59.846 0.402 7.82 2285 7.93
5/18/2021 12:30:00 AM 15.33 59.594 0.402 7.8 2284 7.9
5/18/2021 12:45:00 AM 15.2 59.36 0.403 7.79 2287 7.87
5/18/2021 1:00:00 AM 15.05 59.09 0.404 7.78 2294 7.87
5/18/2021 1:15:00 AM 14.91 58.838 0.405 7.76 2270 7.86
5/18/2021 1:30:00 AM 14.76 58.568 0.406 7.75 2278 7.91
5/18/2021 1:45:00 AM 14.61 58.298 0.405 7.74 2301 7.93
5/18/2021 2:00:00 AM 14.45 58.01 0.407 7.73 2300 7.95
5/18/2021 2:15:00 AM 14.3 57.74 0.408 7.72 2247 7.97
5/18/2021 2:30:00 AM 14.14 57.452 0.408 7.71 2235 8.01
5/18/2021 2:45:00 AM 13.99 57.182 0.409 7.71 2249 8.02
5/18/2021 3:00:00 AM 13.84 56.912 0.409 7.7 2269 8.08
5/18/2021 3:15:00 AM 13.68 56.624 0.41 7.69 2265 8.14
5/18/2021 3:30:00 AM 13.52 56.336 0.41 7.69 2237 8.18
5/18/2021 3:45:00 AM 13.36 56.048 0.41 7.68 2227 8.22
5/18/2021 4:00:00 AM 13.21 55.778 0.411 7.68 2244 8.3
5/18/2021 4:15:00 AM 13.06 55.508 0.411 7.68 2234 8.33
5/18/2021 4:30:00 AM 12.9 55.22 0.411 7.67 2243 8.39
5/18/2021 4:45:00 AM 12.75 54.95 0.411 7.67 2262 8.46
5/18/2021 5:00:00 AM 12.6 54.68 0.411 7.67 2215 8.49
5/18/2021 5:15:00 AM 12.45 54.41 0.411 7.67 2227 8.56
5/18/2021 5:30:00 AM 12.3 54.14 0.411 7.67 2212 8.6
5/18/2021 5:45:00 AM 12.16 53.888 0.411 7.67 2214 8.66
5/18/2021 6:00:00 AM 12.02 53.636 0.412 7.67 2202 8.75
5/18/2021 6:15:00 AM 11.89 53.402 0.412 7.67 2214 8.81
5/18/2021 6:30:00 AM 11.76 53.168 0.411 7.67 2197 8.92
5/18/2021 6:45:00 AM 11.64 52.952 0.411 7.67 2185 9.04
5/18/2021 7:00:00 AM 11.54 52.772 0.411 7.67 2176 9.17
5/18/2021 7:15:00 AM 11.46 52.628 0.411 7.69 2169 9.33
5/18/2021 7:30:00 AM 11.38 52.484 0.411 7.69 2183 9.5
5/18/2021 7:45:00 AM 11.32 52.376 0.411 7.7 2187 9.68
5/18/2021 8:00:00 AM 11.28 52.304 0.41 7.7 2175 9.87
5/18/2021 8:15:00 AM 11.26 52.268 0.41 7.71 2178 10.08
5/18/2021 8:30:00 AM 11.26 52.268 0.41 7.72 2181 10.28
5/18/2021 8:45:00 AM 11.27 52.286 0.41 7.73 2195 10.5
5/18/2021 9:00:00 AM 11.31 52.358 0.41 7.74 2191 10.73
5/18/2021 9:15:00 AM 11.36 52.448 0.409 7.75 2195 10.98
5/18/2021 9:30:00 AM 11.45 52.61 0.43 7.75 2166 11.15
5/18/2021 9:45:00 AM 11.55 52.79 0.417 7.76 2176 11.38
5/18/2021 10:00:00 AM 11.66 52.988 0.411 7.76 2162 11.63
5/18/2021 10:15:00 AM 11.8 53.24 0.41 7.77 2132 11.83
5/18/2021 10:30:00 AM 11.96 53.528 0.409 7.77 2190 12.1
5/18/2021 10:45:00 AM 12.14 53.852 0.408 7.77 2158 12.32
5/18/2021 11:00:00 AM 12.35 54.23 0.407 7.78 2100 12.53
5/18/2021 11:15:00 AM 12.56 54.608 0.407 7.81 2140 12.7
5/18/2021 11:30:00 AM 12.79 55.022 0.406 7.83 2210 12.89
5/18/2021 11:45:00 AM 13.03 55.454 0.406 7.85 2157 13.04
5/18/2021 12:00:00 PM 13.29 55.922 0.406 7.87 2133 13.2
5/18/2021 12:15:00 PM 13.55 56.39 0.404 7.9 2161 13.33
5/18/2021 12:30:00 PM 13.83 56.894 0.404 7.92 2178 13.49
5/18/2021 12:45:00 PM 14.11 57.398 0.403 7.94 2203 13.65
5/18/2021 1:00:00 PM 14.26 57.668 0.402 7.96 2269 13.64
5/18/2021 1:15:00 PM 14.46 58.028 0.401 7.98 2190 13.62
5/18/2021 1:30:00 PM 14.77 58.586 0.401 8 2188 13.72
5/18/2021 1:45:00 PM 15.13 59.234 0.4 8.01 2230 13.94
5/18/2021 2:00:00 PM 15.49 59.882 0.4 8.02 2215 14.05
5/18/2021 2:15:00 PM 15.79 60.422 0.4 8.04 2147 14.12
5/18/2021 2:30:00 PM 16.06 60.908 0.398 8.06 2145 14.18
5/18/2021 2:45:00 PM 16.32 61.376 0.397 8.08 2161 14.1
5/18/2021 3:00:00 PM 16.56 61.808 0.397 8.09 2062 14.06
5/18/2021 3:15:00 PM 16.79 62.222 0.397 8.1 2125 14.04
5/18/2021 3:30:00 PM 17.02 62.636 0.397 8.11 2059 14
5/18/2021 3:45:00 PM 17.24 63.032 0.398 8.13 2012 13.88
5/18/2021 4:00:00 PM 17.44 63.392 0.397 8.14 1972 13.78
5/18/2021 4:15:00 PM 17.63 63.734 0.398 8.15 1941 13.67
5/18/2021 4:30:00 PM 17.8 64.04 0.397 8.16 1934 13.49
5/18/2021 4:45:00 PM 17.96 64.328 0.396 8.17 1903 13.38
5/18/2021 5:00:00 PM 18.12 64.616 0.395 8.18 1900 13.22
5/18/2021 5:15:00 PM 18.24 64.832 0.393 8.18 1922 13.02
5/18/2021 5:30:00 PM 18.36 65.048 0.394 8.19 1903 12.8
5/18/2021 5:45:00 PM 18.45 65.21 0.391 8.16 1887 12.63
5/18/2021 6:00:00 PM 18.53 65.354 0.392 8.16 1809 12.34
5/18/2021 6:15:00 PM 18.6 65.48 0.391 8.16 1784 12.01
5/18/2021 6:30:00 PM 18.65 65.57 0.391 8.16 1816 11.74
5/18/2021 6:45:00 PM 18.68 65.624 0.392 8.16 1744 11.4
5/18/2021 7:00:00 PM 18.71 65.67799 0.393 8.15 1752 11.04
5/18/2021 7:15:00 PM 18.72 65.696 0.393 8.14 1772 10.61
5/18/2021 7:30:00 PM 18.75 65.75 0.393 8.13 1741 10.3
5/18/2021 7:45:00 PM 18.75 65.75 0.395 8.12 1730 9.96
5/18/2021 8:00:00 PM 18.75 65.75 0.395 8.11 1738 9.62
5/18/2021 8:15:00 PM 18.73 65.714 0.396 8.09 1724 9.31
5/18/2021 8:30:00 PM 18.71 65.67799 0.397 8.07 1670 9.04
5/18/2021 8:45:00 PM 18.67 65.606 0.398 8.05 1630 8.78
5/18/2021 9:00:00 PM 18.61 65.498 0.398 8.03 1632 8.55
5/18/2021 9:15:00 PM 18.54 65.372 0.399 8.01 1613 8.32
5/18/2021 9:30:00 PM 18.47 65.246 0.4 7.99 1641 8.16
5/18/2021 9:45:00 PM 18.39 65.102 0.4 7.96 1699 8.03
5/18/2021 10:00:00 PM 18.3 64.94 0.401 7.94 1713 7.9
5/18/2021 10:15:00 PM 18.2 64.76 0.401 7.92 1741 7.79
5/18/2021 10:30:00 PM 18.09 64.562 0.402 7.9 1774 7.69
5/18/2021 10:45:00 PM 17.98 64.364 0.403 7.87 1787 7.56
5/18/2021 11:00:00 PM 17.87 64.166 0.404 7.85 1837 7.46
5/18/2021 11:15:00 PM 17.75 63.95 0.405 7.82 1803 7.4
5/18/2021 11:30:00 PM 17.64 63.752 0.405 7.8 1771 7.38
5/18/2021 11:45:00 PM 17.52 63.536 0.406 7.78 2324 7.29
5/19/2021 12:00:00 AM 17.4 63.32 0.407 7.76 2360 7.27
5/19/2021 12:15:00 AM 17.28 63.104 0.408 7.74 533.5 7.22
5/19/2021 12:30:00 AM 17.15 62.87 0.408 7.73 573.5 7.22
5/19/2021 12:45:00 AM 17.02 62.636 0.409 7.71 458.6 7.21
5/19/2021 1:00:00 AM 16.87 62.366 0.41 7.7 445.4 7.19
5/19/2021 1:15:00 AM 16.73 62.114 0.411 7.69 413.7 7.16
5/19/2021 1:30:00 AM 16.57 61.826 0.412 7.68 460 7.2
5/19/2021 1:45:00 AM 16.42 61.556 0.413 7.67 385.4 7.21
5/19/2021 2:00:00 AM 16.26 61.268 0.414 7.66 341.2 7.23
5/19/2021 2:15:00 AM 16.09 60.962 0.415 7.65 414.6 7.24
5/19/2021 2:30:00 AM 15.92 60.656 0.416 7.64 381.2 7.28
5/19/2021 2:45:00 AM 15.75 60.35 0.416 7.63 422 7.33
5/19/2021 3:00:00 AM 15.58 60.044 0.417 7.63 434 7.35
5/19/2021 3:15:00 AM 15.43 59.774 0.417 7.62 348.4 7.39
5/19/2021 3:30:00 AM 15.26 59.468 0.418 7.62 511.1 7.45
5/19/2021 3:45:00 AM 15.08 59.144 0.418 7.62 493.1 7.53
5/19/2021 4:00:00 AM 14.92 58.856 0.419 7.62 380 7.55
5/19/2021 4:15:00 AM 14.75 58.55 0.42 7.61 381.7 7.62
5/19/2021 4:30:00 AM 14.59 58.262 0.421 7.64 456.5 7.66
5/19/2021 4:45:00 AM 14.42 57.956 0.421 7.64 444.9 7.74
5/19/2021 5:00:00 AM 14.26 57.668 0.421 7.64 514.4 7.81
5/19/2021 5:15:00 AM 14.1 57.38 0.421 7.64 443 7.86
5/19/2021 5:30:00 AM 13.95 57.11 0.422 7.64 450.6 7.93
5/19/2021 5:45:00 AM 13.79 56.822 0.422 7.64 672 7.99
5/19/2021 6:00:00 AM 13.63 56.534 0.422 7.64 584.1 8.07
5/19/2021 6:15:00 AM 13.48 56.264 0.422 7.65 437.2 8.11
5/19/2021 6:30:00 AM 13.33 55.994 0.422 7.65 653.8 8.27
5/19/2021 6:45:00 AM 13.2 55.76 0.422 7.64 465.7 8.4
5/19/2021 7:00:00 AM 13.08 55.544 0.422 7.66 588.4 8.53
5/19/2021 7:15:00 AM 12.97 55.346 0.422 7.66 424.3 8.7
5/19/2021 7:30:00 AM 12.88 55.184 0.422 7.67 416 8.86
5/19/2021 7:45:00 AM 12.8 55.04 0.422 7.68 449.1 9.05
5/19/2021 8:00:00 AM 12.73 54.914 0.421 7.68 500.8 9.26
5/19/2021 8:15:00 AM 12.69 54.842 0.421 7.69 470.5 9.5
5/19/2021 8:30:00 AM 12.67 54.806 0.42 7.71 502.2 9.75
5/19/2021 8:45:00 AM 12.66 54.788 0.42 7.72 555.7 9.98
5/19/2021 9:00:00 AM 12.68 54.824 0.42 7.73 506.5 10.24
5/19/2021 9:15:00 AM 12.71 54.878 0.42 7.75 459.8 10.5
5/19/2021 9:30:00 AM 12.77 54.986 0.42 7.75 567 10.77
5/19/2021 9:45:00 AM 12.83 55.094 0.42 7.77 477.8 11.04
5/19/2021 10:00:00 AM 12.93 55.274 0.419 7.78 539.5 11.3
5/19/2021 10:15:00 AM 13.06 55.508 0.419 7.8 437.4 11.53
5/19/2021 10:30:00 AM 13.2 55.76 0.418 7.82 462.8 11.81
5/19/2021 10:45:00 AM 13.37 56.066 0.418 7.84 442.1 12.08
5/19/2021 11:00:00 AM 13.54 56.372 0.417 7.85 465.1 12.26
5/19/2021 11:15:00 AM 13.74 56.732 0.417 7.87 453.8 12.49
5/19/2021 11:30:00 AM 13.96 57.128 0.416 7.89 540.5 12.65
5/19/2021 11:45:00 AM 14.18 57.524 0.416 7.91 442.1 12.86
5/19/2021 12:00:00 PM 14.43 57.974 0.415 7.93 553.3 13.05
5/19/2021 12:15:00 PM 14.68 58.424 0.415 7.95 491.1 13.16
5/19/2021 12:30:00 PM 14.93 58.874 0.415 7.98 573.1 13.36
5/19/2021 12:45:00 PM 15.18 59.324 0.415 8 487 13.47
5/19/2021 1:00:00 PM 15.46 59.828 0.411 8.03 520.8 13.63
5/19/2021 1:15:00 PM 15.72 60.296 0.41 8.05 504 13.75
5/19/2021 1:30:00 PM 15.98 60.764 0.408 8.07 637.1 13.82
5/19/2021 1:45:00 PM 16.24 61.232 0.409 8.09 647.3 13.87
5/19/2021 2:00:00 PM 16.51 61.718 0.403 8.1 442.8 13.95
5/19/2021 2:15:00 PM 16.77 62.186 0.407 8.14 569.8 14.01
5/19/2021 2:30:00 PM 17.01 62.618 0.406 8.15 463.4 14.05
5/19/2021 2:45:00 PM 17.25 63.05 0.406 8.18 651 14.03
5/19/2021 3:00:00 PM 17.46 63.428 0.403 8.22 592.5 14.07
5/19/2021 3:15:00 PM 17.68 63.824 0.403 8.26 683.9 13.99
5/19/2021 3:30:00 PM 17.88 64.184 0.403 8.28 617.8 13.93
5/19/2021 3:45:00 PM 18.09 64.562 0.403 8.29 573.2 13.91
5/19/2021 4:00:00 PM 18.26 64.868 0.399 8.32 455.2 13.83
5/19/2021 4:15:00 PM 18.43 65.174 0.398 8.33 605 13.69
5/19/2021 4:30:00 PM 18.55 65.39 0.402 8.37 611.7 13.54
5/19/2021 4:45:00 PM 18.69 65.642 0.4 8.38 583.7 13.46
5/19/2021 5:00:00 PM 18.82 65.876 0.399 8.41 581.9 13.25
5/19/2021 5:15:00 PM 18.93 66.074 0.401 8.43 572.8 13.05
5/19/2021 5:30:00 PM 19.04 66.272 0.404 8.47 523.5 12.83
5/19/2021 5:45:00 PM 19.13 66.434 0.401 8.48 529.2 12.58
5/19/2021 6:00:00 PM 19.21 66.578 0.401 8.49 522.2 12.29
5/19/2021 6:15:00 PM 19.31 66.758 0.402 8.5 480.7 12.06
5/19/2021 6:30:00 PM 19.4 66.92 0.399 8.49 537.3 11.88
5/19/2021 6:45:00 PM 19.48 67.064 0.401 8.48 603.2 11.66
5/19/2021 7:00:00 PM 19.56 67.208 0.4 8.47 554.4 11.36
5/19/2021 7:15:00 PM 19.61 67.298 0.398 8.45 655.3 10.96
5/19/2021 7:30:00 PM 19.61 67.298 0.4 8.42 667.7 10.51
5/19/2021 7:45:00 PM 19.61 67.298 0.401 8.39 714.9 10.03
5/19/2021 8:00:00 PM 19.6 67.28 0.403 8.35 788.3 9.61
5/19/2021 8:15:00 PM 19.58 67.244 0.406 8.31 621.6 9.24
5/19/2021 8:30:00 PM 19.55 67.19 0.407 8.27 700.8 8.92
5/19/2021 8:45:00 PM 19.51 67.118 0.408 8.23 678 8.66
5/19/2021 9:00:00 PM 19.46 67.028 0.41 8.19 669.4 8.4
5/19/2021 9:15:00 PM 19.41 66.938 0.411 8.15 694.4 8.17
5/19/2021 9:30:00 PM 19.34 66.812 0.412 8.11 682.2 7.98
5/19/2021 9:45:00 PM 19.26 66.668 0.412 8.07 781.1 7.77
5/19/2021 10:00:00 PM 19.18 66.524 0.412 8.03 715.6 7.61
5/19/2021 10:15:00 PM 19.08 66.344 0.412 7.99 671 7.48
5/19/2021 10:30:00 PM 18.98 66.164 0.412 7.96 722.2 7.38
5/19/2021 10:45:00 PM 18.87 65.966 0.412 7.93 698.8 7.28
5/19/2021 11:00:00 PM 18.76 65.768 0.413 7.9 719.7 7.19
5/19/2021 11:15:00 PM 18.64 65.552 0.413 7.88 661.2 7.14
5/19/2021 11:30:00 PM 18.53 65.354 0.414 7.85 722.8 7.05
5/19/2021 11:45:00 PM 18.41 65.138 0.415 7.82 724.7 7
5/20/2021 12:00:00 AM 18.3 64.94 0.416 7.8 707.7 6.92
5/20/2021 12:15:00 AM 18.18 64.724 0.416 7.79 772.9 6.89
5/20/2021 12:30:00 AM 18.06 64.508 0.417 7.77 751.8 6.84
5/20/2021 12:45:00 AM 17.93 64.274 0.417 7.76 816.1 6.83
5/20/2021 1:00:00 AM 17.79 64.022 0.418 7.74 778.3 6.79
5/20/2021 1:15:00 AM 17.66 63.788 0.419 7.73 867 6.78
5/20/2021 1:30:00 AM 17.52 63.536 0.42 7.71 886.1 6.75
5/20/2021 1:45:00 AM 17.37 63.266 0.421 7.7 804.9 6.78
5/20/2021 2:00:00 AM 17.21 62.978 0.422 7.69 859.3 6.78
5/20/2021 2:15:00 AM 17.05 62.69 0.423 7.68 911.9 6.8
5/20/2021 2:30:00 AM 16.9 62.42 0.423 7.67 902.6 6.83
5/20/2021 2:45:00 AM 16.73 62.114 0.424 7.67 857.6 6.86
5/20/2021 3:00:00 AM 16.57 61.826 0.425 7.66 915 6.91
5/20/2021 3:15:00 AM 16.4 61.52 0.426 7.66 925 6.94
5/20/2021 3:30:00 AM 16.24 61.232 0.427 7.66 1022 6.97
5/20/2021 3:45:00 AM 16.08 60.944 0.428 7.65 1066 7.02
5/20/2021 4:00:00 AM 15.91 60.638 0.428 7.65 1027 7.07
5/20/2021 4:15:00 AM 15.75 60.35 0.429 7.65 1064 7.15
5/20/2021 4:30:00 AM 15.59 60.062 0.429 7.65 1024 7.19
5/20/2021 4:45:00 AM 15.43 59.774 0.43 7.65 1142 7.26
5/20/2021 5:00:00 AM 15.27 59.486 0.43 7.65 1127 7.32
5/20/2021 5:15:00 AM 15.11 59.198 0.431 7.65 1104 7.37
5/20/2021 5:30:00 AM 14.95 58.91 0.431 7.65 1145 7.44
5/20/2021 5:45:00 AM 14.8 58.64 0.431 7.65 1269 7.51
5/20/2021 6:00:00 AM 14.65 58.37 0.431 7.65 1287 7.56
5/20/2021 6:15:00 AM 14.51 58.118 0.429 7.65 1310 7.66
5/20/2021 6:30:00 AM 14.38 57.884 0.43 7.66 1174 7.78
5/20/2021 6:45:00 AM 14.25 57.65 0.429 7.66 1355 7.94
5/20/2021 7:00:00 AM 14.14 57.452 0.431 7.67 1372 8.09
5/20/2021 7:15:00 AM 14.04 57.272 0.431 7.69 1247 8.3
5/20/2021 7:30:00 AM 13.96 57.128 0.43 7.7 1306 8.55
5/20/2021 7:45:00 AM 13.88 56.984 0.43 7.71 1406 8.77
5/20/2021 8:00:00 AM 13.82 56.876 0.441 7.72 1420 8.9
5/20/2021 8:15:00 AM 13.79 56.822 0.433 7.73 1364 9.16
5/20/2021 8:30:00 AM 13.79 56.822 0.431 7.75 1374 9.44
5/20/2021 8:45:00 AM 13.78 56.804 0.429 7.77 1361 9.76
5/20/2021 9:00:00 AM 13.79 56.822 0.436 7.79 1341 9.98
5/20/2021 9:15:00 AM 13.8 56.84 0.431 7.81 1372 10.21
5/20/2021 9:30:00 AM 13.81 56.858 0.435 7.82 1535 10.45
5/20/2021 9:45:00 AM 13.88 56.984 0.43 7.85 1540 10.79
5/20/2021 10:00:00 AM 13.97 57.146 0.428 7.88 1531 11.11
5/20/2021 10:15:00 AM 14.06 57.308 0.429 7.91 1407 11.38
5/20/2021 10:30:00 AM 14.19 57.542 0.428 7.94 1313 11.65
5/20/2021 10:45:00 AM 14.34 57.812 0.428 7.97 1418 11.88
5/20/2021 11:00:00 AM 14.49 58.082 0.428 7.99 1419 12.11
5/20/2021 11:15:00 AM 14.67 58.406 0.427 8.03 1534 12.33
5/20/2021 11:30:00 AM 14.87 58.766 0.427 8.05 1369 12.53
5/20/2021 11:45:00 AM 15.08 59.144 0.426 8.08 1196 12.68
5/20/2021 12:00:00 PM 15.3 59.54 0.425 8.11 1358 12.89
5/20/2021 12:15:00 PM 15.55 59.99 0.424 8.14 1266 13.06
5/20/2021 12:30:00 PM 15.8 60.44 0.424 8.18 1410 13.21
5/20/2021 12:45:00 PM 16.06 60.908 0.423 8.21 1541 13.38
5/20/2021 1:00:00 PM 16.32 61.376 0.419 8.24 1375 13.55
5/20/2021 1:15:00 PM 16.58 61.844 0.419 8.27 1286 13.64
5/20/2021 1:30:00 PM 16.84 62.312 0.414 8.3 1272 13.75
5/20/2021 1:45:00 PM 17.11 62.798 0.407 8.33 1334 13.87
5/20/2021 2:00:00 PM 17.35 63.23 0.416 8.35 1474 13.89
5/20/2021 2:15:00 PM 17.6 63.68 0.415 8.38 1481 13.97
5/20/2021 2:30:00 PM 17.86 64.148 0.414 8.41 1213 14.03
5/20/2021 2:45:00 PM 18.09 64.562 0.415 8.43 1743 14.05
5/20/2021 3:00:00 PM 18.31 64.958 0.413 8.45 2166 14.02
5/20/2021 3:15:00 PM 18.44 65.192 0.415 8.45 1505 13.86
5/20/2021 3:30:00 PM 18.53 65.354 0.412 8.46 1381 13.66
5/20/2021 3:45:00 PM 18.59 65.462 0.411 8.45 1308 13.43
5/20/2021 4:00:00 PM 18.59 65.462 0.407 8.45 1404 13.09
5/20/2021 4:15:00 PM 18.79 65.82201 0.412 8.46 1295 13.13
5/20/2021 4:30:00 PM 18.9 66.02 0.405 8.46 1200 12.97
5/20/2021 4:45:00 PM 19.06 66.308 0.397 8.47 1219 12.97
5/20/2021 5:00:00 PM 19.25 66.65 0.412 8.49 1205 12.99
5/20/2021 5:15:00 PM 19.42 66.956 0.412 8.49 1285 12.85
5/20/2021 5:30:00 PM 19.56 67.208 0.393 8.49 1139 12.73
5/20/2021 5:45:00 PM 19.71 67.478 0.409 8.5 1245 12.57
5/20/2021 6:00:00 PM 19.85 67.73 0.41 8.5 1279 12.4
5/20/2021 6:15:00 PM 19.95 67.91 0.408 8.49 1155 12.14
5/20/2021 6:30:00 PM 20.03 68.054 0.409 8.49 1194 11.89
5/20/2021 6:45:00 PM 20.13 68.234 0.409 8.48 1090 11.61
5/20/2021 7:00:00 PM 20.19 68.342 0.409 8.46 1118 11.23
5/20/2021 7:15:00 PM 20.21 68.378 0.41 8.44 1124 10.8
5/20/2021 7:30:00 PM 20.25 68.45 0.39 8.42 1229 10.37
5/20/2021 7:45:00 PM 20.26 68.468 0.41 8.39 1159 9.95
5/20/2021 8:00:00 PM 20.27 68.486 0.411 8.35 1237 9.53
5/20/2021 8:15:00 PM 20.27 68.486 0.412 8.31 1171 9.16
5/20/2021 8:30:00 PM 20.26 68.468 0.413 8.27 1209 8.82
5/20/2021 8:45:00 PM 20.24 68.432 0.413 8.23 1226 8.49
5/20/2021 9:00:00 PM 20.22 68.396 0.408 8.19 1237 8.2
5/20/2021 9:15:00 PM 20.19 68.342 0.414 8.15 1273 7.96
5/20/2021 9:30:00 PM 20.16 68.288 0.415 8.11 1209 7.74
5/20/2021 9:45:00 PM 20.11 68.198 0.416 8.07 1269 7.55
5/20/2021 10:00:00 PM 20.07 68.126 0.417 8.03 1269 7.38
5/20/2021 10:15:00 PM 19.99 67.982 0.417 7.99 1187 7.23
5/20/2021 10:30:00 PM 19.92 67.856 0.418 7.96 1215 7.09
5/20/2021 10:45:00 PM 19.83 67.694 0.419 7.92 1356 6.97
5/20/2021 11:00:00 PM 19.74 67.532 0.42 7.89 1395 6.87
5/20/2021 11:15:00 PM 19.64 67.352 0.42 7.86 1409 6.77
5/20/2021 11:30:00 PM 19.53 67.154 0.421 7.83 1395 6.7
5/20/2021 11:45:00 PM 19.43 66.974 0.421 7.81 1371 6.61
5/21/2021 12:00:00 AM 19.32 66.776 0.423 7.79 1368 6.57
5/21/2021 12:15:00 AM 19.21 66.578 0.424 7.77 1427 6.51
5/21/2021 12:30:00 AM 19.09 66.362 0.426 7.75 1439 6.47
5/21/2021 12:45:00 AM 18.98 66.164 0.427 7.73 1548 6.44
5/21/2021 1:00:00 AM 18.85 65.93 0.427 7.72 1626 6.39
5/21/2021 1:15:00 AM 18.72 65.696 0.428 7.7 1633 6.37
5/21/2021 1:30:00 AM 18.58 65.444 0.429 7.68 1632 6.37
5/21/2021 1:45:00 AM 18.45 65.21 0.431 7.67 1594 6.37
5/21/2021 2:00:00 AM 18.3 64.94 0.431 7.67 1563 6.39
5/21/2021 2:15:00 AM 18.15 64.67 0.434 7.66 1630 6.39
5/21/2021 2:30:00 AM 18.01 64.418 0.435 7.66 1606 6.41
5/21/2021 2:45:00 AM 17.85 64.13 0.437 7.65 1731 6.43
5/21/2021 3:00:00 AM 17.69 63.842 0.438 7.64 1669 6.48
5/21/2021 3:15:00 AM 17.53 63.554 0.439 7.64 1847 6.5
5/21/2021 3:30:00 AM 17.37 63.266 0.441 7.64 2081 6.53
5/21/2021 3:45:00 AM 17.21 62.978 0.442 7.64 1769 6.59
5/21/2021 4:00:00 AM 17.04 62.672 0.442 7.63 1721 6.64
5/21/2021 4:15:00 AM 16.89 62.402 0.442 7.63 1644 6.71
5/21/2021 4:30:00 AM 16.73 62.114 0.443 7.63 1644 6.74
5/21/2021 4:45:00 AM 16.57 61.826 0.442 7.63 1581 6.78
5/21/2021 5:00:00 AM 16.41 61.538 0.443 7.63 1687 6.85
5/21/2021 5:15:00 AM 16.25 61.25 0.443 7.63 1776 6.88
5/21/2021 5:30:00 AM 16.1 60.98 0.443 7.63 1875 6.96
5/21/2021 5:45:00 AM 15.94 60.692 0.444 7.63 1538 7.02
5/21/2021 6:00:00 AM 15.78 60.404 0.444 7.63 1601 7.1
5/21/2021 6:15:00 AM 15.63 60.134 0.444 7.63 1569 7.19
5/21/2021 6:30:00 AM 15.49 59.882 0.444 7.64 1652 7.28
5/21/2021 6:45:00 AM 15.35 59.63 0.444 7.64 1675 7.42
5/21/2021 7:00:00 AM 15.23 59.414 0.444 7.65 1662 7.57
5/21/2021 7:15:00 AM 15.13 59.234 0.444 7.66 1739 7.74
5/21/2021 7:30:00 AM 15.03 59.054 0.441 7.66 1720 7.92
5/21/2021 7:45:00 AM 14.95 58.91 0.443 7.67 1724 8.11
5/21/2021 8:00:00 AM 14.88 58.784 0.441 7.69 1437 8.29
5/21/2021 8:15:00 AM 14.83 58.694 0.443 7.7 1574 8.53
5/21/2021 8:30:00 AM 14.8 58.64 0.443 7.72 1544 8.76
5/21/2021 8:45:00 AM 14.78 58.604 0.443 7.73 1624 9.02
5/21/2021 9:00:00 AM 14.78 58.604 0.443 7.75 1614 9.27
5/21/2021 9:15:00 AM 14.79 58.622 0.442 7.77 1458 9.55
5/21/2021 9:30:00 AM 14.82 58.676 0.442 7.79 1540 9.82
5/21/2021 9:45:00 AM 14.87 58.766 0.442 7.81 1528 10.07
5/21/2021 10:00:00 AM 14.95 58.91 0.442 7.83 1488 10.38
5/21/2021 10:15:00 AM 15.05 59.09 0.442 7.86 1413 10.65
5/21/2021 10:30:00 AM 15.17 59.306 0.442 7.88 1558 10.96
5/21/2021 10:45:00 AM 15.31 59.558 0.441 7.91 1420 11.24
5/21/2021 11:00:00 AM 15.46 59.828 0.44 7.94 1493 11.52
5/21/2021 11:15:00 AM 15.63 60.134 0.439 7.96 1572 11.75
5/21/2021 11:30:00 AM 15.82 60.476 0.439 8 1567 12.01
5/21/2021 11:45:00 AM 16.02 60.836 0.438 8.02 1654 12.18
5/21/2021 12:00:00 PM 16.23 61.214 0.438 8.05 1689 12.4
5/21/2021 12:15:00 PM 16.46 61.628 0.437 8.08 1525 12.6
5/21/2021 12:30:00 PM 16.7 62.06 0.437 8.11 1679 12.79
5/21/2021 12:45:00 PM 16.93 62.474 0.436 8.14 1634 12.94
5/21/2021 1:00:00 PM 17.18 62.924 0.434 8.17 1480 13.14
5/21/2021 1:15:00 PM 17.42 63.356 0.433 8.2 1499 13.3
5/21/2021 1:30:00 PM 17.66 63.788 0.433 8.24 1495 13.44
5/21/2021 1:45:00 PM 17.92 64.256 0.432 8.27 1552 13.55
5/21/2021 2:00:00 PM 18.14 64.652 0.431 8.3 1504 13.58
5/21/2021 2:15:00 PM 18.36 65.048 0.43 8.32 1575 13.65
5/21/2021 2:30:00 PM 18.55 65.39 0.43 8.34 1603 13.71
5/21/2021 2:45:00 PM 18.75 65.75 0.43 8.36 1706 13.78
5/21/2021 3:00:00 PM 18.94 66.092 0.429 8.38 1691 13.74
5/21/2021 3:15:00 PM 19.11 66.398 0.427 8.4 1661 13.78
5/21/2021 3:30:00 PM 19.29 66.722 0.427 8.42 1914 13.7
5/21/2021 3:45:00 PM 19.46 67.028 0.428 8.42 2126 13.66
5/21/2021 4:00:00 PM 19.61 67.298 0.425 8.43 1754 13.52
5/21/2021 4:15:00 PM 19.76 67.568 0.425 8.44 1687 13.45
5/21/2021 4:30:00 PM 19.87 67.766 0.424 8.46 1789 13.32
5/21/2021 4:45:00 PM 19.98 67.964 0.423 8.45 1792 13.16
5/21/2021 5:00:00 PM 20.04 68.07201 0.422 8.46 1704 12.92
5/21/2021 5:15:00 PM 20.14 68.252 0.421 8.46 1555 12.76
5/21/2021 5:30:00 PM 20.22 68.396 0.421 8.46 1469 12.55
5/21/2021 5:45:00 PM 20.28 68.504 0.42 8.46 1577 12.36
5/21/2021 6:00:00 PM 20.34 68.612 0.419 8.46 1564 12.12
5/21/2021 6:15:00 PM 20.38 68.684 0.42 8.45 1598 11.86
5/21/2021 6:30:00 PM 20.43 68.774 0.419 8.44 1627 11.47
5/21/2021 6:45:00 PM 20.46 68.828 0.419 8.42 1657 11.12
5/21/2021 7:00:00 PM 20.48 68.864 0.42 8.4 1718 10.76
5/21/2021 7:15:00 PM 20.5 68.9 0.42 8.38 1624 10.37
5/21/2021 7:30:00 PM 20.5 68.9 0.42 8.35 1652 9.95
5/21/2021 7:45:00 PM 20.49 68.882 0.421 8.32 1660 9.53
5/21/2021 8:00:00 PM 20.49 68.882 0.421 8.29 1592 9.16
5/21/2021 8:15:00 PM 20.48 68.864 0.421 8.25 1589 8.83
5/21/2021 8:30:00 PM 20.47 68.846 0.421 8.21 1664 8.5
5/21/2021 8:45:00 PM 20.45 68.81 0.421 8.17 1742 8.24
5/21/2021 9:00:00 PM 20.42 68.756 0.422 8.13 1662 8.01
5/21/2021 9:15:00 PM 20.39 68.702 0.422 8.1 1703 7.78
5/21/2021 9:30:00 PM 20.35 68.63 0.423 8.05 1500 7.56
5/21/2021 9:45:00 PM 20.3 68.54 0.423 8.02 1648 7.35
5/21/2021 10:00:00 PM 20.25 68.45 0.424 7.98 1584 7.19
5/21/2021 10:15:00 PM 20.19 68.342 0.424 7.94 1586 7.05
5/21/2021 10:30:00 PM 20.11 68.198 0.424 7.91 1577 6.93
5/21/2021 10:45:00 PM 20.03 68.054 0.425 7.87 1597 6.84
5/21/2021 11:00:00 PM 19.94 67.892 0.425 7.84 1536 6.71
5/21/2021 11:15:00 PM 19.85 67.73 0.426 7.82 1544 6.64
5/21/2021 11:30:00 PM 19.74 67.532 0.427 7.79 1570 6.55
5/21/2021 11:45:00 PM 19.64 67.352 0.427 7.77 1591 6.49
5/22/2021 12:00:00 AM 19.53 67.154 0.428 7.75 1607 6.45
5/22/2021 12:15:00 AM 19.43 66.974 0.429 7.73 1579 6.4
5/22/2021 12:30:00 AM 19.32 66.776 0.43 7.71 1586 6.33
5/22/2021 12:45:00 AM 19.21 66.578 0.43 7.7 1602 6.33
5/22/2021 1:00:00 AM 19.09 66.362 0.432 7.68 1646 6.28
5/22/2021 1:15:00 AM 18.98 66.164 0.43 7.67 1665 6.28
5/22/2021 1:30:00 AM 18.85 65.93 0.434 7.66 1743 6.24
5/22/2021 1:45:00 AM 18.73 65.714 0.433 7.64 1728 6.23
5/22/2021 2:00:00 AM 18.61 65.498 0.427 7.63 1766 6.23
5/22/2021 2:15:00 AM 18.48 65.264 0.439 7.62 1820 6.24
5/22/2021 2:30:00 AM 18.34 65.012 0.444 7.62 1810 6.25
5/22/2021 2:45:00 AM 18.21 64.778 0.445 7.61 1754 6.27
5/22/2021 3:00:00 AM 18.08 64.544 0.446 7.6 1757 6.28
5/22/2021 3:15:00 AM 17.94 64.292 0.446 7.6 1646 6.3
5/22/2021 3:30:00 AM 17.8 64.04 0.446 7.59 1673 6.3
5/22/2021 3:45:00 AM 17.67 63.806 0.447 7.59 1695 6.35
5/22/2021 4:00:00 AM 17.53 63.554 0.447 7.59 1706 6.39
5/22/2021 4:15:00 AM 17.39 63.302 0.448 7.59 1694 6.44
5/22/2021 4:30:00 AM 17.26 63.068 0.448 7.56 1715 6.49
5/22/2021 4:45:00 AM 17.13 62.834 0.449 7.56 1732 6.54
5/22/2021 5:00:00 AM 16.99 62.582 0.45 7.56 1720 6.59
5/22/2021 5:15:00 AM 16.85 62.33 0.45 7.56 1727 6.64
5/22/2021 5:30:00 AM 16.71 62.078 0.451 7.56 1780 6.68
5/22/2021 5:45:00 AM 16.58 61.844 0.451 7.57 1749 6.74
5/22/2021 6:00:00 AM 16.44 61.592 0.449 7.57 1760 6.8
5/22/2021 6:15:00 AM 16.31 61.358 0.442 7.57 1751 6.88
5/22/2021 6:30:00 AM 16.19 61.142 0.452 7.58 1752 7
5/22/2021 6:45:00 AM 16.08 60.944 0.453 7.58 1738 7.11
5/22/2021 7:00:00 AM 15.98 60.764 0.453 7.6 1762 7.29
5/22/2021 7:15:00 AM 15.89 60.602 0.453 7.61 1738 7.47
5/22/2021 7:30:00 AM 15.82 60.476 0.453 7.63 1685 7.68
5/22/2021 7:45:00 AM 15.74 60.332 0.454 7.64 1764 7.85
5/22/2021 8:00:00 AM 15.69 60.242 0.454 7.63 1814 8.09
5/22/2021 8:15:00 AM 15.65 60.17 0.454 7.66 1774 8.36
5/22/2021 8:30:00 AM 15.61 60.098 0.453 7.68 1816 8.64
5/22/2021 8:45:00 AM 15.59 60.062 0.454 7.7 1873 8.9
5/22/2021 9:00:00 AM 15.54 59.972 0.453 7.71 1895 9.08
5/22/2021 9:15:00 AM 15.51 59.918 0.453 7.73 1944 9.27
5/22/2021 9:30:00 AM 15.51 59.918 0.452 7.75 1903 9.54
5/22/2021 9:45:00 AM 15.54 59.972 0.453 7.77 1916 9.87
5/22/2021 10:00:00 AM 15.59 60.062 0.453 7.79 1922 10.19
5/22/2021 10:15:00 AM 15.65 60.17 0.452 7.82 1918 10.47
5/22/2021 10:30:00 AM 15.66 60.188 0.452 7.84 1954 10.71
5/22/2021 10:45:00 AM 15.74 60.332 0.452 7.87 1956 11
5/22/2021 11:00:00 AM 15.8 60.44 0.452 7.89 1975 11.22
5/22/2021 11:15:00 AM 15.87 60.566 0.451 7.92 1974 11.5
5/22/2021 11:30:00 AM 15.91 60.638 0.451 7.94 1966 11.62
5/22/2021 11:45:00 AM 15.98 60.764 0.45 7.96 2014 11.78
5/22/2021 12:00:00 PM 16.02 60.836 0.447 7.98 2007 11.91
5/22/2021 12:15:00 PM 16.05 60.89 0.442 8 2000 11.95
5/22/2021 12:30:00 PM 16.21 61.178 0.448 8.02 1999 12.23
5/22/2021 12:45:00 PM 16.41 61.538 0.447 8.05 1937 12.49
5/22/2021 1:00:00 PM 16.62 61.916 0.445 8.09 1974 12.69
5/22/2021 1:15:00 PM 16.74 62.132 0.446 8.12 1981 12.78
5/22/2021 1:30:00 PM 16.81 62.258 0.446 8.14 1998 12.83
5/22/2021 1:45:00 PM 16.93 62.474 0.445 8.16 1984 12.89
5/22/2021 2:00:00 PM 17.05 62.69 0.444 8.18 2002 13.01
5/22/2021 2:15:00 PM 17.22 62.996 0.436 8.21 2015 13.09
5/22/2021 2:30:00 PM 17.39 63.302 0.441 8.23 2010 13.25
5/22/2021 2:45:00 PM 17.58 63.644 0.429 8.26 1906 13.38
5/22/2021 3:00:00 PM 17.74 63.932 0.439 8.28 1878 13.45
5/22/2021 3:15:00 PM 17.82 64.076 0.439 8.3 1880 13.32
5/22/2021 3:30:00 PM 17.88 64.184 0.435 8.31 1859 13.18
5/22/2021 3:45:00 PM 17.91 64.238 0.428 8.32 1891 12.99
5/22/2021 4:00:00 PM 18.01 64.418 0.437 8.33 1926 13.01
5/22/2021 4:15:00 PM 18.14 64.652 0.436 8.35 1928 12.97
5/22/2021 4:30:00 PM 18.24 64.832 0.437 8.36 2178 12.93
5/22/2021 4:45:00 PM 18.32 64.976 0.435 8.37 2250 12.88
5/22/2021 5:00:00 PM 18.36 65.048 0.435 8.38 2367 12.67
5/22/2021 5:15:00 PM 18.37 65.066 0.435 8.38 2439 12.37
5/22/2021 5:30:00 PM 18.38 65.084 0.435 8.37 2556 12.12
5/22/2021 5:45:00 PM 18.39 65.102 0.436 8.36 2598 11.83
5/22/2021 6:00:00 PM 18.39 65.102 0.436 8.35 2652 11.45
5/22/2021 6:15:00 PM 18.4 65.12 0.436 8.33 2603 11.2
5/22/2021 6:30:00 PM 18.41 65.138 0.435 8.31 2535 10.93
5/22/2021 6:45:00 PM 18.44 65.192 0.435 8.3 2624 10.76
5/22/2021 7:00:00 PM 18.45 65.21 0.435 8.3 2577 10.57
5/22/2021 7:15:00 PM 18.47 65.246 0.435 8.28 2565 10.33
5/22/2021 7:30:00 PM 18.48 65.264 0.436 8.27 2527 10.12
5/22/2021 7:45:00 PM 18.48 65.264 0.436 8.25 2475 9.79
5/22/2021 8:00:00 PM 18.47 65.246 0.436 8.22 2434 9.5
5/22/2021 8:15:00 PM 18.46 65.228 0.436 8.19 2355 9.19
5/22/2021 8:30:00 PM 18.45 65.21 0.436 8.15 2294 8.9
5/22/2021 8:45:00 PM 18.44 65.192 0.436 8.12 2259 8.63
5/22/2021 9:00:00 PM 18.43 65.174 0.436 8.09 2228 8.41
5/22/2021 9:15:00 PM 18.42 65.156 0.436 8.06 2185 8.23
5/22/2021 9:30:00 PM 18.41 65.138 0.436 8.02 2183 8.03
5/22/2021 9:45:00 PM 18.4 65.12 0.436 8 2152 7.86
5/22/2021 10:00:00 PM 18.38 65.084 0.437 7.97 2229 7.71
5/22/2021 10:15:00 PM 18.35 65.03 0.436 7.94 2255 7.58
5/22/2021 10:30:00 PM 18.31 64.958 0.437 7.91 2234 7.44
5/22/2021 10:45:00 PM 18.27 64.886 0.437 7.88 2229 7.31
5/22/2021 11:00:00 PM 18.23 64.814 0.437 7.86 2207 7.24
5/22/2021 11:15:00 PM 18.19 64.742 0.437 7.83 2170 7.13
5/22/2021 11:30:00 PM 18.14 64.652 0.438 7.81 2170 7.05
5/22/2021 11:45:00 PM 18.1 64.58 0.438 7.8 2203 6.97
5/23/2021 12:00:00 AM 18.05 64.49 0.439 7.78 2158 6.92
5/23/2021 12:15:00 AM 18 64.4 0.439 7.76 2115 6.88
5/23/2021 12:30:00 AM 17.96 64.328 0.44 7.74 2120 6.83
5/23/2021 12:45:00 AM 17.9 64.22 0.441 7.73 2117 6.75
5/23/2021 1:00:00 AM 17.84 64.112 0.438 7.72 2122 6.71
5/23/2021 1:15:00 AM 17.78 64.004 0.443 7.71 2120 6.69
5/23/2021 1:30:00 AM 17.73 63.914 0.444 7.7 2126 6.65
5/23/2021 1:45:00 AM 17.68 63.824 0.445 7.69 2147 6.61
5/23/2021 2:00:00 AM 17.62 63.716 0.447 7.67 2149 6.61
5/23/2021 2:15:00 AM 17.56 63.608 0.448 7.66 2447 6.59
5/23/2021 2:30:00 AM 17.5 63.5 0.45 7.66 2405 6.58
5/23/2021 2:45:00 AM 17.43 63.374 0.451 7.65 2386 6.58
5/23/2021 3:00:00 AM 17.36 63.248 0.453 7.65 2277 6.6
5/23/2021 3:15:00 AM 17.29 63.122 0.455 7.64 2252 6.6
5/23/2021 3:30:00 AM 17.21 62.978 0.457 7.64 2279 6.64
5/23/2021 3:45:00 AM 17.13 62.834 0.458 7.64 2290 6.61
5/23/2021 4:00:00 AM 17.04 62.672 0.459 7.63 2282 6.64
5/23/2021 4:15:00 AM 16.96 62.528 0.459 7.63 2334 6.66
5/23/2021 4:30:00 AM 16.88 62.384 0.459 7.63 2326 6.66
5/23/2021 4:45:00 AM 16.81 62.258 0.46 7.63 2348 6.71
5/23/2021 5:00:00 AM 16.72 62.096 0.46 7.63 2280 6.73
5/23/2021 5:15:00 AM 16.64 61.952 0.46 7.63 2326 6.76
5/23/2021 5:30:00 AM 16.56 61.808 0.46 7.63 2353 6.79
5/23/2021 5:45:00 AM 16.48 61.664 0.461 7.63 2349 6.81
5/23/2021 6:00:00 AM 16.4 61.52 0.461 7.63 2372 6.84
5/23/2021 6:15:00 AM 16.32 61.376 0.461 7.63 2461 6.88
5/23/2021 6:30:00 AM 16.25 61.25 0.462 7.63 2478 6.98
5/23/2021 6:45:00 AM 16.19 61.142 0.461 7.63 2453 7.05
5/23/2021 7:00:00 AM 16.14 61.052 0.462 7.64 2361 7.13
5/23/2021 7:15:00 AM 16.09 60.962 0.462 7.65 2360 7.29
5/23/2021 7:30:00 AM 16.06 60.908 0.462 7.65 2373 7.39
5/23/2021 7:45:00 AM 16.01 60.818 0.462 7.66 2373 7.52
5/23/2021 8:00:00 AM 16.01 60.818 0.462 7.67 2357 7.74
5/23/2021 8:15:00 AM 16 60.8 0.462 7.68 2413 7.9
5/23/2021 8:30:00 AM 16 60.8 0.462 7.69 2388 8.09
5/23/2021 8:45:00 AM 16.03 60.854 0.462 7.71 2422 8.31
5/23/2021 9:00:00 AM 16.07 60.926 0.462 7.72 2432 8.52
5/23/2021 9:15:00 AM 16.12 61.016 0.461 7.73 2424 8.72
5/23/2021 9:30:00 AM 16.2 61.16 0.461 7.74 2454 8.95
5/23/2021 9:45:00 AM 16.29 61.322 0.461 7.76 2485 9.15
5/23/2021 10:00:00 AM 16.39 61.502 0.461 7.78 2583 9.42
5/23/2021 10:15:00 AM 16.53 61.754 0.46 7.8 2688 9.7
5/23/2021 10:30:00 AM 16.7 62.06 0.46 7.83 2756 10.01
5/23/2021 10:45:00 AM 16.88 62.384 0.46 7.84 2699 10.21
5/23/2021 11:00:00 AM 17.06 62.708 0.459 7.87 2772 10.49
5/23/2021 11:15:00 AM 17.22 62.996 0.458 7.89 2565 10.69
5/23/2021 11:30:00 AM 17.32 63.176 0.459 7.91 2557 10.76
5/23/2021 11:45:00 AM 17.5 63.5 0.459 7.93 2522 10.94
5/23/2021 12:00:00 PM 17.63 63.734 0.458 7.94 2522 11.06
5/23/2021 12:15:00 PM 17.82 64.076 0.458 7.96 2499 11.15
5/23/2021 12:30:00 PM 18.12 64.616 0.458 7.98 2442 11.45
5/23/2021 12:45:00 PM 18.27 64.886 0.457 8 2435 11.52
5/23/2021 1:00:00 PM 18.42 65.156 0.456 8.03 2434 11.61
5/23/2021 1:15:00 PM 18.65 65.57 0.455 8.05 2306 11.8
5/23/2021 1:30:00 PM 18.77 65.786 0.456 8.07 2418 11.83
5/23/2021 1:45:00 PM 18.98 66.164 0.455 8.09 2543 11.95
5/23/2021 2:00:00 PM 19.12 66.416 0.454 8.11 2405 11.98
5/23/2021 2:15:00 PM 19.28 66.704 0.454 8.13 2280 12.11
5/23/2021 2:30:00 PM 19.4 66.92 0.453 8.14 1935 12.06
5/23/2021 2:45:00 PM 19.56 67.208 0.452 8.16 1910 12.05
5/23/2021 3:00:00 PM 19.64 67.352 0.451 8.17 1758 11.99
5/23/2021 3:15:00 PM 19.72 67.496 0.45 8.17 1605 11.89
5/23/2021 3:30:00 PM 19.93 67.874 0.448 8.19 1735 11.95
5/23/2021 3:45:00 PM 20.11 68.198 0.448 8.21 1411 12
5/23/2021 4:00:00 PM 20.36 68.648 0.447 8.23 1333 12.07
5/23/2021 4:15:00 PM 20.59 69.062 0.446 8.24 1470 12.15
5/23/2021 4:30:00 PM 20.61 69.098 0.446 8.25 1247 11.84
5/23/2021 4:45:00 PM 20.63 69.134 0.447 8.25 1305 11.63
5/23/2021 5:00:00 PM 20.81 69.458 0.446 8.25 1347 11.59
5/23/2021 5:15:00 PM 20.9 69.62 0.446 8.26 1231 11.44
5/23/2021 5:30:00 PM 20.97 69.746 0.445 8.26 1225 11.31
5/23/2021 5:45:00 PM 21.08 69.944 0.445 8.26 981.2 11.25
5/23/2021 6:00:00 PM 21.14 70.052 0.444 8.26 915.3 11
5/23/2021 6:15:00 PM 21.2 70.16 0.442 8.25 961.5 10.65
5/23/2021 6:30:00 PM 21.25 70.25 0.441 8.25 901.8 10.39
5/23/2021 6:45:00 PM 21.26 70.268 0.442 8.23 862.9 9.93
5/23/2021 7:00:00 PM 21.3 70.34 0.44 8.21 828.9 9.65
5/23/2021 7:15:00 PM 21.32 70.376 0.44 8.18 910.4 9.37
5/23/2021 7:30:00 PM 21.33 70.394 0.441 8.16 858.4 9.07
5/23/2021 7:45:00 PM 21.34 70.412 0.44 8.14 925.8 8.83
5/23/2021 8:00:00 PM 21.35 70.43 0.44 8.12 849.6 8.58
5/23/2021 8:15:00 PM 21.35 70.43 0.44 8.09 880 8.24
5/23/2021 8:30:00 PM 21.36 70.448 0.44 8.07 893.5 7.96
5/23/2021 8:45:00 PM 21.35 70.43 0.44 8.03 916.8 7.66
5/23/2021 9:00:00 PM 21.34 70.412 0.44 8 891.5 7.43
5/23/2021 9:15:00 PM 21.34 70.412 0.44 7.97 871.1 7.19
5/23/2021 9:30:00 PM 21.31 70.358 0.44 7.93 845.8 6.98
5/23/2021 9:45:00 PM 21.28 70.304 0.44 7.9 769.9 6.87
5/23/2021 10:00:00 PM 21.24 70.232 0.441 7.88 795 6.74
5/23/2021 10:15:00 PM 21.19 70.142 0.441 7.85 856.6 6.56
5/23/2021 10:30:00 PM 21.14 70.052 0.441 7.83 852.2 6.49
5/23/2021 10:45:00 PM 21.08 69.944 0.442 7.8 864.9 6.37
5/23/2021 11:00:00 PM 21.03 69.854 0.442 7.78 844.6 6.27
5/23/2021 11:15:00 PM 20.96 69.728 0.443 7.76 837.5 6.18
5/23/2021 11:30:00 PM 20.88 69.584 0.442 7.74 840.3 6.1
5/23/2021 11:45:00 PM 20.81 69.458 0.443 7.71 796.7 6.02
5/24/2021 12:00:00 AM 20.73 69.314 0.444 7.7 731.4 5.97
5/24/2021 12:15:00 AM 20.65 69.17 0.445 7.69 775.4 5.92
5/24/2021 12:30:00 AM 20.57 69.026 0.445 7.68 759.6 5.86
5/24/2021 12:45:00 AM 20.5 68.9 0.446 7.66 780 5.83
5/24/2021 1:00:00 AM 20.42 68.756 0.447 7.65 761.8 5.82
5/24/2021 1:15:00 AM 20.32 68.576 0.447 7.64 761.3 5.77
5/24/2021 1:30:00 AM 20.22 68.396 0.448 7.63 752.7 5.77
5/24/2021 1:45:00 AM 20.1 68.18 0.449 7.63 741.2 5.75
5/24/2021 2:00:00 AM 19.97 67.946 0.449 7.62 771.3 5.78
5/24/2021 2:15:00 AM 19.86 67.748 0.45 7.62 749.7 5.77
5/24/2021 2:30:00 AM 19.74 67.532 0.451 7.62 728.1 5.79
5/24/2021 2:45:00 AM 19.63 67.334 0.452 7.61 725.5 5.77
5/24/2021 3:00:00 AM 19.52 67.136 0.453 7.61 737.4 5.79
5/24/2021 3:15:00 AM 19.41 66.938 0.454 7.61 743.4 5.82
5/24/2021 3:30:00 AM 19.29 66.722 0.455 7.61 719.5 5.85
5/24/2021 3:45:00 AM 19.17 66.506 0.456 7.61 677.6 5.91
5/24/2021 4:00:00 AM 19.04 66.272 0.457 7.6 693.5 5.95
5/24/2021 4:15:00 AM 18.92 66.056 0.458 7.6 680.9 5.94
5/24/2021 4:30:00 AM 18.78 65.804 0.459 7.6 637.7 6.02
5/24/2021 4:45:00 AM 18.67 65.606 0.46 7.6 637.1 6.03
5/24/2021 5:00:00 AM 18.54 65.372 0.461 7.6 597.5 6.09
5/24/2021 5:15:00 AM 18.42 65.156 0.46 7.6 578.6 6.14
5/24/2021 5:30:00 AM 18.3 64.94 0.463 7.6 563.8 6.18
5/24/2021 5:45:00 AM 18.18 64.724 0.464 7.6 606.6 6.23
5/24/2021 6:00:00 AM 18.05 64.49 0.455 7.61 584.7 6.29
5/24/2021 6:15:00 AM 17.93 64.274 0.466 7.61 571.9 6.35
5/24/2021 6:30:00 AM 17.81 64.058 0.466 7.61 561.5 6.39
5/24/2021 6:45:00 AM 17.7 63.86 0.466 7.61 555.4 6.46
5/24/2021 7:00:00 AM 17.6 63.68 0.467 7.62 537.7 6.51
5/24/2021 7:15:00 AM 17.49 63.482 0.467 7.62 546.9 6.61
5/24/2021 7:30:00 AM 17.39 63.302 0.467 7.62 530.4 6.67
5/24/2021 7:45:00 AM 17.29 63.122 0.468 7.63 528.4 6.76
5/24/2021 8:00:00 AM 17.19 62.942 0.468 7.63 522.6 6.85
5/24/2021 8:15:00 AM 17.1 62.78 0.469 7.62 520.9 6.91
5/24/2021 8:30:00 AM 16.99 62.582 0.469 7.63 509.8 6.98
5/24/2021 8:45:00 AM 16.89 62.402 0.469 7.63 515.1 7.05
5/24/2021 9:00:00 AM 16.8 62.24 0.469 7.63 462.1 7.12
5/24/2021 9:15:00 AM 16.7 62.06 0.468 7.64 425.6 7.2
5/24/2021 9:30:00 AM 16.6 61.88 0.468 7.64 426.7 7.23
5/24/2021 9:45:00 AM 16.51 61.718 0.534 7.6 428.3 7.27
5/24/2021 10:00:00 AM 16.47 61.646 0.527 7.59 454.3 7.37
5/24/2021 10:15:00 AM 16.4 61.52 0.512 7.61 460.1 7.47
5/24/2021 10:30:00 AM 16.27 61.286 0.487 7.63 466 7.49
5/24/2021 10:45:00 AM 16.18 61.124 0.471 7.64 465.8 7.54
5/24/2021 11:00:00 AM 16.1 60.98 0.456 7.64 461.3 7.61
5/24/2021 11:15:00 AM 16.02 60.836 0.465 7.65 475.3 7.72
5/24/2021 11:30:00 AM 15.96 60.728 0.464 7.65 469.5 7.81
5/24/2021 11:45:00 AM 15.87 60.566 0.465 7.65 479.8 7.87
5/24/2021 12:00:00 PM 15.8 60.44 0.464 7.65 491.8 7.9
5/24/2021 12:15:00 PM 15.72 60.296 0.463 7.65 478.1 7.9
5/24/2021 12:30:00 PM 15.65 60.17 0.462 7.65 478.6 8.02
5/24/2021 12:45:00 PM 15.68 60.224 0.468 7.65 493.7 8.12
5/24/2021 1:00:00 PM 15.66 60.188 0.49 7.64 492.8 8.18
5/24/2021 1:15:00 PM 15.56 60.008 0.469 7.65 465.9 8.27
5/24/2021 1:30:00 PM 15.53 59.954 0.456 7.66 491.2 8.32
5/24/2021 1:45:00 PM 15.5 59.9 0.45 7.65 487.1 8.28
5/24/2021 2:00:00 PM 15.46 59.828 0.456 7.65 513.5 8.22
5/24/2021 2:15:00 PM 15.43 59.774 0.453 7.64 563.8 8.27
5/24/2021 2:30:00 PM 15.42 59.756 0.454 7.63 559.2 8.33
5/24/2021 2:45:00 PM 15.39 59.702 0.45 7.62 557.9 8.4
5/24/2021 3:00:00 PM 15.38 59.684 0.449 7.62 544 8.43
5/24/2021 3:15:00 PM 15.35 59.63 0.447 7.63 549.4 8.6
5/24/2021 3:30:00 PM 15.31 59.558 0.446 7.65 539.3 8.74
5/24/2021 3:45:00 PM 15.28 59.504 0.446 7.66 544.6 8.9
5/24/2021 4:00:00 PM 15.23 59.414 0.445 7.66 548.5 8.96
5/24/2021 4:15:00 PM 15.19 59.342 0.444 7.67 518.4 9.01
5/24/2021 4:30:00 PM 15.16 59.288 0.442 7.68 518.3 8.93
5/24/2021 4:45:00 PM 15.13 59.234 0.44 7.68 531 8.87
5/24/2021 5:00:00 PM 15.1 59.18 0.437 7.67 521 8.85
5/24/2021 5:15:00 PM 15.09 59.162 0.436 7.67 543.6 8.8
5/24/2021 5:30:00 PM 15.07 59.126 0.434 7.67 519.3 8.75
5/24/2021 5:45:00 PM 15.06 59.108 0.433 7.67 527.9 8.66
5/24/2021 6:00:00 PM 15.05 59.09 0.432 7.66 533.8 8.58
5/24/2021 6:15:00 PM 15.04 59.072 0.431 7.65 517.3 8.5
5/24/2021 6:30:00 PM 15.02 59.036 0.43 7.64 533.5 8.42
5/24/2021 6:45:00 PM 15.01 59.018 0.43 7.64 527.9 8.37
5/24/2021 7:00:00 PM 14.99 58.982 0.43 7.64 499.6 8.3
5/24/2021 7:15:00 PM 14.97 58.946 0.431 7.64 506.7 8.28
5/24/2021 7:30:00 PM 14.94 58.892 0.431 7.64 495.1 8.29
5/24/2021 7:45:00 PM 14.91 58.838 0.434 7.64 514 8.3
5/24/2021 8:00:00 PM 14.88 58.784 0.438 7.64 508.8 8.28
5/24/2021 8:15:00 PM 14.84 58.712 0.443 7.64 533.9 8.25
5/24/2021 8:30:00 PM 14.8 58.64 0.442 7.65 528.1 8.24
5/24/2021 8:45:00 PM 14.76 58.568 0.442 7.65 568.2 8.21
5/24/2021 9:00:00 PM 14.72 58.496 0.444 7.65 554.2 8.22
5/24/2021 9:15:00 PM 14.69 58.442 0.441 7.66 547.5 8.18
5/24/2021 9:30:00 PM 14.66 58.388 0.44 7.66 530.9 8.12
5/24/2021 9:45:00 PM 14.63 58.334 0.438 7.66 542.8 8.1
5/24/2021 10:00:00 PM 14.6 58.28 0.437 7.65 552.9 8.06
5/24/2021 10:15:00 PM 14.58 58.244 0.436 7.65 635.9 8.05
5/24/2021 10:30:00 PM 14.56 58.208 0.435 7.65 632.2 8.03
5/24/2021 10:45:00 PM 14.54 58.172 0.434 7.64 628.4 8.01
5/24/2021 11:00:00 PM 14.52 58.136 0.433 7.64 618.3 7.99
5/24/2021 11:15:00 PM 14.5 58.1 0.433 7.62 620.5 7.96
5/24/2021 11:30:00 PM 14.48 58.064 0.433 7.63 625.7 7.96
5/24/2021 11:45:00 PM 14.46 58.028 0.425 7.63 667.7 7.92
5/25/2021 12:00:00 AM 14.44 57.992 0.433 7.63 669.5 7.91
5/25/2021 12:15:00 AM 14.41 57.938 0.433 7.63 694.8 7.89
5/25/2021 12:30:00 AM 14.39 57.902 0.434 7.63 704.5 7.9
5/25/2021 12:45:00 AM 14.36 57.848 0.434 7.63 671.9 7.87
5/25/2021 1:00:00 AM 14.33 57.794 0.435 7.63 657.3 7.87
5/25/2021 1:15:00 AM 14.3 57.74 0.435 7.62 625 7.85
5/25/2021 1:30:00 AM 14.28 57.704 0.436 7.62 666.8 7.87
5/25/2021 1:45:00 AM 14.25 57.65 0.437 7.63 704.8 7.87
5/25/2021 2:00:00 AM 14.22 57.596 0.438 7.63 690.4 7.85
5/25/2021 2:15:00 AM 14.19 57.542 0.439 7.62 668 7.83
5/25/2021 2:30:00 AM 14.16 57.488 0.441 7.63 676.5 7.84
5/25/2021 2:45:00 AM 14.13 57.434 0.442 7.63 665.4 7.86
5/25/2021 3:00:00 AM 14.09 57.362 0.443 7.63 677.2 7.88
5/25/2021 3:15:00 AM 14.07 57.326 0.444 7.63 540.8 7.86
5/25/2021 3:30:00 AM 14.03 57.254 0.445 7.63 518.8 7.89
5/25/2021 3:45:00 AM 14 57.2 0.445 7.63 501.6 7.9
5/25/2021 4:00:00 AM 13.97 57.146 0.445 7.63 499.3 7.9
5/25/2021 4:15:00 AM 13.93 57.074 0.445 7.63 482.9 7.93
5/25/2021 4:30:00 AM 13.91 57.038 0.446 7.63 479 7.95
5/25/2021 4:45:00 AM 13.87 56.966 0.446 7.63 531.7 7.95
5/25/2021 5:00:00 AM 13.84 56.912 0.446 7.63 550.2 7.96
5/25/2021 5:15:00 AM 13.81 56.858 0.446 7.63 567 7.98
5/25/2021 5:30:00 AM 13.79 56.822 0.446 7.63 587.3 8
5/25/2021 5:45:00 AM 13.76 56.768 0.447 7.63 594 8
5/25/2021 6:00:00 AM 13.73 56.714 0.447 7.63 427.2 8.01
5/25/2021 6:15:00 AM 13.7 56.66 0.447 7.63 398.7 8.03
5/25/2021 6:30:00 AM 13.68 56.624 0.449 7.63 447.7 8.04
5/25/2021 6:45:00 AM 13.65 56.57 0.445 7.63 479.5 8.08
5/25/2021 7:00:00 AM 13.64 56.552 0.449 7.63 537 8.12
5/25/2021 7:15:00 AM 13.62 56.516 0.449 7.63 454.5 8.18
5/25/2021 7:30:00 AM 13.61 56.498 0.45 7.64 471.3 8.27
5/25/2021 7:45:00 AM 13.6 56.48 0.45 7.64 375.1 8.32
5/25/2021 8:00:00 AM 13.6 56.48 0.451 7.65 462.5 8.43
5/25/2021 8:15:00 AM 13.61 56.498 0.451 7.66 459 8.52
5/25/2021 8:30:00 AM 13.62 56.516 0.451 7.66 395.7 8.69
5/25/2021 8:45:00 AM 13.63 56.534 0.452 7.67 440.7 8.79
5/25/2021 9:00:00 AM 13.66 56.588 0.452 7.68 453.6 8.95
5/25/2021 9:15:00 AM 13.68 56.624 0.453 7.69 440.9 9.07
5/25/2021 9:30:00 AM 13.7 56.66 0.453 7.69 423.7 9.15
5/25/2021 9:45:00 AM 13.71 56.678 0.454 7.7 438.3 9.26
5/25/2021 10:00:00 AM 13.73 56.714 0.453 7.71 464 9.35
5/25/2021 10:15:00 AM 13.76 56.768 0.453 7.72 445.3 9.43
5/25/2021 10:30:00 AM 13.79 56.822 0.455 7.72 503.3 9.52
5/25/2021 10:45:00 AM 13.83 56.894 0.455 7.73 469.9 9.67
5/25/2021 11:00:00 AM 13.89 57.002 0.456 7.75 507.3 9.82
5/25/2021 11:15:00 AM 13.94 57.092 0.455 7.76 541.6 9.93
5/25/2021 11:30:00 AM 14.01 57.218 0.456 7.76 538.6 10.09
5/25/2021 11:45:00 AM 14.08 57.344 0.457 7.78 463 10.22
5/25/2021 12:00:00 PM 14.14 57.452 0.456 7.79 474.9 10.32
5/25/2021 12:15:00 PM 14.22 57.596 0.456 7.8 567.3 10.46
5/25/2021 12:30:00 PM 14.29 57.722 0.457 7.81 519.9 10.54
5/25/2021 12:45:00 PM 14.34 57.812 0.457 7.83 459.4 10.63
5/25/2021 1:00:00 PM 14.41 57.938 0.456 7.84 518.6 10.73
5/25/2021 1:15:00 PM 14.47 58.046 0.456 7.85 473.1 10.75
5/25/2021 1:30:00 PM 14.52 58.136 0.456 7.85 494 10.82
5/25/2021 1:45:00 PM 14.59 58.262 0.456 7.86 499.1 10.94
5/25/2021 2:00:00 PM 14.67 58.406 0.456 7.87 482.2 10.99
5/25/2021 2:15:00 PM 14.74 58.532 0.456 7.88 433.9 11.06
5/25/2021 2:30:00 PM 14.84 58.712 0.455 7.89 401.2 11.13
5/25/2021 2:45:00 PM 14.91 58.838 0.455 7.9 409.8 11.13
5/25/2021 3:00:00 PM 14.99 58.982 0.455 7.91 450.4 11.15
5/25/2021 3:15:00 PM 15.08 59.144 0.455 7.92 467.3 11.18
5/25/2021 3:30:00 PM 15.17 59.306 0.455 7.92 472.7 11.18
5/25/2021 3:45:00 PM 15.24 59.432 0.454 7.92 452.6 11.21
5/25/2021 4:00:00 PM 15.36 59.648 0.454 7.93 423.9 11.28
5/25/2021 4:15:00 PM 15.47 59.846 0.453 7.95 449 11.35
5/25/2021 4:30:00 PM 15.63 60.134 0.453 7.96 432.6 11.41
5/25/2021 4:45:00 PM 15.77 60.386 0.452 7.96 455.4 11.44
5/25/2021 5:00:00 PM 15.82 60.476 0.452 7.97 487.3 11.33
5/25/2021 5:15:00 PM 15.95 60.71 0.453 7.98 457.9 11.33
5/25/2021 5:30:00 PM 16 60.8 0.452 7.98 498.1 11.22
5/25/2021 5:45:00 PM 16.11 60.998 0.451 7.99 524.1 11.24
5/25/2021 6:00:00 PM 16.17 61.106 0.451 7.99 539.4 11.17
5/25/2021 6:15:00 PM 16.2 61.16 0.451 7.99 522.4 11.06
5/25/2021 6:30:00 PM 16.18 61.124 0.451 7.99 503.2 10.79
5/25/2021 6:45:00 PM 16.17 61.106 0.45 7.99 530.4 10.57
5/25/2021 7:00:00 PM 16.18 61.124 0.45 7.98 419.3 10.38
5/25/2021 7:15:00 PM 16.19 61.142 0.451 7.97 396.8 10.15
5/25/2021 7:30:00 PM 16.19 61.142 0.45 7.96 394.4 9.96
5/25/2021 7:45:00 PM 16.2 61.16 0.45 7.95 369.6 9.81
5/25/2021 8:00:00 PM 16.2 61.16 0.451 7.94 397.9 9.61
5/25/2021 8:15:00 PM 16.18 61.124 0.451 7.93 418.5 9.45
5/25/2021 8:30:00 PM 16.17 61.106 0.45 7.92 389.4 9.22
5/25/2021 8:45:00 PM 16.16 61.088 0.45 7.91 451.7 9.08
5/25/2021 9:00:00 PM 16.15 61.07 0.451 7.9 416.2 8.89
5/25/2021 9:15:00 PM 16.13 61.034 0.451 7.88 458.2 8.73
5/25/2021 9:30:00 PM 16.12 61.016 0.45 7.87 465.2 8.61
5/25/2021 9:45:00 PM 16.11 60.998 0.451 7.85 486.8 8.47
5/25/2021 10:00:00 PM 16.1 60.98 0.451 7.83 527.1 8.34
5/25/2021 10:15:00 PM 16.09 60.962 0.45 7.82 565.3 8.25
5/25/2021 10:30:00 PM 16.08 60.944 0.451 7.8 431.8 8.15
5/25/2021 10:45:00 PM 16.07 60.926 0.45 7.79 458.7 8.08
5/25/2021 11:00:00 PM 16.06 60.908 0.45 7.77 465.8 7.99
5/25/2021 11:15:00 PM 16.04 60.872 0.449 7.77 528.4 7.93
5/25/2021 11:30:00 PM 16.03 60.854 0.45 7.75 452 7.83
5/25/2021 11:45:00 PM 16.01 60.818 0.45 7.74 459.7 7.78
5/26/2021 12:00:00 AM 15.99 60.782 0.451 7.73 497.5 7.71
5/26/2021 12:15:00 AM 15.97 60.746 0.451 7.72 507.6 7.65
5/26/2021 12:30:00 AM 15.93 60.674 0.451 7.71 495.9 7.57
5/26/2021 12:45:00 AM 15.9 60.62 0.451 7.7 471.3 7.55
5/26/2021 1:00:00 AM 15.86 60.548 0.451 7.69 499.2 7.48
5/26/2021 1:15:00 AM 15.82 60.476 0.451 7.68 505.2 7.48
5/26/2021 1:30:00 AM 15.78 60.404 0.452 7.68 475.3 7.44
5/26/2021 1:45:00 AM 15.74 60.332 0.452 7.67 451.8 7.42
5/26/2021 2:00:00 AM 15.71 60.278 0.452 7.66 497.7 7.4
5/26/2021 2:15:00 AM 15.67 60.206 0.452 7.66 503.4 7.38
5/26/2021 2:30:00 AM 15.64 60.152 0.452 7.65 484.7 7.39
5/26/2021 2:45:00 AM 15.61 60.098 0.453 7.65 471 7.38
5/26/2021 3:00:00 AM 15.57 60.026 0.453 7.64 479.8 7.36
5/26/2021 3:15:00 AM 15.54 59.972 0.454 7.64 479.7 7.37
5/26/2021 3:30:00 AM 15.5 59.9 0.454 7.63 580.5 7.35
5/26/2021 3:45:00 AM 15.46 59.828 0.455 7.63 590.2 7.36
5/26/2021 4:00:00 AM 15.42 59.756 0.455 7.63 601.5 7.34
5/26/2021 4:15:00 AM 15.38 59.684 0.456 7.63 670.8 7.33
5/26/2021 4:30:00 AM 15.34 59.612 0.457 7.63 739.8 7.35
5/26/2021 4:45:00 AM 15.3 59.54 0.458 7.63 883.5 7.37
5/26/2021 5:00:00 AM 15.25 59.45 0.458 7.62 727.9 7.36
5/26/2021 5:15:00 AM 15.21 59.378 0.459 7.62 785.3 7.39
5/26/2021 5:30:00 AM 15.16 59.288 0.46 7.62 897.8 7.42
5/26/2021 5:45:00 AM 15.11 59.198 0.461 7.62 615.7 7.41
5/26/2021 6:00:00 AM 15.07 59.126 0.462 7.61 644.3 7.42
5/26/2021 6:15:00 AM 15.03 59.054 0.463 7.62 653.4 7.45
5/26/2021 6:30:00 AM 14.98 58.964 0.463 7.62 631.2 7.5
5/26/2021 6:45:00 AM 14.95 58.91 0.462 7.62 705.2 7.55
5/26/2021 7:00:00 AM 14.91 58.838 0.463 7.62 740.2 7.63
5/26/2021 7:15:00 AM 14.88 58.784 0.464 7.62 698.4 7.72
5/26/2021 7:30:00 AM 14.86 58.748 0.463 7.63 783.9 7.84
5/26/2021 7:45:00 AM 14.85 58.73 0.463 7.63 622.5 7.96
5/26/2021 8:00:00 AM 14.85 58.73 0.463 7.63 712.5 8.08
5/26/2021 8:15:00 AM 14.84 58.712 0.463 7.64 650.4 8.14
5/26/2021 8:30:00 AM 14.86 58.748 0.463 7.64 671.2 8.35
5/26/2021 8:45:00 AM 14.86 58.748 0.463 7.65 642.2 8.45
5/26/2021 9:00:00 AM 14.9 58.82 0.462 7.66 738 8.66
5/26/2021 9:15:00 AM 14.95 58.91 0.462 7.67 685 8.86
5/26/2021 9:30:00 AM 15.02 59.036 0.462 7.68 812.2 9.09
5/26/2021 9:45:00 AM 15.11 59.198 0.462 7.69 794.1 9.28
5/26/2021 10:00:00 AM 15.26 59.468 0.461 7.7 769.7 9.48
5/26/2021 10:15:00 AM 15.39 59.702 0.463 7.71 768.7 9.62
5/26/2021 10:30:00 AM 15.54 59.972 0.463 7.72 777.2 9.73
5/26/2021 10:45:00 AM 15.7 60.26 0.463 7.73 762.7 9.85
5/26/2021 11:00:00 AM 15.89 60.602 0.463 7.74 829.4 10.03
5/26/2021 11:15:00 AM 16.09 60.962 0.463 7.75 838 10.17
5/26/2021 11:30:00 AM 16.31 61.358 0.463 7.76 922.7 10.35
5/26/2021 11:45:00 AM 16.56 61.808 0.462 7.77 1201 10.49
5/26/2021 12:00:00 PM 16.81 62.258 0.461 7.79 1213 10.65
5/26/2021 12:15:00 PM 17.09 62.762 0.46 7.8 1288 10.76
5/26/2021 12:30:00 PM 17.38 63.284 0.46 7.8 1307 10.86
5/26/2021 12:45:00 PM 17.66 63.788 0.461 7.82 808 10.99
5/26/2021 1:00:00 PM 17.73 63.914 0.46 7.84 1069 10.83
5/26/2021 1:15:00 PM 17.94 64.292 0.472 7.84 1132 10.46
5/26/2021 1:30:00 PM 18.13 64.634 0.542 7.77 1345 9.9
5/26/2021 1:45:00 PM 18.07 64.526 0.505 7.78 1275 10.05
5/26/2021 2:00:00 PM 18.08 64.544 0.475 7.81 1375 10.13
5/26/2021 2:15:00 PM 18.22 64.796 0.459 7.82 1486 10.37
5/26/2021 2:30:00 PM 18.29 64.922 0.46 7.83 1144 10.3
5/26/2021 2:45:00 PM 18.66 65.588 0.488 7.81 953.3 10.14
5/26/2021 3:00:00 PM 18.66 65.588 0.498 7.8 948.5 10.21
5/26/2021 3:15:00 PM 18.75 65.75 0.474 7.83 992.3 10.37
5/26/2021 3:30:00 PM 18.96 66.128 0.465 7.84 1093 10.45
5/26/2021 3:45:00 PM 19.16 66.488 0.458 7.84 1036 10.54
5/26/2021 4:00:00 PM 19.25 66.65 0.455 7.84 933.8 10.51
5/26/2021 4:15:00 PM 19.42 66.956 0.453 7.85 1066 10.55
5/26/2021 4:30:00 PM 19.58 67.244 0.45 7.86 1115 10.56
5/26/2021 4:45:00 PM 19.71 67.478 0.447 7.87 890.2 10.44
5/26/2021 5:00:00 PM 19.77 67.586 0.443 7.87 1024 10.21
5/26/2021 5:15:00 PM 19.83 67.694 0.438 7.86 923.6 9.92
5/26/2021 5:30:00 PM 19.96 67.92799 0.435 7.85 923.3 9.66
5/26/2021 5:45:00 PM 20.13 68.234 0.431 7.83 901.4 9.46
5/26/2021 6:00:00 PM 20.23 68.414 0.427 7.81 1087 9.13
5/26/2021 6:15:00 PM 20.35 68.63 0.423 7.78 1089 8.73
5/26/2021 6:30:00 PM 20.45 68.81 0.42 7.76 862.6 8.36
5/26/2021 6:45:00 PM 20.54 68.972 0.419 7.74 854.1 8.12
5/26/2021 7:00:00 PM 20.55 68.99 0.422 7.72 827.7 7.96
5/26/2021 7:15:00 PM 20.54 68.972 0.425 7.71 1036 7.86
5/26/2021 7:30:00 PM 20.49 68.882 0.429 7.7 859 7.7
5/26/2021 7:45:00 PM 20.4 68.72 0.425 7.69 1222 7.58
5/26/2021 8:00:00 PM 20.68 69.224 0.612 7.6 1144 7.23
5/26/2021 8:15:00 PM 20.37 68.666 0.484 7.62 1011 7.11
5/26/2021 8:30:00 PM 20.27 68.486 0.453 7.63 1107 7.02
5/26/2021 8:45:00 PM 20.21 68.378 0.442 7.62 869.9 6.97
5/26/2021 9:00:00 PM 20.17 68.306 0.437 7.62 790.1 7.12
5/26/2021 9:15:00 PM 20.14 68.252 0.441 7.61 738.3 6.92
5/26/2021 9:30:00 PM 20.13 68.234 0.437 7.6 809.7 6.8
5/26/2021 9:45:00 PM 20.1 68.18 0.428 7.59 665.6 6.79
5/26/2021 10:00:00 PM 20.07 68.126 0.427 7.58 558.8 6.58
5/26/2021 10:15:00 PM 20.05 68.09 0.427 7.56 532.8 6.45
5/26/2021 10:30:00 PM 20.02 68.036 0.423 7.55 551.8 6.29
5/26/2021 10:45:00 PM 19.98 67.964 0.414 7.54 588 6.2
5/26/2021 11:00:00 PM 19.93 67.874 0.406 7.53 639.1 6.12
5/26/2021 11:15:00 PM 19.87 67.766 0.399 7.51 660.4 5.97
5/26/2021 11:30:00 PM 19.82 67.676 0.391 7.5 687.8 5.82
5/26/2021 11:45:00 PM 19.75 67.55 0.387 7.48 1585 5.71
5/27/2021 12:00:00 AM 19.69 67.442 0.384 7.47 4277 5.62
5/27/2021 12:15:00 AM 19.63 67.334 0.38 7.46 4277 5.59
5/27/2021 12:30:00 AM 19.57 67.226 0.379 7.45 4277 5.58
5/27/2021 12:45:00 AM 19.5 67.1 0.381 7.44 4277 5.57
5/27/2021 1:00:00 AM 19.42 66.956 0.389 7.45 550.3 5.64
5/27/2021 1:15:00 AM 19.32 66.776 0.399 7.45 916.1 5.74
5/27/2021 1:30:00 AM 19.19 66.542 0.408 7.46 1132 5.84
5/27/2021 1:45:00 AM 19.06 66.308 0.417 7.47 2130 5.92
5/27/2021 2:00:00 AM 18.94 66.092 0.422 7.48 1384 6.01
5/27/2021 2:15:00 AM 18.82 65.876 0.426 7.49 1318 6.07
5/27/2021 2:30:00 AM 18.7 65.66 0.428 7.49 971.6 6.11
5/27/2021 2:45:00 AM 18.59 65.462 0.429 7.49 1619 6.14
5/27/2021 3:00:00 AM 18.48 65.264 0.43 7.49 1641 6.15
5/27/2021 3:15:00 AM 18.37 65.066 0.429 7.5 1680 6.2
5/27/2021 3:30:00 AM 18.26 64.868 0.428 7.49 1675 6.2
5/27/2021 3:45:00 AM 18.15 64.67 0.427 7.49 1617 6.27
5/27/2021 4:00:00 AM 18.07 64.526 0.425 7.49 1829 6.24
5/27/2021 4:15:00 AM 17.98 64.364 0.424 7.48 1665 6.26
5/27/2021 4:30:00 AM 17.9 64.22 0.423 7.48 1994 6.29
5/27/2021 4:45:00 AM 17.83 64.094 0.422 7.48 1802 6.34
5/27/2021 5:00:00 AM 17.75 63.95 0.422 7.48 1995 6.36
5/27/2021 5:15:00 AM 17.67 63.806 0.422 7.48 1618 6.41
5/27/2021 5:30:00 AM 17.6 63.68 0.424 7.48 1879 6.44
5/27/2021 5:45:00 AM 17.52 63.536 0.425 7.48 2086 6.44
5/27/2021 6:00:00 AM 17.43 63.374 0.423 7.48 1446 6.51
5/27/2021 6:15:00 AM 17.33 63.194 0.426 7.49 1450 6.52
5/27/2021 6:30:00 AM 17.22 62.996 0.428 7.48 1511 6.57
5/27/2021 6:45:00 AM 17.11 62.798 0.429 7.49 1550 6.66
5/27/2021 7:00:00 AM 17.03 62.654 0.43 7.49 1144 6.66
5/27/2021 7:15:00 AM 16.92 62.456 0.433 7.48 1462 6.77
5/27/2021 7:30:00 AM 16.85 62.33 0.436 7.49 1304 6.85
5/27/2021 7:45:00 AM 16.79 62.222 0.437 7.49 1359 6.92
5/27/2021 8:00:00 AM 16.74 62.132 0.438 7.5 1051 7.03
5/27/2021 8:15:00 AM 16.69 62.042 0.439 7.5 1413 7.16
5/27/2021 8:30:00 AM 16.66 61.988 0.441 7.51 989.1 7.29
5/27/2021 8:45:00 AM 16.65 61.97 0.442 7.52 695.2 7.39
5/27/2021 9:00:00 AM 16.66 61.988 0.444 7.53 487.2 7.56
5/27/2021 9:15:00 AM 16.66 61.988 0.445 7.55 968.4 7.68
5/27/2021 9:30:00 AM 16.69 62.042 0.446 7.56 328.6 7.84
5/27/2021 9:45:00 AM 16.72 62.096 0.448 7.57 524.9 8.01
5/27/2021 10:00:00 AM 16.77 62.186 0.449 7.58 377.3 8.2
5/27/2021 10:15:00 AM 16.85 62.33 0.449 7.59 425.2 8.35
5/27/2021 10:30:00 AM 16.96 62.528 0.45 7.6 305 8.51
5/27/2021 10:45:00 AM 17.1 62.78 0.451 7.61 286.5 8.74
5/27/2021 11:00:00 AM 17.24 63.032 0.451 7.62 268 8.95
5/27/2021 11:15:00 AM 17.41 63.338 0.452 7.64 336.6 9.16
5/27/2021 11:30:00 AM 17.59 63.662 0.453 7.65 356.2 9.31
5/27/2021 11:45:00 AM 17.76 63.968 0.454 7.67 372 9.47
5/27/2021 12:00:00 PM 17.95 64.31 0.455 7.68 374.5 9.65
5/27/2021 12:15:00 PM 18.14 64.652 0.455 7.71 285.8 9.81
5/27/2021 12:30:00 PM 18.34 65.012 0.456 7.72 292.2 9.97
5/27/2021 12:45:00 PM 18.53 65.354 0.456 7.74 273.3 10.14
5/27/2021 1:00:00 PM 18.73 65.714 0.457 7.76 296.4 10.27
5/27/2021 1:15:00 PM 18.94 66.092 0.457 7.77 278.3 10.39
5/27/2021 1:30:00 PM 19.14 66.452 0.458 7.79 254.5 10.52
5/27/2021 1:45:00 PM 19.33 66.794 0.458 7.81 290 10.61
5/27/2021 2:00:00 PM 19.51 67.118 0.459 7.82 381.5 10.69
5/27/2021 2:15:00 PM 19.69 67.442 0.459 7.83 288.3 10.71
5/27/2021 2:30:00 PM 19.81 67.658 0.459 7.85 264.5 10.7
5/27/2021 2:45:00 PM 19.98 67.964 0.459 7.86 264 10.75
5/27/2021 3:00:00 PM 20.11 68.198 0.458 7.88 510 10.75
5/27/2021 3:15:00 PM 20.12 68.216 0.457 7.89 281.7 10.69
5/27/2021 3:30:00 PM 20.2 68.36 0.459 7.9 298.9 10.69
5/27/2021 3:45:00 PM 20.28 68.504 0.457 7.9 420.9 10.63
5/27/2021 4:00:00 PM 20.37 68.666 0.457 7.91 298.8 10.62
5/27/2021 4:15:00 PM 20.46 68.828 0.457 7.91 270.1 10.57
5/27/2021 4:30:00 PM 20.44 68.792 0.457 7.92 267.3 10.45
5/27/2021 4:45:00 PM 20.49 68.882 0.457 7.92 269.3 10.32
5/27/2021 5:00:00 PM 20.47 68.846 0.458 7.92 321.8 10.15
5/27/2021 5:15:00 PM 20.58 69.044 0.458 7.92 419.2 10.11
5/27/2021 5:30:00 PM 20.6 69.08 0.459 7.92 398.1 10.01
5/27/2021 5:45:00 PM 20.62 69.116 0.458 7.92 407.5 9.88
5/27/2021 6:00:00 PM 20.62 69.116 0.458 7.91 351.6 9.71
5/27/2021 6:15:00 PM 20.6 69.08 0.458 7.9 353.9 9.52
5/27/2021 6:30:00 PM 20.55 68.99 0.458 7.89 309.7 9.23
5/27/2021 6:45:00 PM 20.52 68.936 0.458 7.88 352.6 9.05
5/27/2021 7:00:00 PM 20.47 68.846 0.459 7.87 245.7 8.84
5/27/2021 7:15:00 PM 20.44 68.792 0.46 7.86 233.4 8.63
5/27/2021 7:30:00 PM 20.38 68.684 0.461 7.85 231.3 8.39
5/27/2021 7:45:00 PM 20.33 68.594 0.462 7.83 247.6 8.2
5/27/2021 8:00:00 PM 20.3 68.54 0.462 7.82 261.9 8.02
5/27/2021 8:15:00 PM 20.26 68.468 0.463 7.8 288.5 7.79
5/27/2021 8:30:00 PM 20.21 68.378 0.462 7.79 344.5 7.61
5/27/2021 8:45:00 PM 20.16 68.288 0.462 7.77 368.9 7.43
5/27/2021 9:00:00 PM 20.11 68.198 0.461 7.76 380.5 7.29
5/27/2021 9:15:00 PM 20.05 68.09 0.461 7.74 368.3 7.11
5/27/2021 9:30:00 PM 20 68 0.46 7.73 433.2 7
5/27/2021 9:45:00 PM 19.93 67.874 0.459 7.71 530.6 6.84
5/27/2021 10:00:00 PM 19.86 67.748 0.459 7.7 513.2 6.77
5/27/2021 10:15:00 PM 19.78 67.604 0.459 7.69 379.1 6.65
5/27/2021 10:30:00 PM 19.7 67.46 0.458 7.68 394.4 6.59
5/27/2021 10:45:00 PM 19.61 67.298 0.458 7.67 399.5 6.51
5/27/2021 11:00:00 PM 19.52 67.136 0.459 7.66 417.4 6.49
5/27/2021 11:15:00 PM 19.43 66.974 0.458 7.65 486.8 6.4
5/27/2021 11:30:00 PM 19.33 66.794 0.459 7.64 505.8 6.38
5/27/2021 11:45:00 PM 19.22 66.596 0.459 7.63 454.4 6.34
5/28/2021 12:00:00 AM 19.1 66.38 0.459 7.63 654.3 6.3
5/28/2021 12:15:00 AM 18.98 66.164 0.459 7.62 540.6 6.27
5/28/2021 12:30:00 AM 18.86 65.948 0.46 7.61 675.7 6.29
5/28/2021 12:45:00 AM 18.74 65.732 0.46 7.6 534.7 6.25
5/28/2021 1:00:00 AM 18.62 65.516 0.46 7.6 507.9 6.26
5/28/2021 1:15:00 AM 18.51 65.318 0.461 7.6 496.2 6.25
5/28/2021 1:30:00 AM 18.4 65.12 0.461 7.59 549.9 6.26
5/28/2021 1:45:00 AM 18.28 64.904 0.461 7.59 356.5 6.28
5/28/2021 2:00:00 AM 18.17 64.706 0.462 7.59 375.8 6.3
5/28/2021 2:15:00 AM 18.06 64.508 0.462 7.59 404.2 6.3
5/28/2021 2:30:00 AM 17.94 64.292 0.462 7.58 465.7 6.33
5/28/2021 2:45:00 AM 17.82 64.076 0.463 7.59 442.9 6.34
5/28/2021 3:00:00 AM 17.71 63.878 0.463 7.58 443.5 6.36
5/28/2021 3:15:00 AM 17.59 63.662 0.464 7.58 486.9 6.4
5/28/2021 3:30:00 AM 17.46 63.428 0.464 7.58 479.4 6.42
5/28/2021 3:45:00 AM 17.34 63.212 0.465 7.58 503 6.45
5/28/2021 4:00:00 AM 17.22 62.996 0.465 7.55 400.2 6.49
5/28/2021 4:15:00 AM 17.1 62.78 0.466 7.58 418.8 6.52
5/28/2021 4:30:00 AM 16.97 62.546 0.467 7.57 355.1 6.55
5/28/2021 4:45:00 AM 16.84 62.312 0.467 7.58 463.5 6.59
5/28/2021 5:00:00 AM 16.71 62.078 0.468 7.58 377.6 6.65
5/28/2021 5:15:00 AM 16.58 61.844 0.468 7.58 380.8 6.69
5/28/2021 5:30:00 AM 16.44 61.592 0.469 7.58 478.6 6.75
5/28/2021 5:45:00 AM 16.32 61.376 0.469 7.59 407 6.81
5/28/2021 6:00:00 AM 16.2 61.16 0.47 7.59 444.3 6.85
5/28/2021 6:15:00 AM 16.08 60.944 0.47 7.59 362.4 6.89
5/28/2021 6:30:00 AM 15.98 60.764 0.471 7.6 645.7 6.97
5/28/2021 6:45:00 AM 15.88 60.584 0.472 7.6 488.7 7.06
5/28/2021 7:00:00 AM 15.78 60.404 0.472 7.61 531.1 7.16
5/28/2021 7:15:00 AM 15.7 60.26 0.473 7.61 523.9 7.26
5/28/2021 7:30:00 AM 15.62 60.116 0.473 7.61 481.7 7.35
5/28/2021 7:45:00 AM 15.54 59.972 0.474 7.59 478.8 7.5
5/28/2021 8:00:00 AM 15.46 59.828 0.474 7.61 657.9 7.59
5/28/2021 8:15:00 AM 15.39 59.702 0.474 7.61 536.9 7.65
5/28/2021 8:30:00 AM 15.33 59.594 0.474 7.63 510.5 7.82
5/28/2021 8:45:00 AM 15.28 59.504 0.475 7.64 429.1 7.99
5/28/2021 9:00:00 AM 15.23 59.414 0.475 7.64 547.2 8.1
5/28/2021 9:15:00 AM 15.19 59.342 0.475 7.65 563 8.27
5/28/2021 9:30:00 AM 15.14 59.252 0.475 7.66 480.8 8.39
5/28/2021 9:45:00 AM 15.1 59.18 0.475 7.68 418.4 8.55
5/28/2021 10:00:00 AM